Provisional Data: Little Chiques Creek near Mount Joy, PA


Please select a monitoring station.
Please select start date.
Please select start date.

Toggle Unit: C/F Toggle Unit: C/F
Sample Time Temperature (C) Temperature (F) Specific Conductivity (mS/cm) pH   Turbidity (NTU+) DO (mg/L)
8/9/2021 12:00:00 AM 21.13 70.034 0.442 7.86 6.22 7.02
8/9/2021 12:15:00 AM 21.09 69.962 0.442 7.86 6.65 6.97
8/9/2021 12:30:00 AM 21.05 69.89 0.442 7.86 6.29 7.11
8/9/2021 12:45:00 AM 21.02 69.836 0.442 7.86 7.01 6.98
8/9/2021 1:00:00 AM 20.99 69.782 0.442 7.86 7.09 6.99
8/9/2021 1:15:00 AM 20.96 69.728 0.443 7.85 7.76 6.9
8/9/2021 1:30:00 AM 20.92 69.656 0.443 7.85 6.43 6.95
8/9/2021 1:45:00 AM 20.89 69.602 0.442 7.85 6.63 6.89
8/9/2021 2:00:00 AM 20.86 69.548 0.443 7.85 8.67 6.94
8/9/2021 2:15:00 AM 20.82 69.476 0.443 7.85 7.63 6.93
8/9/2021 2:30:00 AM 20.78 69.404 0.443 7.85 6.99 6.91
8/9/2021 2:45:00 AM 20.73 69.314 0.443 7.85 6.01 6.76
8/9/2021 3:00:00 AM 20.69 69.242 0.444 7.84 7.18 6.98
8/9/2021 3:15:00 AM 20.65 69.17 0.444 7.84 9.29 6.95
8/9/2021 3:30:00 AM 20.6 69.08 0.444 7.84 6.86 6.84
8/9/2021 3:45:00 AM 20.55 68.99 0.444 7.84 14.82 6.8
8/9/2021 4:00:00 AM 20.5 68.9 0.444 7.84 7.39 6.98
8/9/2021 4:15:00 AM 20.45 68.81 0.444 7.84 8.16 6.85
8/9/2021 4:30:00 AM 20.39 68.702 0.445 7.84 9.2 6.93
8/9/2021 4:45:00 AM 20.33 68.594 0.445 7.84 7.58 6.95
8/9/2021 5:00:00 AM 20.28 68.504 0.445 7.84 7.58 7.05
8/9/2021 5:15:00 AM 20.21 68.378 0.445 7.84 7.51 6.84
8/9/2021 5:30:00 AM 20.16 68.288 0.446 7.83 6.76 6.89
8/9/2021 5:45:00 AM 20.09 68.162 0.446 7.83 6.73 6.98
8/9/2021 6:00:00 AM 20.03 68.054 0.446 7.83 7.43 6.86
8/9/2021 6:15:00 AM 19.97 67.946 0.446 7.83 6.67 6.94
8/9/2021 6:30:00 AM 19.9 67.82 0.446 7.83 6.18 6.92
8/9/2021 6:45:00 AM 19.85 67.73 0.447 7.83 6.44 6.98
8/9/2021 7:00:00 AM 19.8 67.64 0.447 7.83 6.28 7.02
8/9/2021 7:15:00 AM 19.75 67.55 0.446 7.83 6.15 7.06
8/9/2021 7:30:00 AM 19.71 67.478 0.447 7.82 5.8 6.72
8/9/2021 7:45:00 AM 19.68 67.424 0.447 7.83 6.3 7.13
8/9/2021 8:00:00 AM 19.66 67.388 0.448 7.83 6.23 7.12
8/9/2021 8:15:00 AM 19.65 67.37 0.448 7.83 5.65 7.14
8/9/2021 8:30:00 AM 19.67 67.406 0.448 7.84 6.15 7.23
8/9/2021 8:45:00 AM 19.68 67.424 0.448 7.84 5.27 7.33
8/9/2021 9:00:00 AM 19.7 67.46 0.448 7.85 5.82 7.49
8/9/2021 9:15:00 AM 19.74 67.532 0.447 7.86 8.29 7.52
8/9/2021 9:30:00 AM 19.78 67.604 0.448 7.86 5.47 7.61
8/9/2021 9:45:00 AM 19.83 67.694 0.448 7.88 5.46 7.74
8/9/2021 10:00:00 AM 19.88 67.784 0.447 7.89 5.7 7.81
8/9/2021 10:15:00 AM 19.94 67.892 0.447 7.91 5.58 7.8
8/9/2021 10:30:00 AM 20.02 68.036 0.448 7.93 5.99 7.91
8/9/2021 10:45:00 AM 20.11 68.198 0.447 7.94 5.89 8.06
8/9/2021 11:00:00 AM 20.21 68.378 0.447 7.96 5.44 8.42
8/9/2021 11:15:00 AM 20.28 68.504 0.447 7.98 6.67 8.58
8/9/2021 11:30:00 AM 20.39 68.702 0.446 8 6.45 8.44
8/9/2021 11:45:00 AM 20.51 68.918 0.446 8.02 6.55 8.79
8/9/2021 12:00:00 PM 20.64 69.152 0.446 8.04 5.23 8.8
8/9/2021 12:15:00 PM 20.81 69.458 0.445 8.06 6 8.91
8/9/2021 12:30:00 PM 20.97 69.746 0.445 8.08 5.16 9.28
8/9/2021 12:45:00 PM 21.14 70.052 0.445 8.1 5.32 9.18
8/9/2021 1:00:00 PM 21.38 70.484 0.445 8.13 5.99 9.27
8/9/2021 1:15:00 PM 21.59 70.862 0.444 8.15 5.14 9.14
8/9/2021 1:30:00 PM 21.79 71.222 0.444 8.17 5.18 9.38
8/9/2021 1:45:00 PM 21.93 71.474 0.444 8.18 4.83 9.66
8/9/2021 2:00:00 PM 22.11 71.798 0.443 8.2 5.23 9.56
8/9/2021 2:15:00 PM 22.34 72.212 0.443 8.21 5 9.39
8/9/2021 2:30:00 PM 22.54 72.57201 0.442 8.22 5.11 9.96
8/9/2021 2:45:00 PM 22.73 72.914 0.442 8.23 5.49 10.24
8/9/2021 3:00:00 PM 22.84 73.112 0.442 8.23 6.01 10.27
8/9/2021 3:15:00 PM 22.98 73.364 0.442 8.24 5.95 9.83
8/9/2021 3:30:00 PM 23.09 73.562 0.442 8.24 8.93 10.22
8/9/2021 3:45:00 PM 23.17 73.706 0.442 8.24 8.59 10.25
8/9/2021 4:00:00 PM 23.25 73.85 0.442 8.23 7.73 10.06
8/9/2021 4:15:00 PM 23.27 73.886 0.442 8.22 7.26 9.85
8/9/2021 4:30:00 PM 23.3 73.94 0.442 8.22 5.34 9.66
8/9/2021 4:45:00 PM 23.27 73.886 0.442 8.2 5.99 9.82
8/9/2021 5:00:00 PM 23.23 73.814 0.442 8.19 6.16 9.66
8/9/2021 5:15:00 PM 23.17 73.706 0.442 8.17 5.64 9.42
8/9/2021 5:30:00 PM 23.12 73.616 0.443 8.15 5.47 9.27
8/9/2021 5:45:00 PM 23.06 73.508 0.443 8.14 5.28 8.65
8/9/2021 6:00:00 PM 22.99 73.382 0.443 8.12 6.72 9.05
8/9/2021 6:15:00 PM 22.91 73.238 0.443 8.11 5.26 8.77
8/9/2021 6:30:00 PM 22.86 73.148 0.443 8.09 6.02 8.8
8/9/2021 6:45:00 PM 22.8 73.04 0.443 8.07 5.52 8.61
8/9/2021 7:00:00 PM 22.7 72.86 0.443 8.06 5.88 8.48
8/9/2021 7:15:00 PM 22.62 72.716 0.443 8.05 6.84 8.38
8/9/2021 7:30:00 PM 22.54 72.57201 0.444 8.03 6.41 8.2
8/9/2021 7:45:00 PM 22.47 72.446 0.444 8.01 5.76 7.85
8/9/2021 8:00:00 PM 22.39 72.302 0.443 8 8.11 7.76
8/9/2021 8:15:00 PM 22.32 72.176 0.444 7.99 6.03 7.81
8/9/2021 8:30:00 PM 22.24 72.032 0.444 7.97 5.97 7.67
8/9/2021 8:45:00 PM 22.18 71.924 0.444 7.96 6.92 7.53
8/9/2021 9:00:00 PM 22.12 71.816 0.444 7.95 6.37 7.55
8/9/2021 9:15:00 PM 22.07 71.726 0.444 7.93 7.53 7.38
8/9/2021 9:30:00 PM 22.02 71.636 0.444 7.92 6.44 7.3
8/9/2021 9:45:00 PM 21.98 71.564 0.445 7.92 6.47 7.19
8/9/2021 10:00:00 PM 21.94 71.492 0.445 7.91 6.14 7.03
8/9/2021 10:15:00 PM 21.9 71.42 0.444 7.9 5.62 7.18
8/9/2021 10:30:00 PM 21.86 71.348 0.445 7.9 6.62 7.01
8/9/2021 10:45:00 PM 21.82 71.276 0.445 7.89 6.99 7.05
8/9/2021 11:00:00 PM 21.79 71.222 0.445 7.88 6.49 6.96
8/9/2021 11:15:00 PM 21.77 71.186 0.445 7.88 6.55 6.86
8/9/2021 11:30:00 PM 21.73 71.114 0.444 7.87 6.69 6.86
8/9/2021 11:45:00 PM 21.71 71.078 0.445 7.87 7.84 6.77
8/10/2021 12:00:00 AM 21.68 71.024 0.445 7.86 7.67 6.81
8/10/2021 12:15:00 AM 21.66 70.988 0.445 7.86 7 6.82
8/10/2021 12:30:00 AM 21.63 70.934 0.445 7.86 6.36 6.78
8/10/2021 12:45:00 AM 21.6 70.88 0.445 7.86 6.7 6.77
8/10/2021 1:00:00 AM 21.57 70.826 0.445 7.85 6.5 6.78
8/10/2021 1:15:00 AM 21.55 70.79 0.445 7.85 6.18 6.86
8/10/2021 1:30:00 AM 21.52 70.736 0.445 7.85 6.47 6.76
8/10/2021 1:45:00 AM 21.49 70.682 0.445 7.85 6.07 6.67
8/10/2021 2:00:00 AM 21.46 70.628 0.445 7.85 6.56 6.62
8/10/2021 2:15:00 AM 21.43 70.574 0.445 7.85 6.46 6.72
8/10/2021 2:30:00 AM 21.4 70.52 0.445 7.84 6.33 6.76
8/10/2021 2:45:00 AM 21.37 70.466 0.446 7.84 6.25 6.61
8/10/2021 3:00:00 AM 21.34 70.412 0.445 7.83 6.74 6.6
8/10/2021 3:15:00 AM 21.31 70.358 0.446 7.83 6.56 6.66
8/10/2021 3:30:00 AM 21.29 70.32201 0.446 7.83 6.62 6.64
8/10/2021 3:45:00 AM 21.26 70.268 0.446 7.83 6.91 6.61
8/10/2021 4:00:00 AM 21.24 70.232 0.446 7.83 6.22 6.57
8/10/2021 4:15:00 AM 21.21 70.17799 0.447 7.82 7.26 6.72
8/10/2021 4:30:00 AM 21.18 70.124 0.446 7.82 7.12 6.51
8/10/2021 4:45:00 AM 21.16 70.088 0.447 7.82 8.65 6.69
8/10/2021 5:00:00 AM 21.13 70.034 0.447 7.82 7.59 6.63
8/10/2021 5:15:00 AM 21.1 69.98 0.447 7.83 6.27 6.59
8/10/2021 5:30:00 AM 21.08 69.944 0.447 7.82 6.73 6.53
8/10/2021 5:45:00 AM 21.05 69.89 0.447 7.82 6.52 6.65
8/10/2021 6:00:00 AM 21.03 69.854 0.447 7.82 7.69 6.55
8/10/2021 6:15:00 AM 20.99 69.782 0.447 7.82 7.95 6.63
8/10/2021 6:30:00 AM 20.97 69.746 0.447 7.82 5.97 6.41
8/10/2021 6:45:00 AM 20.95 69.71 0.448 7.82 7.15 6.49
8/10/2021 7:00:00 AM 20.93 69.674 0.447 7.82 6.17 6.68
8/10/2021 7:15:00 AM 20.9 69.62 0.448 7.82 5.96 6.57
8/10/2021 7:30:00 AM 20.89 69.602 0.448 7.82 6.04 6.62
8/10/2021 7:45:00 AM 20.88 69.584 0.448 7.82 5.92 6.74
8/10/2021 8:00:00 AM 20.86 69.548 0.448 7.82 5.84 6.44
8/10/2021 8:15:00 AM 20.85 69.53 0.448 7.82 5.67 6.85
8/10/2021 8:30:00 AM 20.84 69.512 0.448 7.82 5.42 6.81
8/10/2021 8:45:00 AM 20.84 69.512 0.448 7.81 5.45 6.64
8/10/2021 9:00:00 AM 20.83 69.494 0.448 7.82 5.2 6.69
8/10/2021 9:15:00 AM 20.86 69.548 0.449 7.83 5.43 6.81
8/10/2021 9:30:00 AM 20.92 69.656 0.449 7.84 5.54 7.21
8/10/2021 9:45:00 AM 20.96 69.728 0.449 7.85 5.22 6.91
8/10/2021 10:00:00 AM 21 69.8 0.449 7.86 5.53 7.16
8/10/2021 10:15:00 AM 21.04 69.872 0.449 7.86 5.85 7.22
8/10/2021 10:30:00 AM 21.09 69.962 0.449 7.87 6.39 7.21
8/10/2021 10:45:00 AM 21.17 70.106 0.449 7.88 6.55 7.18
8/10/2021 11:00:00 AM 21.28 70.304 0.449 7.91 7.72 7.81
8/10/2021 11:15:00 AM 21.36 70.448 0.449 7.91 7.32 7.22
8/10/2021 11:30:00 AM 21.47 70.646 0.449 7.93 7.05 7.6
8/10/2021 11:45:00 AM 21.62 70.916 0.449 7.94 6.55 8.14
8/10/2021 12:00:00 PM 21.78 71.204 0.448 7.97 5.43 8.19
8/10/2021 12:15:00 PM 21.95 71.51 0.448 8 5.47 7.93
8/10/2021 12:30:00 PM 22.14 71.852 0.448 8.02 5.88 8.19
8/10/2021 12:45:00 PM 22.33 72.194 0.448 8.04 6.3 8.66
8/10/2021 1:00:00 PM 22.52 72.536 0.447 8.06 5.6 8.88
8/10/2021 1:15:00 PM 22.7 72.86 0.447 8.07 6.03 8.78
8/10/2021 1:30:00 PM 22.9 73.22 0.447 8.09 6.68 8.76
8/10/2021 1:45:00 PM 23.13 73.634 0.446 8.11 7.57 8.68
8/10/2021 2:00:00 PM 23.34 74.012 0.446 8.12 6.32 8.86
8/10/2021 2:15:00 PM 23.55 74.39 0.445 8.14 6.48 9.39
8/10/2021 2:30:00 PM 23.71 74.67799 0.445 8.15 6.29 9.59
8/10/2021 2:45:00 PM 23.88 74.984 0.445 8.16 6.2 9.62
8/10/2021 3:00:00 PM 24.04 75.272 0.444 8.17 6.23 9.5
8/10/2021 3:15:00 PM 24.06 75.308 0.444 8.16 7.75 9.44
8/10/2021 3:30:00 PM 24.18 75.524 0.444 8.17 9.73 9.45
8/10/2021 3:45:00 PM 24.24 75.632 0.444 8.16 10.21 9.43
8/10/2021 4:00:00 PM 24.31 75.758 0.444 8.16 10.72 9.25
8/10/2021 4:15:00 PM 24.31 75.758 0.444 8.16 7.35 9.31
8/10/2021 4:30:00 PM 24.27 75.686 0.444 8.15 6.82 9.06
8/10/2021 4:45:00 PM 24.2 75.56 0.444 8.14 6.61 9.01
8/10/2021 5:00:00 PM 24.22 75.596 0.444 8.13 7.23 9.1
8/10/2021 5:15:00 PM 24.13 75.434 0.444 8.11 9.3 8.91
8/10/2021 5:30:00 PM 24.1 75.38 0.444 8.1 7.14 8.82
8/10/2021 5:45:00 PM 24.03 75.254 0.444 8.09 6.8 8.71
8/10/2021 6:00:00 PM 23.96 75.128 0.445 8.08 8.59 8.55
8/10/2021 6:15:00 PM 23.85 74.93 0.444 8.05 7.74 8.35
8/10/2021 6:30:00 PM 23.69 74.642 0.438 8.05 8.44 7.98
8/10/2021 6:45:00 PM 23.49 74.282 0.428 8.04 19.38 7.71
8/10/2021 7:00:00 PM 23.37 74.066 0.432 8.02 12.29 7.88
8/10/2021 7:15:00 PM 23.22 73.796 0.427 8.01 10.54 7.62
8/10/2021 7:30:00 PM 23.09 73.562 0.427 7.99 9.48 7.62
8/10/2021 7:45:00 PM 22.96 73.328 0.427 7.97 10.38 7.3
8/10/2021 8:00:00 PM 22.88 73.184 0.428 7.95 9.01 7.27
8/10/2021 8:15:00 PM 22.8 73.04 0.428 7.93 8.4 7.12
8/10/2021 8:30:00 PM 22.72 72.896 0.429 7.91 8.98 7.08
8/10/2021 8:45:00 PM 22.66 72.788 0.431 7.9 13.19 6.99
8/10/2021 9:00:00 PM 22.61 72.698 0.432 7.89 8.96 6.92
8/10/2021 9:15:00 PM 22.57 72.626 0.432 7.87 8.05 6.83
8/10/2021 9:30:00 PM 22.52 72.536 0.433 7.86 9.35 6.72
8/10/2021 9:45:00 PM 22.48 72.464 0.433 7.86 8.16 6.77
8/10/2021 10:00:00 PM 22.45 72.41 0.434 7.85 7.65 6.62
8/10/2021 10:15:00 PM 22.41 72.338 0.435 7.84 8.58 6.64
8/10/2021 10:30:00 PM 22.38 72.284 0.435 7.83 6.89 6.39
8/10/2021 10:45:00 PM 22.35 72.23 0.435 7.83 8.33 6.5
8/10/2021 11:00:00 PM 22.33 72.194 0.435 7.82 7.57 6.53
8/10/2021 11:15:00 PM 22.3 72.14 0.435 7.81 9.27 6.38
8/10/2021 11:30:00 PM 22.27 72.086 0.435 7.81 7.41 6.36
8/10/2021 11:45:00 PM 22.25 72.05 0.434 7.81 7.41 6.31
8/11/2021 12:00:00 AM 22.21 71.978 0.435 7.8 7.53 6.36
8/11/2021 12:15:00 AM 22.18 71.924 0.434 7.8 7.81 6.34
8/11/2021 12:30:00 AM 22.14 71.852 0.434 7.79 7.89 6.23
8/11/2021 12:45:00 AM 22.09 71.762 0.434 7.79 8.11 6.32
8/11/2021 1:00:00 AM 22.05 71.69 0.434 7.79 7.85 6.32
8/11/2021 1:15:00 AM 22.01 71.618 0.434 7.78 7.31 6.23
8/11/2021 1:30:00 AM 21.96 71.528 0.435 7.78 7.34 6.19
8/11/2021 1:45:00 AM 21.91 71.438 0.435 7.78 7.94 6.26
8/11/2021 2:00:00 AM 21.86 71.348 0.435 7.77 7.85 6.22
8/11/2021 2:15:00 AM 21.81 71.258 0.435 7.77 7.78 6.15
8/11/2021 2:30:00 AM 21.76 71.168 0.436 7.77 8.81 6.14
8/11/2021 2:45:00 AM 21.7 71.06 0.436 7.77 8.56 6.01
8/11/2021 3:00:00 AM 21.65 70.97 0.436 7.76 8.16 5.96
8/11/2021 3:15:00 AM 21.6 70.88 0.437 7.76 8.64 5.94
8/11/2021 3:30:00 AM 21.54 70.772 0.437 7.76 8.22 6.23
8/11/2021 3:45:00 AM 21.48 70.664 0.438 7.76 7.9 6.07
8/11/2021 4:00:00 AM 21.43 70.574 0.438 7.76 8.13 6.03
8/11/2021 4:15:00 AM 21.37 70.466 0.438 7.76 7.72 6.21
8/11/2021 4:30:00 AM 21.32 70.376 0.439 7.76 7.94 6.25
8/11/2021 4:45:00 AM 21.26 70.268 0.439 7.76 7.76 6.22
8/11/2021 5:00:00 AM 21.21 70.17799 0.439 7.76 7.22 6.16
8/11/2021 5:15:00 AM 21.15 70.07 0.439 7.76 8.64 6.14
8/11/2021 5:30:00 AM 21.1 69.98 0.439 7.76 10.56 6.28
8/11/2021 5:45:00 AM 21.05 69.89 0.439 7.75 10.34 6.25
8/11/2021 6:00:00 AM 21.01 69.818 0.439 7.76 7.9 6.12
8/11/2021 6:15:00 AM 20.95 69.71 0.44 7.76 8.41 6.29
8/11/2021 6:30:00 AM 20.91 69.638 0.44 7.76 7.97 6.27
8/11/2021 6:45:00 AM 20.86 69.548 0.44 7.76 7.58 5.96
8/11/2021 7:00:00 AM 20.82 69.476 0.44 7.76 7.02 6.38
8/11/2021 7:15:00 AM 20.79 69.422 0.44 7.76 7.72 6.38
8/11/2021 7:30:00 AM 20.76 69.368 0.44 7.76 7.85 6.5
8/11/2021 7:45:00 AM 20.75 69.35 0.44 7.76 6.75 6.49
8/11/2021 8:00:00 AM 20.74 69.332 0.44 7.77 6.76 6.44
8/11/2021 8:15:00 AM 20.75 69.35 0.44 7.77 7.11 6.68
8/11/2021 8:30:00 AM 20.76 69.368 0.439 7.77 6.85 6.77
8/11/2021 8:45:00 AM 20.78 69.404 0.439 7.78 7.23 6.82
8/11/2021 9:00:00 AM 20.81 69.458 0.44 7.78 6.91 6.77
8/11/2021 9:15:00 AM 20.85 69.53 0.439 7.79 6.58 6.91
8/11/2021 9:30:00 AM 20.91 69.638 0.438 7.8 7.5 6.94
8/11/2021 9:45:00 AM 20.97 69.746 0.438 7.81 7.44 7.14
8/11/2021 10:00:00 AM 21.03 69.854 0.438 7.82 8.22 7.27
8/11/2021 10:15:00 AM 21.09 69.962 0.437 7.83 6.53 7.29
8/11/2021 10:30:00 AM 21.16 70.088 0.437 7.84 6.38 7.36
8/11/2021 10:45:00 AM 21.25 70.25 0.436 7.85 6.25 7.41
8/11/2021 11:00:00 AM 21.36 70.448 0.436 7.86 6.09 7.59
8/11/2021 11:15:00 AM 21.48 70.664 0.436 7.87 6.39 7.7
8/11/2021 11:30:00 AM 21.63 70.934 0.435 7.88 6.29 7.77
8/11/2021 11:45:00 AM 21.8 71.24 0.435 7.9 6.29 7.73
8/11/2021 12:00:00 PM 21.97 71.546 0.435 7.91 7.38 7.92
8/11/2021 12:15:00 PM 22.17 71.906 0.434 7.93 8 8.1
8/11/2021 12:30:00 PM 22.38 72.284 0.434 7.94 6.87 8.21
8/11/2021 12:45:00 PM 22.6 72.68 0.434 7.96 7.87 8.38
8/11/2021 1:00:00 PM 22.81 73.058 0.434 7.97 7.33 8.45
8/11/2021 1:15:00 PM 23.02 73.436 0.433 7.99 8.55 8.53
8/11/2021 1:30:00 PM 23.23 73.814 0.433 8 7.74 8.5
8/11/2021 1:45:00 PM 23.45 74.21 0.433 8.02 7.23 8.67
8/11/2021 2:00:00 PM 23.66 74.588 0.432 8.03 7.17 8.81
8/11/2021 2:15:00 PM 23.86 74.948 0.432 8.05 7.13 9.02
8/11/2021 2:30:00 PM 24.05 75.29 0.432 8.06 8.03 8.89
8/11/2021 2:45:00 PM 24.19 75.542 0.431 8.07 6.57 8.99
8/11/2021 3:00:00 PM 24.31 75.758 0.431 8.07 6.68 8.95
8/11/2021 3:15:00 PM 24.3 75.74 0.431 8.07 7.11 8.74
8/11/2021 3:30:00 PM 24.27 75.686 0.431 8.06 7.07 8.69
8/11/2021 3:45:00 PM 24.22 75.596 0.43 8.05 6.97 8.39
8/11/2021 4:00:00 PM 24.3 75.74 0.43 8.05 6.44 8.6
8/11/2021 4:15:00 PM 24.38 75.884 0.43 8.05 6.53 8.61
8/11/2021 4:30:00 PM 24.38 75.884 0.43 8.05 6.38 8.54
8/11/2021 4:45:00 PM 24.28 75.704 0.429 8.03 7.32 8.39
8/11/2021 5:00:00 PM 24.13 75.434 0.429 8.01 7.23 8.1
8/11/2021 5:15:00 PM 24.05 75.29 0.418 8.01 7.67 7.99
8/11/2021 5:30:00 PM 23.94 75.092 0.411 8 19.18 7.9
8/11/2021 5:45:00 PM 23.85 74.93 0.411 7.99 15.32 7.79
8/11/2021 6:00:00 PM 23.76 74.768 0.406 7.98 12.85 7.61
8/11/2021 6:15:00 PM 23.63 74.534 0.396 7.98 20.07 7.57
8/11/2021 6:30:00 PM 23.55 74.39 0.398 7.96 16.65 7.39
8/11/2021 6:45:00 PM 23.48 74.264 0.396 7.94 15.13 7.27
8/11/2021 7:00:00 PM 23.41 74.138 0.399 7.92 15.67 7.19
8/11/2021 7:15:00 PM 23.36 74.048 0.4 7.91 16.77 7.05
8/11/2021 7:30:00 PM 23.31 73.958 0.402 7.9 12.67 6.98
8/11/2021 7:45:00 PM 23.27 73.886 0.402 7.88 12.03 6.87
8/11/2021 8:00:00 PM 23.23 73.814 0.403 7.87 11.43 6.75
8/11/2021 8:15:00 PM 23.19 73.742 0.405 7.86 11.05 6.71
8/11/2021 8:30:00 PM 23.16 73.688 0.406 7.85 10 6.65
8/11/2021 8:45:00 PM 23.13 73.634 0.407 7.84 10.08 6.58
8/11/2021 9:00:00 PM 23.1 73.58 0.408 7.83 9.76 6.58
8/11/2021 9:15:00 PM 23.08 73.544 0.41 7.83 9.7 6.52
8/11/2021 9:30:00 PM 23.06 73.508 0.411 7.81 31.68 6.52
8/11/2021 9:45:00 PM 23.03 73.454 0.412 7.82 12.12 6.47
8/11/2021 10:00:00 PM 23 73.4 0.412 7.81 16.17 6.46
8/11/2021 10:15:00 PM 22.96 73.328 0.413 7.81 12.03 6.51
8/11/2021 10:30:00 PM 22.92 73.256 0.413 7.81 10.39 6.51
8/11/2021 10:45:00 PM 22.88 73.184 0.413 7.81 10.38 6.54
8/11/2021 11:00:00 PM 22.84 73.112 0.414 7.81 10.78 6.48
8/11/2021 11:15:00 PM 22.8 73.04 0.414 7.8 13.21 6.45
8/11/2021 11:30:00 PM 22.77 72.986 0.415 7.8 11.91 6.5
8/11/2021 11:45:00 PM 22.73 72.914 0.414 7.8 11.69 6.49
8/12/2021 12:00:00 AM 22.7 72.86 0.414 7.8 10.79 6.49
8/12/2021 12:15:00 AM 22.67 72.806 0.413 7.8 10.33 6.46
8/12/2021 12:30:00 AM 22.64 72.752 0.413 7.8 11.3 6.51
8/12/2021 12:45:00 AM 22.6 72.68 0.413 7.8 10.99 6.47
8/12/2021 1:00:00 AM 22.57 72.626 0.414 7.8 11.43 6.44
8/12/2021 1:15:00 AM 22.53 72.554 0.413 7.8 9.78 6.49
8/12/2021 1:30:00 AM 22.48 72.464 0.414 7.81 9.95 6.45
8/12/2021 1:45:00 AM 22.43 72.374 0.415 7.8 10.7 6.42
8/12/2021 2:00:00 AM 22.38 72.284 0.415 7.8 11.84 6.5
8/12/2021 2:15:00 AM 22.33 72.194 0.416 7.81 10.87 6.46
8/12/2021 2:30:00 AM 22.27 72.086 0.417 7.8 11.27 6.49
8/12/2021 2:45:00 AM 22.21 71.978 0.418 7.8 10.6 6.5
8/12/2021 3:00:00 AM 22.15 71.87 0.418 7.8 12.12 6.49
8/12/2021 3:15:00 AM 22.09 71.762 0.418 7.8 14.76 6.48
8/12/2021 3:30:00 AM 22.03 71.654 0.42 7.8 16.51 6.41
8/12/2021 3:45:00 AM 21.98 71.564 0.42 7.79 12.17 6.5
8/12/2021 4:00:00 AM 21.93 71.474 0.421 7.79 10.27 6.44
8/12/2021 4:15:00 AM 21.87 71.366 0.422 7.79 11.73 6.48
8/12/2021 4:30:00 AM 21.82 71.276 0.422 7.79 12.02 6.41
8/12/2021 4:45:00 AM 21.76 71.168 0.422 7.78 10.97 6.45
8/12/2021 5:00:00 AM 21.7 71.06 0.422 7.78 12.61 6.41
8/12/2021 5:15:00 AM 21.65 70.97 0.422 7.78 11.52 6.49
8/12/2021 5:30:00 AM 21.59 70.862 0.422 7.78 14.97 6.38
8/12/2021 5:45:00 AM 21.53 70.754 0.422 7.77 12.86 6.45
8/12/2021 6:00:00 AM 21.46 70.628 0.423 7.77 10.33 6.52
8/12/2021 6:15:00 AM 21.4 70.52 0.423 7.77 10.76 6.48
8/12/2021 6:30:00 AM 21.35 70.43 0.423 7.77 10.45 6.47
8/12/2021 6:45:00 AM 21.3 70.34 0.423 7.77 10.25 6.48
8/12/2021 7:00:00 AM 21.25 70.25 0.423 7.76 9.98 6.48
8/12/2021 7:15:00 AM 21.21 70.17799 0.424 7.76 9.33 6.46
8/12/2021 7:30:00 AM 21.18 70.124 0.424 7.76 9.14 6.51
8/12/2021 7:45:00 AM 21.16 70.088 0.425 7.76 9.59 6.52
8/12/2021 8:00:00 AM 21.14 70.052 0.425 7.76 9.47 6.59
8/12/2021 8:15:00 AM 21.14 70.052 0.425 7.77 8.6 6.61
8/12/2021 8:30:00 AM 21.16 70.088 0.426 7.77 8.24 6.67
8/12/2021 8:45:00 AM 21.18 70.124 0.426 7.78 8.69 6.73
8/12/2021 9:00:00 AM 21.19 70.142 0.426 7.78 9 6.73
8/12/2021 9:15:00 AM 21.22 70.196 0.426 7.78 8.62 6.81
8/12/2021 9:30:00 AM 21.26 70.268 0.426 7.79 8.75 6.97
8/12/2021 9:45:00 AM 21.31 70.358 0.426 7.8 8.27 6.93
8/12/2021 10:00:00 AM 21.36 70.448 0.426 7.8 8.52 7.01
8/12/2021 10:15:00 AM 21.41 70.538 0.426 7.81 8.98 7.13
8/12/2021 10:30:00 AM 21.46 70.628 0.426 7.81 9.38 7.25
8/12/2021 10:45:00 AM 21.53 70.754 0.426 7.82 8.16 7.11
8/12/2021 11:00:00 AM 21.63 70.934 0.426 7.83 7.93 7.23
8/12/2021 11:15:00 AM 21.74 71.132 0.426 7.84 7.87 7.42
8/12/2021 11:30:00 AM 21.88 71.384 0.426 7.85 8.46 7.56
8/12/2021 11:45:00 AM 22.04 71.672 0.426 7.86 8.14 7.6
8/12/2021 12:00:00 PM 22.21 71.978 0.426 7.87 8.41 7.78
8/12/2021 12:15:00 PM 22.4 72.32 0.426 7.89 8.01 7.85
8/12/2021 12:30:00 PM 22.61 72.698 0.426 7.9 8.48 8
8/12/2021 12:45:00 PM 22.82 73.076 0.426 7.91 7.42 8.05
8/12/2021 1:00:00 PM 23.05 73.49 0.426 7.93 8.46 8.15
8/12/2021 1:15:00 PM 23.26 73.868 0.426 7.94 9.82 8.22
8/12/2021 1:30:00 PM 23.46 74.228 0.426 7.96 7.34 8.5
8/12/2021 1:45:00 PM 23.67 74.606 0.425 7.97 7.51 8.48
8/12/2021 2:00:00 PM 23.89 75.002 0.425 7.98 7.77 8.45
8/12/2021 2:15:00 PM 24.09 75.362 0.425 7.99 7.57 8.52
8/12/2021 2:30:00 PM 24.26 75.668 0.425 8 7.91 8.69
8/12/2021 2:45:00 PM 24.39 75.902 0.425 8.01 7.18 8.65
8/12/2021 3:00:00 PM 24.51 76.118 0.425 8.02 8.81 8.7
8/12/2021 3:15:00 PM 24.68 76.424 0.425 8.02 8 8.74
8/12/2021 3:30:00 PM 24.8 76.64 0.425 8.03 6.97 8.65
8/12/2021 3:45:00 PM 24.89 76.802 0.425 8.03 7.48 8.55
8/12/2021 4:00:00 PM 24.96 76.92799 0.425 8.03 6.91 8.52
8/12/2021 4:15:00 PM 24.98 76.964 0.425 8.03 6.99 8.45
8/12/2021 4:30:00 PM 24.99 76.982 0.425 8.02 7.39 8.37
8/12/2021 4:45:00 PM 24.97 76.946 0.425 8.01 7.47 8.27
8/12/2021 5:00:00 PM 24.92 76.856 0.426 8 6.31 8.19
8/12/2021 5:15:00 PM 24.85 76.73 0.426 7.99 6.9 8.06
8/12/2021 5:30:00 PM 24.78 76.604 0.426 7.98 6.7 8.02
8/12/2021 5:45:00 PM 24.71 76.478 0.426 7.97 8.22 7.86
8/12/2021 6:00:00 PM 24.64 76.352 0.427 7.96 8.92 7.66
8/12/2021 6:15:00 PM 24.57 76.226 0.427 7.95 7.59 7.64
8/12/2021 6:30:00 PM 24.51 76.118 0.427 7.93 7.75 7.46
8/12/2021 6:45:00 PM 24.45 76.01 0.427 7.93 7.25 7.37
8/12/2021 7:00:00 PM 24.39 75.902 0.427 7.91 7.33 7.27
8/12/2021 7:15:00 PM 24.32 75.776 0.427 7.9 7.33 7.13
8/12/2021 7:30:00 PM 24.26 75.668 0.428 7.89 7.46 7.17
8/12/2021 7:45:00 PM 24.19 75.542 0.428 7.88 7.77 7.02
8/12/2021 8:00:00 PM 24.13 75.434 0.428 7.87 7.57 6.93
8/12/2021 8:15:00 PM 24.07 75.326 0.428 7.87 7.25 6.82
8/12/2021 8:30:00 PM 24.02 75.236 0.428 7.86 9.25 6.79
8/12/2021 8:45:00 PM 23.97 75.146 0.429 7.85 9.45 6.75
8/12/2021 9:00:00 PM 23.94 75.092 0.429 7.84 7.84 6.6
8/12/2021 9:15:00 PM 23.9 75.02 0.429 7.84 8.1 6.47
8/12/2021 9:30:00 PM 23.88 74.984 0.43 7.83 8.27 6.44
8/12/2021 9:45:00 PM 23.84 74.912 0.43 7.82 8.87 6.47
8/12/2021 10:00:00 PM 23.82 74.876 0.43 7.82 7.53 6.53
8/12/2021 10:15:00 PM 23.8 74.84 0.43 7.82 7.41 6.4
8/12/2021 10:30:00 PM 23.78 74.804 0.43 7.81 7.3 6.27
8/12/2021 10:45:00 PM 23.75 74.75 0.431 7.81 26.4 6.31
8/12/2021 11:00:00 PM 23.74 74.732 0.431 7.81 8.63 6.19
8/12/2021 11:15:00 PM 23.71 74.67799 0.431 7.81 8.83 6.41
8/12/2021 11:30:00 PM 23.67 74.606 0.431 7.81 8.78 6.19
8/12/2021 11:45:00 PM 23.61 74.498 0.43 7.81 9.34 6.2
8/13/2021 12:00:00 AM 23.55 74.39 0.427 7.82 8.12 6.3
8/13/2021 12:15:00 AM 23.5 74.3 0.429 7.81 7.67 6.28
8/13/2021 12:30:00 AM 23.45 74.21 0.429 7.81 8.11 6.3
8/13/2021 12:45:00 AM 23.39 74.102 0.428 7.81 7.74 6.18
8/13/2021 1:00:00 AM 23.34 74.012 0.428 7.81 7.85 6.07
8/13/2021 1:15:00 AM 23.28 73.904 0.429 7.8 9.23 5.85
8/13/2021 1:30:00 AM 23.23 73.814 0.429 7.8 8.9 6.07
8/13/2021 1:45:00 AM 23.17 73.706 0.43 7.8 10.84 6.17
8/13/2021 2:00:00 AM 23.12 73.616 0.43 7.8 11.11 6.14
8/13/2021 2:15:00 AM 23.07 73.526 0.431 7.79 8.08 6.05
8/13/2021 2:30:00 AM 23.01 73.418 0.431 7.8 8.88 5.96
8/13/2021 2:45:00 AM 22.96 73.328 0.431 7.79 8.56 6.09
8/13/2021 3:00:00 AM 22.9 73.22 0.432 7.79 7.89 5.9
8/13/2021 3:15:00 AM 22.84 73.112 0.432 7.79 8.51 5.98
8/13/2021 3:30:00 AM 22.78 73.004 0.431 7.79 8.16 5.98
8/13/2021 3:45:00 AM 22.71 72.878 0.432 7.79 7.77 6.07
8/13/2021 4:00:00 AM 22.64 72.752 0.432 7.79 8.01 6.1
8/13/2021 4:15:00 AM 22.57 72.626 0.432 7.78 8.74 6.07
8/13/2021 4:30:00 AM 22.5 72.5 0.432 7.78 8.17 6.09
8/13/2021 4:45:00 AM 22.43 72.374 0.433 7.78 7.99 5.9
8/13/2021 5:00:00 AM 22.36 72.248 0.432 7.78 10.39 6.05
8/13/2021 5:15:00 AM 22.28 72.104 0.433 7.78 8.85 6.06
8/13/2021 5:30:00 AM 22.21 71.978 0.432 7.78 9.43 5.99
8/13/2021 5:45:00 AM 22.13 71.834 0.432 7.78 9.87 5.77
8/13/2021 6:00:00 AM 22.07 71.726 0.432 7.77 11.1 5.66
8/13/2021 6:15:00 AM 22 71.6 0.432 7.78 9.16 5.78
8/13/2021 6:30:00 AM 21.93 71.474 0.433 7.77 8.8 5.81
8/13/2021 6:45:00 AM 21.86 71.348 0.433 7.77 9.68 6.3
8/13/2021 7:00:00 AM 21.8 71.24 0.432 7.77 8.16 6.2
8/13/2021 7:15:00 AM 21.74 71.132 0.433 7.78 7.12 6.03
8/13/2021 7:30:00 AM 21.69 71.042 0.433 7.78 7.54 5.89
8/13/2021 7:45:00 AM 21.65 70.97 0.433 7.78 7.06 5.96
8/13/2021 8:00:00 AM 21.62 70.916 0.433 7.78 7.04 6.05
8/13/2021 8:15:00 AM 21.6 70.88 0.433 7.78 7.27 6.12
8/13/2021 8:30:00 AM 21.6 70.88 0.433 7.78 6.55 6.1
8/13/2021 8:45:00 AM 21.6 70.88 0.433 7.79 6.2 6.22
8/13/2021 9:00:00 AM 21.62 70.916 0.433 7.79 6.81 6.42
8/13/2021 9:15:00 AM 21.64 70.952 0.433 7.79 6.31 6.72
8/13/2021 9:30:00 AM 21.68 71.024 0.433 7.8 6.93 6.42
8/13/2021 9:45:00 AM 21.73 71.114 0.433 7.8 6.71 6.48
8/13/2021 10:00:00 AM 21.78 71.204 0.433 7.81 6.6 6.58
8/13/2021 10:15:00 AM 21.83 71.294 0.433 7.82 7.15 6.74
8/13/2021 10:30:00 AM 21.88 71.384 0.433 7.82 7.52 6.7
8/13/2021 10:45:00 AM 21.96 71.528 0.433 7.83 8.04 6.94
8/13/2021 11:00:00 AM 22.06 71.708 0.432 7.84 7.74 6.96
8/13/2021 11:15:00 AM 22.17 71.906 0.431 7.84 6.89 7.04
8/13/2021 11:30:00 AM 22.3 72.14 0.431 7.85 6.62 6.96
8/13/2021 11:45:00 AM 22.46 72.42799 0.431 7.87 6.41 7.27
8/13/2021 12:00:00 PM 22.64 72.752 0.43 7.88 6.45 7.27
8/13/2021 12:15:00 PM 22.83 73.094 0.43 7.89 6.42 7.67
8/13/2021 12:30:00 PM 23.02 73.436 0.429 7.91 6.58 7.56
8/13/2021 12:45:00 PM 23.24 73.832 0.428 7.93 6.12 7.7
8/13/2021 1:00:00 PM 23.45 74.21 0.428 7.94 6.49 7.79
8/13/2021 1:15:00 PM 23.61 74.498 0.427 7.96 6.13 8.02
8/13/2021 1:30:00 PM 23.82 74.876 0.426 7.97 6.34 8.31
8/13/2021 1:45:00 PM 24.02 75.236 0.426 7.98 6.94 8.11
8/13/2021 2:00:00 PM 24.22 75.596 0.425 8 7.18 8.29
8/13/2021 2:15:00 PM 24.43 75.974 0.424 8.01 6.52 8.49
8/13/2021 2:30:00 PM 24.6 76.28 0.423 8.02 6.69 8.47
8/13/2021 2:45:00 PM 24.79 76.622 0.423 8.03 6.96 8.47
8/13/2021 3:00:00 PM 24.96 76.92799 0.422 8.04 7.89 8.49
8/13/2021 3:15:00 PM 25.1 77.18 0.422 8.04 8.3 8.42
8/13/2021 3:30:00 PM 25.21 77.378 0.422 8.05 8.02 8.45
8/13/2021 3:45:00 PM 25.29 77.522 0.421 8.05 7.62 8.24
8/13/2021 4:00:00 PM 25.2 77.36 0.421 8.04 7.27 8.12
8/13/2021 4:15:00 PM 25.13 77.234 0.421 8.03 7.26 8.15
8/13/2021 4:30:00 PM 25.04 77.07201 0.421 8.01 7.09 7.85
8/13/2021 4:45:00 PM 24.97 76.946 0.421 8 6.59 7.73
8/13/2021 5:00:00 PM 24.88 76.784 0.42 7.99 7.08 7.6
8/13/2021 5:15:00 PM 24.71 76.478 0.42 7.98 7.08 7.45
8/13/2021 5:30:00 PM 24.57 76.226 0.42 7.97 6.63 7.23
8/13/2021 5:45:00 PM 24.44 75.992 0.419 7.95 7 7.1
8/13/2021 6:00:00 PM 24.33 75.794 0.419 7.94 6.25 6.63
8/13/2021 6:15:00 PM 24.22 75.596 0.419 7.92 7.04 6.93
8/13/2021 6:30:00 PM 24.13 75.434 0.419 7.92 6.84 6.85
8/13/2021 6:45:00 PM 24.06 75.308 0.418 7.91 6.72 6.83
8/13/2021 7:00:00 PM 23.99 75.182 0.418 7.9 7.75 6.62
8/13/2021 7:15:00 PM 23.95 75.11 0.418 7.9 6.29 6.69
8/13/2021 7:30:00 PM 23.91 75.038 0.418 7.89 6.59 6.62
8/13/2021 7:45:00 PM 23.88 74.984 0.418 7.89 6.79 6.47
8/13/2021 8:00:00 PM 23.84 74.912 0.418 7.89 6.4 6.48
8/13/2021 8:15:00 PM 23.8 74.84 0.418 7.89 6.88 6.5
8/13/2021 8:30:00 PM 23.76 74.768 0.418 7.88 7.47 6.4
8/13/2021 8:45:00 PM 23.72 74.696 0.419 7.88 10.45 6.63
8/13/2021 9:00:00 PM 23.69 74.642 0.419 7.87 8.16 6.37
8/13/2021 9:15:00 PM 23.65 74.57 0.419 7.87 8.95 6.45
8/13/2021 9:30:00 PM 23.6 74.48 0.419 7.87 8.09 6.38
8/13/2021 9:45:00 PM 23.56 74.408 0.419 7.86 7.95 6.37
8/13/2021 10:00:00 PM 23.52 74.336 0.418 7.86 8.24 6.41
8/13/2021 10:15:00 PM 23.47 74.246 0.419 7.86 8.05 6.35
8/13/2021 10:30:00 PM 23.42 74.156 0.419 7.86 8.3 6.1
8/13/2021 10:45:00 PM 23.37 74.066 0.419 7.85 8.01 6.43
8/13/2021 11:00:00 PM 23.32 73.976 0.418 7.85 8.97 6.25
8/13/2021 11:15:00 PM 23.27 73.886 0.419 7.85 8.44 6.4
8/13/2021 11:30:00 PM 23.21 73.778 0.419 7.85 8.18 6.04
8/13/2021 11:45:00 PM 23.16 73.688 0.419 7.84 8.32 6.18
8/14/2021 12:00:00 AM 23.1 73.58 0.42 7.84 8.32 6.17
8/14/2021 12:15:00 AM 23.05 73.49 0.419 7.84 8.67 6.07
8/14/2021 12:30:00 AM 22.99 73.382 0.419 7.83 10.46 6.32
8/14/2021 12:45:00 AM 22.93 73.274 0.42 7.83 12.85 6.28
8/14/2021 1:00:00 AM 22.86 73.148 0.42 7.83 9.07 6.46
8/14/2021 1:15:00 AM 22.8 73.04 0.421 7.83 10.91 6.34
8/14/2021 1:30:00 AM 22.74 72.932 0.421 7.83 10.77 6.32
8/14/2021 1:45:00 AM 22.67 72.806 0.421 7.8 29.33 6.37
8/14/2021 2:00:00 AM 22.62 72.716 0.421 7.82 12.52 6.13
8/14/2021 2:15:00 AM 22.56 72.608 0.421 7.82 9.06 6.26
8/14/2021 2:30:00 AM 22.51 72.518 0.422 7.82 10.22 6.12
8/14/2021 2:45:00 AM 22.46 72.42799 0.422 7.82 9.09 6.27
8/14/2021 3:00:00 AM 22.41 72.338 0.422 7.81 12.45 6.07
8/14/2021 3:15:00 AM 22.35 72.23 0.422 7.81 9.74 6.08
8/14/2021 3:30:00 AM 22.3 72.14 0.423 7.81 13.33 6.15
8/14/2021 3:45:00 AM 22.25 72.05 0.423 7.81 9.93 6.34
8/14/2021 4:00:00 AM 22.19 71.942 0.423 7.81 11.27 6.3
8/14/2021 4:15:00 AM 22.14 71.852 0.424 7.81 8.69 6.07
8/14/2021 4:30:00 AM 22.1 71.78 0.423 7.8 9.07 6.29
8/14/2021 4:45:00 AM 22.04 71.672 0.424 7.81 10.59 6.42
8/14/2021 5:00:00 AM 21.99 71.582 0.424 7.8 8.85 5.88
8/14/2021 5:15:00 AM 21.95 71.51 0.424 7.8 8.31 6.18
8/14/2021 5:30:00 AM 21.9 71.42 0.425 7.8 9.02 5.92
8/14/2021 5:45:00 AM 21.86 71.348 0.425 7.8 8.56 6.33
8/14/2021 6:00:00 AM 21.82 71.276 0.425 7.8 8.81 5.85
8/14/2021 6:15:00 AM 21.78 71.204 0.425 7.8 9.01 6.06
8/14/2021 6:30:00 AM 21.74 71.132 0.425 7.79 9.92 5.87
8/14/2021 6:45:00 AM 21.71 71.078 0.425 7.8 8.83 5.85
8/14/2021 7:00:00 AM 21.67 71.006 0.426 7.79 8.89 5.86
8/14/2021 7:15:00 AM 21.64 70.952 0.422 7.79 8.75 6.19
8/14/2021 7:30:00 AM 21.62 70.916 0.426 7.79 8.5 5.96
8/14/2021 7:45:00 AM 21.6 70.88 0.426 7.8 8.39 6.48
8/14/2021 8:00:00 AM 21.58 70.844 0.426 7.8 8.53 6.11
8/14/2021 8:15:00 AM 21.57 70.826 0.426 7.79 8.87 6.04
8/14/2021 8:30:00 AM 21.58 70.844 0.426 7.8 7.76 5.83
8/14/2021 8:45:00 AM 21.59 70.862 0.426 7.8 10.17 6.09
8/14/2021 9:00:00 AM 21.63 70.934 0.426 7.81 8.08 6.51
8/14/2021 9:15:00 AM 21.65 70.97 0.425 7.81 8.15 6.29
8/14/2021 9:30:00 AM 21.68 71.024 0.425 7.82 7.58 6.1
8/14/2021 9:45:00 AM 21.71 71.078 0.425 7.82 7.17 6.42
8/14/2021 10:00:00 AM 21.75 71.15 0.426 7.83 6.61 6.48
8/14/2021 10:15:00 AM 21.8 71.24 0.425 7.83 8.33 7
8/14/2021 10:30:00 AM 21.85 71.33 0.425 7.85 6.47 6.86
8/14/2021 10:45:00 AM 21.92 71.456 0.425 7.86 6.54 7.04
8/14/2021 11:00:00 AM 22.01 71.618 0.425 7.87 7.72 7.19
8/14/2021 11:15:00 AM 22.11 71.798 0.425 7.88 7.1 7.47
8/14/2021 11:30:00 AM 22.15 71.87 0.425 7.89 7.43 7.43
8/14/2021 11:45:00 AM 22.19 71.942 0.425 7.9 7.34 7.42
8/14/2021 12:00:00 PM 22.23 72.014 0.425 7.9 8.13 7.54
8/14/2021 12:15:00 PM 22.3 72.14 0.425 7.91 6.6 7.44
8/14/2021 12:30:00 PM 22.35 72.23 0.425 7.93 6.59 7.68
8/14/2021 12:45:00 PM 22.37 72.266 0.425 7.93 6.48 7.16
8/14/2021 1:00:00 PM 22.41 72.338 0.425 7.94 6.75 7.68
8/14/2021 1:15:00 PM 22.45 72.41 0.424 7.95 7.21 7.61
8/14/2021 1:30:00 PM 22.46 72.42799 0.425 7.95 6.78 7.52
8/14/2021 1:45:00 PM 22.49 72.482 0.425 7.96 7.74 7.98
8/14/2021 2:00:00 PM 22.58 72.644 0.424 7.97 6.65 8.11
8/14/2021 2:15:00 PM 22.59 72.662 0.425 7.97 7.82 8.04
8/14/2021 2:30:00 PM 22.63 72.734 0.425 7.98 6.95 8.11
8/14/2021 2:45:00 PM 22.66 72.788 0.425 7.98 6.82 8.24
8/14/2021 3:00:00 PM 22.68 72.824 0.425 7.98 6.68 7.93
8/14/2021 3:15:00 PM 22.74 72.932 0.425 7.99 6.62 8.09
8/14/2021 3:30:00 PM 22.77 72.986 0.425 7.99 7.31 7.96
8/14/2021 3:45:00 PM 22.89 73.202 0.425 8 6.95 8.22
8/14/2021 4:00:00 PM 22.98 73.364 0.425 8.01 7.22 7.93
8/14/2021 4:15:00 PM 23.06 73.508 0.425 8.01 7.36 8.22
8/14/2021 4:30:00 PM 23.12 73.616 0.425 8 7.97 7.94
8/14/2021 4:45:00 PM 23.14 73.652 0.425 8 9.01 7.96
8/14/2021 5:00:00 PM 23.15 73.67 0.426 8 8.98 7.76
8/14/2021 5:15:00 PM 23.15 73.67 0.426 7.99 7.28 7.68
8/14/2021 5:30:00 PM 23.12 73.616 0.425 7.98 7.07 7.36
8/14/2021 5:45:00 PM 23.1 73.58 0.426 7.98 7.34 6.93
8/14/2021 6:00:00 PM 23.08 73.544 0.426 7.97 7.74 7.44
8/14/2021 6:15:00 PM 23.06 73.508 0.426 7.96 6.91 7.52
8/14/2021 6:30:00 PM 23.03 73.454 0.426 7.96 6.58 7.37
8/14/2021 6:45:00 PM 23 73.4 0.426 7.95 6.49 7.41
8/14/2021 7:00:00 PM 22.96 73.328 0.426 7.94 7.21 7.29
8/14/2021 7:15:00 PM 22.91 73.238 0.426 7.93 6.9 7.4
8/14/2021 7:30:00 PM 22.84 73.112 0.426 7.92 6.7 7.31
8/14/2021 7:45:00 PM 22.78 73.004 0.426 7.91 6.67 7.07
8/14/2021 8:00:00 PM 22.72 72.896 0.427 7.91 7.78 7.15
8/14/2021 8:15:00 PM 22.66 72.788 0.427 7.9 6.91 6.81
8/14/2021 8:30:00 PM 22.61 72.698 0.427 7.89 11.31 6.51
8/14/2021 8:45:00 PM 22.55 72.59 0.427 7.89 9.88 6.66
8/14/2021 9:00:00 PM 22.5 72.5 0.427 7.88 7.19 6.58
8/14/2021 9:15:00 PM 22.46 72.42799 0.427 7.87 6.83 6.21
8/14/2021 9:30:00 PM 22.42 72.356 0.427 7.87 11.54 6.44
8/14/2021 9:45:00 PM 22.39 72.302 0.427 7.87 10.31 6.43
8/14/2021 10:00:00 PM 22.36 72.248 0.427 7.86 24.23 6.55
8/14/2021 10:15:00 PM 22.33 72.194 0.427 7.85 23.2 6.44
8/14/2021 10:30:00 PM 22.31 72.158 0.427 7.85 8.73 6.38
8/14/2021 10:45:00 PM 22.28 72.104 0.427 7.85 8.29 6.53
8/14/2021 11:00:00 PM 22.26 72.068 0.427 7.84 21.35 6.3
8/14/2021 11:15:00 PM 22.23 72.014 0.428 7.85 10.43 6.27
8/14/2021 11:30:00 PM 22.19 71.942 0.428 7.84 20.56 6.32
8/14/2021 11:45:00 PM 22.16 71.888 0.428 7.84 9.93 6.01
8/15/2021 12:00:00 AM 22.11 71.798 0.428 7.84 10.03 5.86
8/15/2021 12:15:00 AM 22.07 71.726 0.428 7.84 7.98 5.92
8/15/2021 12:30:00 AM 22.03 71.654 0.428 7.84 8.52 6.07
8/15/2021 12:45:00 AM 21.99 71.582 0.429 7.84 9.12 5.86
8/15/2021 1:00:00 AM 21.95 71.51 0.429 7.84 7.4 6.32
8/15/2021 1:15:00 AM 21.91 71.438 0.429 7.84 7.39 5.86
8/15/2021 1:30:00 AM 21.88 71.384 0.429 7.84 71.66 5.76
8/15/2021 1:45:00 AM 21.84 71.312 0.429 7.83 8.35 5.92
8/15/2021 2:00:00 AM 21.8 71.24 0.43 7.83 18.11 6.41
8/15/2021 2:15:00 AM 21.76 71.168 0.43 7.83 11.45 5.6
8/15/2021 2:30:00 AM 21.72 71.096 0.43 7.83 28.27 6.13
8/15/2021 2:45:00 AM 21.68 71.024 0.43 7.83 8.22 6.38
8/15/2021 3:00:00 AM 21.63 70.934 0.43 7.83 9.91 6.09
8/15/2021 3:15:00 AM 21.59 70.862 0.43 7.83 7.64 5.81
8/15/2021 3:30:00 AM 21.54 70.772 0.43 7.83 41.47 6.31
8/15/2021 3:45:00 AM 21.5 70.7 0.431 7.83 8.31 6.25
8/15/2021 4:00:00 AM 21.45 70.61 0.431 7.83 9.94 6.53
8/15/2021 4:15:00 AM 21.4 70.52 0.431 7.83 8.67 5.95
8/15/2021 4:30:00 AM 21.35 70.43 0.431 7.82 50.03 6.34
8/15/2021 4:45:00 AM 21.3 70.34 0.431 7.83 11.15 6.61
8/15/2021 5:00:00 AM 21.24 70.232 0.431 7.83 9.24 6.33
8/15/2021 5:15:00 AM 21.19 70.142 0.432 7.83 8.26 6.59
8/15/2021 5:30:00 AM 21.12 70.016 0.432 7.83 9.29 6.69
8/15/2021 5:45:00 AM 21.05 69.89 0.432 7.83 20.46 6.43
8/15/2021 6:00:00 AM 20.99 69.782 0.432 7.83 8.62 5.94
8/15/2021 6:15:00 AM 20.92 69.656 0.432 7.83 8.35 6.37
8/15/2021 6:30:00 AM 20.86 69.548 0.432 7.83 8.6 6.52
8/15/2021 6:45:00 AM 20.79 69.422 0.433 7.83 10.05 5.63
8/15/2021 7:00:00 AM 20.73 69.314 0.433 7.83 8.76 6.19
8/15/2021 7:15:00 AM 20.67 69.206 0.433 7.83 7.63 6.34
8/15/2021 7:30:00 AM 20.62 69.116 0.433 7.83 7.85 6.47
8/15/2021 7:45:00 AM 20.58 69.044 0.433 7.84 7.99 5.71
8/15/2021 8:00:00 AM 20.55 68.99 0.433 7.84 7.96 6.38
8/15/2021 8:15:00 AM 20.53 68.954 0.434 7.84 6.9 6.12
8/15/2021 8:30:00 AM 20.51 68.918 0.433 7.84 7.33 5.89
8/15/2021 8:45:00 AM 20.49 68.882 0.434 7.84 7.15 6.24
8/15/2021 9:00:00 AM 20.47 68.846 0.433 7.85 7.96 6.7
8/15/2021 9:15:00 AM 20.47 68.846 0.433 7.84 12.69 6.92
8/15/2021 9:30:00 AM 20.47 68.846 0.434 7.85 7.45 6.68
8/15/2021 9:45:00 AM 20.47 68.846 0.434 7.86 6.49 6.31
8/15/2021 10:00:00 AM 20.47 68.846 0.434 7.87 7.18 6.42
8/15/2021 10:15:00 AM 20.48 68.864 0.434 7.87 5.96 6.27
8/15/2021 10:30:00 AM 20.5 68.9 0.433 7.88 5.67 7
8/15/2021 10:45:00 AM 20.54 68.972 0.434 7.88 5.85 6.78
8/15/2021 11:00:00 AM 20.59 69.062 0.434 7.9 5.56 6.97
8/15/2021 11:15:00 AM 20.65 69.17 0.434 7.9 6.07 7.23
8/15/2021 11:30:00 AM 20.73 69.314 0.433 7.92 5.73 7.06
8/15/2021 11:45:00 AM 20.8 69.44 0.433 7.93 6.04 7.15
8/15/2021 12:00:00 PM 20.89 69.602 0.433 7.94 5.97 7.44
8/15/2021 12:15:00 PM 21.01 69.818 0.433 7.95 5.77 7.49
8/15/2021 12:30:00 PM 21.18 70.124 0.433 7.97 6.11 8.05
8/15/2021 12:45:00 PM 21.28 70.304 0.433 7.98 7.29 8.38
8/15/2021 1:00:00 PM 21.46 70.628 0.433 8 15.67 8.38
8/15/2021 1:15:00 PM 21.57 70.826 0.433 8.01 7.54 8.14
8/15/2021 1:30:00 PM 21.7 71.06 0.433 8.03 6.38 8.41
8/15/2021 1:45:00 PM 21.86 71.348 0.433 8.03 6.71 8.19
8/15/2021 2:00:00 PM 22.04 71.672 0.433 8.04 6.8 8.04
8/15/2021 2:15:00 PM 22.2 71.96 0.433 8.05 6.36 8.28
8/15/2021 2:30:00 PM 22.37 72.266 0.433 8.06 7 7.88
8/15/2021 2:45:00 PM 22.54 72.57201 0.433 8.07 6.49 8.65
8/15/2021 3:00:00 PM 22.69 72.842 0.433 8.07 7.1 8.24
8/15/2021 3:15:00 PM 22.83 73.094 0.433 8.07 6.41 8.21
8/15/2021 3:30:00 PM 22.94 73.292 0.434 8.08 7.06 8.53
8/15/2021 3:45:00 PM 23.03 73.454 0.434 8.08 8.64 8.58
8/15/2021 4:00:00 PM 23.02 73.436 0.434 8.07 9.53 7.89
8/15/2021 4:15:00 PM 23.05 73.49 0.434 8.07 8.18 8.2
8/15/2021 4:30:00 PM 23.08 73.544 0.434 8.06 7.39 7.83
8/15/2021 4:45:00 PM 23.08 73.544 0.435 8.06 8.65 7.74
8/15/2021 5:00:00 PM 23.02 73.436 0.435 8.05 7.53 7.56
8/15/2021 5:15:00 PM 22.95 73.31 0.435 8.04 7.88 7.76
8/15/2021 5:30:00 PM 22.89 73.202 0.435 8.03 6.81 7.36
8/15/2021 5:45:00 PM 22.79 73.022 0.436 8.03 7.88 7.89
8/15/2021 6:00:00 PM 22.71 72.878 0.436 8.01 6.7 8.02
8/15/2021 6:15:00 PM 22.62 72.716 0.436 8.01 6.59 7.8
8/15/2021 6:30:00 PM 22.54 72.57201 0.436 8 6.77 7.85
8/15/2021 6:45:00 PM 22.46 72.42799 0.436 7.99 6.46 7.81
8/15/2021 7:00:00 PM 22.38 72.284 0.436 7.98 7.05 7.72
8/15/2021 7:15:00 PM 22.3 72.14 0.436 7.97 6.74 7.41
8/15/2021 7:30:00 PM 22.21 71.978 0.436 7.96 7.8 6.68
8/15/2021 7:45:00 PM 22.11 71.798 0.436 7.96 7.54 7.58
8/15/2021 8:00:00 PM 22.03 71.654 0.436 7.95 10.74 6.89
8/15/2021 8:15:00 PM 21.94 71.492 0.436 7.94 6.91 7.48
8/15/2021 8:30:00 PM 21.85 71.33 0.437 7.93 7.66 7.22
8/15/2021 8:45:00 PM 21.76 71.168 0.437 7.93 6.9 7.33
8/15/2021 9:00:00 PM 21.7 71.06 0.437 7.92 7.01 7.29
8/15/2021 9:15:00 PM 21.62 70.916 0.437 7.91 6.95 7.11
8/15/2021 9:30:00 PM 21.56 70.808 0.437 7.91 6.96 6.9
8/15/2021 9:45:00 PM 21.5 70.7 0.438 7.9 8.31 7.24
8/15/2021 10:00:00 PM 21.45 70.61 0.438 7.9 7.54 7.19
8/15/2021 10:15:00 PM 21.41 70.538 0.438 7.89 6.33 7.13
8/15/2021 10:30:00 PM 21.37 70.466 0.438 7.89 7.5 6.37
8/15/2021 10:45:00 PM 21.35 70.43 0.438 7.89 6.62 6.96
8/15/2021 11:00:00 PM 21.32 70.376 0.438 7.88 7.57 6.39
8/15/2021 11:15:00 PM 21.29 70.32201 0.438 7.88 12.25 6.46
8/15/2021 11:30:00 PM 21.27 70.286 0.439 7.87 9.91 6.49
8/15/2021 11:45:00 PM 21.25 70.25 0.439 7.87 7.02 6.52
8/16/2021 12:00:00 AM 21.23 70.214 0.439 7.87 7.32 6.79
8/16/2021 12:15:00 AM 21.21 70.17799 0.439 7.87 12.49 6.93
8/16/2021 12:30:00 AM 21.19 70.142 0.439 7.86 172.81 6.9
8/16/2021 12:45:00 AM 21.17 70.106 0.439 7.86 60.77 6.84
8/16/2021 1:00:00 AM 21.15 70.07 0.439 7.86 10.37 6.76
8/16/2021 1:15:00 AM 21.12 70.016 0.44 7.86 7.75 6.73
8/16/2021 1:30:00 AM 21.09 69.962 0.439 7.85 6.22 6.79
8/16/2021 1:45:00 AM 21.07 69.926 0.44 7.86 6.02 6.7
8/16/2021 2:00:00 AM 21.04 69.872 0.44 7.86 5.72 6.88
8/16/2021 2:15:00 AM 21.02 69.836 0.44 7.85 6.34 6.38
8/16/2021 2:30:00 AM 20.99 69.782 0.44 7.85 5.94 6.62
8/16/2021 2:45:00 AM 20.96 69.728 0.44 7.85 6.36 6.7
8/16/2021 3:00:00 AM 20.94 69.692 0.441 7.83 34.64 6.59
8/16/2021 3:15:00 AM 20.91 69.638 0.441 7.85 7.8 6.64
8/16/2021 3:30:00 AM 20.89 69.602 0.441 7.85 6.6 6.64
8/16/2021 3:45:00 AM 20.86 69.548 0.441 7.84 9.34 6.33
8/16/2021 4:00:00 AM 20.83 69.494 0.441 7.85 6.67 6.5
8/16/2021 4:15:00 AM 20.8 69.44 0.441 7.84 7.49 6.75
8/16/2021 4:30:00 AM 20.77 69.386 0.441 7.84 7.45 6.76
8/16/2021 4:45:00 AM 20.74 69.332 0.441 7.84 7.59 6.81
8/16/2021 5:00:00 AM 20.71 69.278 0.441 7.84 12.34 6.84
8/16/2021 5:15:00 AM 20.67 69.206 0.442 7.84 8.21 6.73
8/16/2021 5:30:00 AM 20.65 69.17 0.442 7.84 7.61 6.9
8/16/2021 5:45:00 AM 20.61 69.098 0.442 7.84 6.66 6.87
8/16/2021 6:00:00 AM 20.59 69.062 0.441 7.84 6.71 6.76
8/16/2021 6:15:00 AM 20.56 69.008 0.442 7.84 7.41 6.74
8/16/2021 6:30:00 AM 20.54 68.972 0.442 7.84 7.19 6.74
8/16/2021 6:45:00 AM 20.52 68.936 0.442 7.84 6.43 6.66
8/16/2021 7:00:00 AM 20.5 68.9 0.442 7.84 6.84 6.7
8/16/2021 7:15:00 AM 20.48 68.864 0.442 7.84 6.93 6.76
8/16/2021 7:30:00 AM 20.47 68.846 0.442 7.85 6.63 6.87
8/16/2021 7:45:00 AM 20.45 68.81 0.442 7.85 6.87 6.93
8/16/2021 8:00:00 AM 20.44 68.792 0.442 7.85 6.94 6.94
8/16/2021 8:15:00 AM 20.43 68.774 0.443 7.85 6.03 7.03
8/16/2021 8:30:00 AM 20.43 68.774 0.443 7.85 7.49 7.06
8/16/2021 8:45:00 AM 20.43 68.774 0.443 7.86 6.22 7.04
8/16/2021 9:00:00 AM 20.44 68.792 0.442 7.86 5.83 7.05
8/16/2021 9:15:00 AM 20.44 68.792 0.443 7.86 5.85 7.14
8/16/2021 9:30:00 AM 20.46 68.828 0.442 7.87 5.56 6.91
8/16/2021 9:45:00 AM 20.47 68.846 0.443 7.87 5.92 7.32
8/16/2021 10:00:00 AM 20.49 68.882 0.443 7.88 6.85 6.9
8/16/2021 10:15:00 AM 20.55 68.99 0.443 7.88 5.38 7.3
8/16/2021 10:30:00 AM 20.59 69.062 0.443 7.89 5.72 7.1
8/16/2021 10:45:00 AM 20.63 69.134 0.443 7.9 6.12 7.41
8/16/2021 11:00:00 AM 20.68 69.224 0.443 7.91 6.95 7.25
8/16/2021 11:15:00 AM 20.72 69.296 0.443 7.92 5.58 7.44
8/16/2021 11:30:00 AM 20.77 69.386 0.443 7.92 5.72 7.5
8/16/2021 11:45:00 AM 20.83 69.494 0.443 7.94 5.62 7.24
8/16/2021 12:00:00 PM 20.87 69.566 0.443 7.95 6.04 7.71
8/16/2021 12:15:00 PM 20.92 69.656 0.443 7.96 5.68 7.53
8/16/2021 12:30:00 PM 20.97 69.746 0.443 7.97 5.52 7.7
8/16/2021 12:45:00 PM 21.02 69.836 0.443 7.97 5.67 7.24
8/16/2021 1:00:00 PM 21.09 69.962 0.443 7.98 5.3 7.2
8/16/2021 1:15:00 PM 21.13 70.034 0.443 7.99 24.49 7.2
8/16/2021 1:30:00 PM 21.17 70.106 0.443 7.99 5.92 8.12
8/16/2021 1:45:00 PM 21.2 70.16 0.443 7.99 5.37 7.89
8/16/2021 2:00:00 PM 21.24 70.232 0.443 8 5.16 7.82
8/16/2021 2:15:00 PM 21.29 70.32201 0.443 8.01 5.4 7.22
8/16/2021 2:30:00 PM 21.34 70.412 0.443 8.01 5.58 8.08
8/16/2021 2:45:00 PM 21.38 70.484 0.443 8.02 5.57 8.43
8/16/2021 3:00:00 PM 21.38 70.484 0.443 8.02 6.02 8.36
8/16/2021 3:15:00 PM 21.4 70.52 0.443 8.02 5.33 7.95
8/16/2021 3:30:00 PM 21.42 70.556 0.444 8.02 5.99 8.05
8/16/2021 3:45:00 PM 21.44 70.592 0.443 8.02 5.86 8.14
8/16/2021 4:00:00 PM 21.48 70.664 0.444 8.02 5.57 8.01
8/16/2021 4:15:00 PM 21.51 70.718 0.443 8.02 5.18 7.76
8/16/2021 4:30:00 PM 21.56 70.808 0.444 8.03 5.79 8.47
8/16/2021 4:45:00 PM 21.56 70.808 0.444 8.02 5.52 8.11
8/16/2021 5:00:00 PM 21.59 70.862 0.443 8.03 5.28 8.18
8/16/2021 5:15:00 PM 21.59 70.862 0.443 8.02 5.01 8.26
8/16/2021 5:30:00 PM 21.57 70.826 0.444 8.01 5.69 8.2
8/16/2021 5:45:00 PM 21.58 70.844 0.444 8.01 5.38 7.93
8/16/2021 6:00:00 PM 21.57 70.826 0.444 8 9.16 7.57
8/16/2021 6:15:00 PM 21.56 70.808 0.443 8 6.76 7.99
8/16/2021 6:30:00 PM 21.55 70.79 0.444 7.99 6.01 8.13
8/16/2021 6:45:00 PM 21.54 70.772 0.444 7.99 5.47 7.97
8/16/2021 7:00:00 PM 21.52 70.736 0.444 7.98 5.8 7.77
8/16/2021 7:15:00 PM 21.49 70.682 0.444 7.98 5.35 7.92
8/16/2021 7:30:00 PM 21.47 70.646 0.444 7.97 5.59 7.2
8/16/2021 7:45:00 PM 21.43 70.574 0.444 7.96 5.25 7.71
8/16/2021 8:00:00 PM 21.4 70.52 0.444 7.95 6.31 7.18
8/16/2021 8:15:00 PM 21.38 70.484 0.444 7.95 5.64 7.65
8/16/2021 8:30:00 PM 21.35 70.43 0.444 7.94 6.28 7.43
8/16/2021 8:45:00 PM 21.32 70.376 0.444 7.94 5.65 6.92
8/16/2021 9:00:00 PM 21.29 70.32201 0.444 7.93 11.53 7.26
8/16/2021 9:15:00 PM 21.27 70.286 0.444 7.93 6.43 7.34
8/16/2021 9:30:00 PM 21.24 70.232 0.444 7.92 6.9 6.75
8/16/2021 9:45:00 PM 21.23 70.214 0.444 7.92 5.23 7.22
8/16/2021 10:00:00 PM 21.2 70.16 0.444 7.91 6.29 6.84
8/16/2021 10:15:00 PM 21.18 70.124 0.444 7.91 7.17 7.09
8/16/2021 10:30:00 PM 21.16 70.088 0.444 7.91 8.49 7.15
8/16/2021 10:45:00 PM 21.15 70.07 0.444 7.9 6.04 7.06
8/16/2021 11:00:00 PM 21.13 70.034 0.444 7.9 27.03 6.26
8/16/2021 11:15:00 PM 21.12 70.016 0.444 7.9 5.41 6.94
8/16/2021 11:30:00 PM 21.11 69.998 0.444 7.9 6.2 6.35
8/16/2021 11:45:00 PM 21.1 69.98 0.442 7.89 5.96 6.43
8/17/2021 12:00:00 AM 21.09 69.962 0.441 7.89 5.95 6.1
8/17/2021 12:15:00 AM 21.07 69.926 0.441 7.88 7.25 6.19
8/17/2021 12:30:00 AM 21.06 69.908 0.441 7.88 6.47 5.81
8/17/2021 12:45:00 AM 21.05 69.89 0.441 7.87 5.79 6.51
8/17/2021 1:00:00 AM 21.04 69.872 0.44 7.87 7.46 5.67
8/17/2021 1:15:00 AM 21.02 69.836 0.44 7.87 7.54 6.15
8/17/2021 1:30:00 AM 21.01 69.818 0.441 7.87 8.04 6.88
8/17/2021 1:45:00 AM 21 69.8 0.441 7.86 7.11 6.29
8/17/2021 2:00:00 AM 20.99 69.782 0.44 7.86 6.58 6.58
8/17/2021 2:15:00 AM 20.97 69.746 0.441 7.86 6.63 6.46
8/17/2021 2:30:00 AM 20.96 69.728 0.441 7.86 6.71 6.46
8/17/2021 2:45:00 AM 20.95 69.71 0.441 7.86 7.36 6.26
8/17/2021 3:00:00 AM 20.94 69.692 0.441 7.85 7.38 6.37
8/17/2021 3:15:00 AM 20.93 69.674 0.441 7.85 6.18 5.99
8/17/2021 3:30:00 AM 20.92 69.656 0.441 7.85 5.67 6.23
8/17/2021 3:45:00 AM 20.91 69.638 0.441 7.85 11.62 6.48
8/17/2021 4:00:00 AM 20.9 69.62 0.441 7.85 7.28 5.77
8/17/2021 4:15:00 AM 20.89 69.602 0.441 7.85 7.16 6.63
8/17/2021 4:30:00 AM 20.88 69.584 0.441 7.85 6.29 6.24
8/17/2021 4:45:00 AM 20.87 69.566 0.441 7.85 6.14 6.55
8/17/2021 5:00:00 AM 20.85 69.53 0.441 7.84 7.47 6.01
8/17/2021 5:15:00 AM 20.84 69.512 0.442 7.84 7.17 6.48
8/17/2021 5:30:00 AM 20.83 69.494 0.442 7.84 6.44 6.72
8/17/2021 5:45:00 AM 20.82 69.476 0.441 7.84 6.06 6.44
8/17/2021 6:00:00 AM 20.81 69.458 0.441 7.85 6.44 6.48
8/17/2021 6:15:00 AM 20.8 69.44 0.441 7.84 6.76 6.53
8/17/2021 6:30:00 AM 20.78 69.404 0.441 7.84 7.6 5.95
8/17/2021 6:45:00 AM 20.77 69.386 0.441 7.84 6.98 6.19
8/17/2021 7:00:00 AM 20.76 69.368 0.441 7.84 6.16 6.77
8/17/2021 7:15:00 AM 20.75 69.35 0.44 7.84 6.19 6.68
8/17/2021 7:30:00 AM 20.74 69.332 0.441 7.84 6.02 6.39
8/17/2021 7:45:00 AM 20.74 69.332 0.441 7.84 6.2 6.46
8/17/2021 8:00:00 AM 20.74 69.332 0.441 7.84 5.98 6.15
8/17/2021 8:15:00 AM 20.75 69.35 0.441 7.85 5.89 6.61
8/17/2021 8:30:00 AM 20.75 69.35 0.441 7.85 5.73 6.03
8/17/2021 8:45:00 AM 20.75 69.35 0.441 7.85 5.88 5.81
8/17/2021 9:00:00 AM 20.77 69.386 0.441 7.85 5.76 6.86
8/17/2021 9:15:00 AM 20.78 69.404 0.442 7.86 5.78 6.96
8/17/2021 9:30:00 AM 20.78 69.404 0.442 7.86 5.45 6.07
8/17/2021 9:45:00 AM 20.79 69.422 0.442 7.86 5.8 6.16
8/17/2021 10:00:00 AM 20.81 69.458 0.442 7.86 10.32 6.09
8/17/2021 10:15:00 AM 20.84 69.512 0.443 7.87 5.8 6.92
8/17/2021 10:30:00 AM 20.84 69.512 0.442 7.87 5.5 6.71
8/17/2021 10:45:00 AM 20.86 69.548 0.442 7.87 8.28 6.54
8/17/2021 11:00:00 AM 20.87 69.566 0.443 7.87 6.4 6.49
8/17/2021 11:15:00 AM 20.9 69.62 0.442 7.88 5.88 6.92
8/17/2021 11:30:00 AM 20.94 69.692 0.442 7.89 5.83 7.36
8/17/2021 11:45:00 AM 20.99 69.782 0.442 7.89 5.79 6.63
8/17/2021 12:00:00 PM 21.09 69.962 0.442 7.9 5.94 6.45
8/17/2021 12:15:00 PM 21.23 70.214 0.442 7.92 6.11 6.44
8/17/2021 12:30:00 PM 21.32 70.376 0.442 7.93 5.64 7.17
8/17/2021 12:45:00 PM 21.45 70.61 0.442 7.94 5.5 7.2
8/17/2021 1:00:00 PM 21.52 70.736 0.442 7.95 5.77 6.95
8/17/2021 1:15:00 PM 21.62 70.916 0.442 7.96 5.58 7.64
8/17/2021 1:30:00 PM 21.82 71.276 0.442 7.97 5.88 7.26
8/17/2021 1:45:00 PM 21.91 71.438 0.442 7.98 5.84 7.63
8/17/2021 2:00:00 PM 21.99 71.582 0.442 7.99 5.63 7.35
8/17/2021 2:15:00 PM 22.15 71.87 0.441 8 5.21 7.35
8/17/2021 2:30:00 PM 22.35 72.23 0.442 8.01 7.89 8.28
8/17/2021 2:45:00 PM 22.45 72.41 0.442 8.02 6.34 8.48
8/17/2021 3:00:00 PM 22.52 72.536 0.442 8.03 5.57 8.04
8/17/2021 3:15:00 PM 22.54 72.57201 0.441 8.03 5.42 8.22
8/17/2021 3:30:00 PM 22.57 72.626 0.442 8.03 5.32 8.08
8/17/2021 3:45:00 PM 22.61 72.698 0.441 8.04 5.17 8.19
8/17/2021 4:00:00 PM 22.64 72.752 0.442 8.04 5.19 8.33
8/17/2021 4:15:00 PM 22.65 72.77 0.442 8.04 5.15 7.96
8/17/2021 4:30:00 PM 22.66 72.788 0.442 8.04 5.58 8.11
8/17/2021 4:45:00 PM 22.65 72.77 0.441 8.03 6.07 7.6
8/17/2021 5:00:00 PM 22.62 72.716 0.442 8.03 5.54 8.12
8/17/2021 5:15:00 PM 22.59 72.662 0.442 8.02 5.12 7.82
8/17/2021 5:30:00 PM 22.55 72.59 0.442 8.01 5.19 8.18
8/17/2021 5:45:00 PM 22.5 72.5 0.442 8 5.26 7.91
8/17/2021 6:00:00 PM 22.46 72.42799 0.442 7.99 5.53 7.89
8/17/2021 6:15:00 PM 22.42 72.356 0.442 7.99 5.34 7.87
8/17/2021 6:30:00 PM 22.38 72.284 0.442 7.98 5.23 7.76
8/17/2021 6:45:00 PM 22.34 72.212 0.442 7.98 5.51 7.59
8/17/2021 7:00:00 PM 22.31 72.158 0.442 7.97 5.48 7.29
8/17/2021 7:15:00 PM 22.26 72.068 0.442 7.96 5.23 7.22
8/17/2021 7:30:00 PM 22.21 71.978 0.443 7.95 5.34 7.57
8/17/2021 7:45:00 PM 22.18 71.924 0.442 7.95 5.16 7.06
8/17/2021 8:00:00 PM 22.15 71.87 0.443 7.94 5.51 7.33
8/17/2021 8:15:00 PM 22.12 71.816 0.442 7.94 5.71 6.93
8/17/2021 8:30:00 PM 22.08 71.744 0.443 7.93 5.77 7.39
8/17/2021 8:45:00 PM 22.06 71.708 0.443 7.92 7.96 7.14
8/17/2021 9:00:00 PM 22.04 71.672 0.443 7.92 6.31 7.06
8/17/2021 9:15:00 PM 22.02 71.636 0.443 7.91 6.58 6.56
8/17/2021 9:30:00 PM 22 71.6 0.443 7.91 9.35 7.1
8/17/2021 9:45:00 PM 21.98 71.564 0.443 7.9 42.32 7.09
8/17/2021 10:00:00 PM 21.96 71.528 0.443 7.9 6.13 6.88
8/17/2021 10:15:00 PM 21.95 71.51 0.442 7.89 6.47 7.06
8/17/2021 10:30:00 PM 21.93 71.474 0.442 7.89 6.93 7.15
8/17/2021 10:45:00 PM 21.92 71.456 0.442 7.89 5.96 6.87
8/17/2021 11:00:00 PM 21.91 71.438 0.443 7.89 6.26 6.69
8/17/2021 11:15:00 PM 21.89 71.402 0.443 7.89 6.23 6.83
8/17/2021 11:30:00 PM 21.88 71.384 0.443 7.88 6.29 6.34
8/17/2021 11:45:00 PM 21.87 71.366 0.443 7.88 7.1 6.92
8/18/2021 12:00:00 AM 21.86 71.348 0.443 7.88 5.92 6.72
8/18/2021 12:15:00 AM 21.86 71.348 0.442 7.88 6.24 6.61
8/18/2021 12:30:00 AM 21.85 71.33 0.443 7.88 5.88 6.41
8/18/2021 12:45:00 AM 21.84 71.312 0.442 7.87 11.32 6.47
8/18/2021 1:00:00 AM 21.83 71.294 0.443 7.87 6.3 6.14
8/18/2021 1:15:00 AM 21.82 71.276 0.442 7.87 8.4 5.84
8/18/2021 1:30:00 AM 21.82 71.276 0.442 7.87 7 5.83
8/18/2021 1:45:00 AM 21.8 71.24 0.443 7.87 6.39 5.96
8/18/2021 2:00:00 AM 21.8 71.24 0.442 7.87 6.92 6.26
8/18/2021 2:15:00 AM 21.79 71.222 0.442 7.87 7.58 6.04
8/18/2021 2:30:00 AM 21.78 71.204 0.442 7.87 7.33 6.35
8/18/2021 2:45:00 AM 21.77 71.186 0.441 7.87 7.13 5.86
8/18/2021 3:00:00 AM 21.76 71.168 0.441 7.87 6.7 5.77
8/18/2021 3:15:00 AM 21.74 71.132 0.442 7.86 44.96 6.15
8/18/2021 3:30:00 AM 21.73 71.114 0.441 7.86 7.07 6.01
8/18/2021 3:45:00 AM 21.71 71.078 0.441 7.85 6.55 6.32
8/18/2021 4:00:00 AM 21.69 71.042 0.442 7.85 7.18 5.87
8/18/2021 4:15:00 AM 21.67 71.006 0.442 7.85 8.76 5.75
8/18/2021 4:30:00 AM 21.65 70.97 0.442 7.85 7.02 6.2
8/18/2021 4:45:00 AM 21.63 70.934 0.442 7.85 6.78 6.09
8/18/2021 5:00:00 AM 21.61 70.898 0.442 7.84 6.3 6.22
8/18/2021 5:15:00 AM 21.58 70.844 0.442 7.84 19.08 6.18
8/18/2021 5:30:00 AM 21.56 70.808 0.441 7.84 7.18 6.27
8/18/2021 5:45:00 AM 21.55 70.79 0.44 7.84 7.46 6.47
8/18/2021 6:00:00 AM 21.53 70.754 0.438 7.85 13.36 6.67
8/18/2021 6:15:00 AM 21.51 70.718 0.437 7.85 8.3 6.36
8/18/2021 6:30:00 AM 21.5 70.7 0.436 7.85 7.26 6.33
8/18/2021 6:45:00 AM 21.48 70.664 0.435 7.85 7.89 5.83
8/18/2021 7:00:00 AM 21.47 70.646 0.434 7.85 7.24 6.41
8/18/2021 7:15:00 AM 21.45 70.61 0.433 7.85 7.51 6.03
8/18/2021 7:30:00 AM 21.44 70.592 0.431 7.86 7.66 6.85
8/18/2021 7:45:00 AM 21.43 70.574 0.432 7.85 8.07 6.06
8/18/2021 8:00:00 AM 21.43 70.574 0.432 7.85 8.2 6.02
8/18/2021 8:15:00 AM 21.42 70.556 0.432 7.85 7.91 6.48
8/18/2021 8:30:00 AM 21.43 70.574 0.433 7.85 7.15 6.12
8/18/2021 8:45:00 AM 21.44 70.592 0.433 7.85 7.38 6.15
8/18/2021 9:00:00 AM 21.47 70.646 0.433 7.86 6.97 5.94
8/18/2021 9:15:00 AM 21.5 70.7 0.433 7.86 8.7 6.32
8/18/2021 9:30:00 AM 21.53 70.754 0.433 7.86 7.23 6.21
8/18/2021 9:45:00 AM 21.56 70.808 0.434 7.86 6.9 6.53
8/18/2021 10:00:00 AM 21.6 70.88 0.433 7.86 6.4 6.75
8/18/2021 10:15:00 AM 21.65 70.97 0.434 7.87 7.24 6.56
8/18/2021 10:30:00 AM 21.7 71.06 0.434 7.87 7.39 6.41
8/18/2021 10:45:00 AM 21.76 71.168 0.434 7.88 7.17 7.19
8/18/2021 11:00:00 AM 21.79 71.222 0.43 7.89 7.49 7.28
8/18/2021 11:15:00 AM 21.88 71.384 0.43 7.9 6.87 6.91
8/18/2021 11:30:00 AM 21.95 71.51 0.43 7.9 6.53 7.19
8/18/2021 11:45:00 AM 22.03 71.654 0.43 7.91 6.16 7.05
8/18/2021 12:00:00 PM 22.19 71.942 0.429 7.92 6.49 7.11
8/18/2021 12:15:00 PM 22.26 72.068 0.429 7.93 6.37 7.39
8/18/2021 12:30:00 PM 22.33 72.194 0.428 7.94 6.07 7.33
8/18/2021 12:45:00 PM 22.5 72.5 0.427 7.95 6.53 7.48
8/18/2021 1:00:00 PM 22.6 72.68 0.428 7.95 6.36 7.48
8/18/2021 1:15:00 PM 22.74 72.932 0.427 7.97 6.53 7.71
8/18/2021 1:30:00 PM 22.94 73.292 0.427 7.98 6.04 7.75
8/18/2021 1:45:00 PM 23.05 73.49 0.427 7.99 6.01 7.77
8/18/2021 2:00:00 PM 23.08 73.544 0.427 7.99 5.95 8.01
8/18/2021 2:15:00 PM 23.1 73.58 0.427 8 6.04 7.62
8/18/2021 2:30:00 PM 23.15 73.67 0.427 8 6.1 7.76
8/18/2021 2:45:00 PM 23.29 73.922 0.427 8.01 5.75 7.63
8/18/2021 3:00:00 PM 23.33 73.994 0.427 8.01 6.17 7.76
8/18/2021 3:15:00 PM 23.34 74.012 0.427 8.02 6.52 7.4
8/18/2021 3:30:00 PM 23.34 74.012 0.427 8.02 6.17 7.48
8/18/2021 3:45:00 PM 23.29 73.922 0.427 8.01 6.44 7.33
8/18/2021 4:00:00 PM 23.27 73.886 0.427 8.01 6.12 7.4
8/18/2021 4:15:00 PM 23.28 73.904 0.426 8 5.95 7.24
8/18/2021 4:30:00 PM 23.34 74.012 0.426 8.01 6.27 7.3
8/18/2021 4:45:00 PM 23.32 73.976 0.426 8.01 6.02 7.35
8/18/2021 5:00:00 PM 23.29 73.922 0.426 8 6.03 7.13
8/18/2021 5:15:00 PM 23.26 73.868 0.426 7.99 6.18 7.19
8/18/2021 5:30:00 PM 23.25 73.85 0.426 7.99 5.99 7.36
8/18/2021 5:45:00 PM 23.24 73.832 0.426 7.98 6.17 7.05
8/18/2021 6:00:00 PM 23.23 73.814 0.425 7.98 6.03 7.2
8/18/2021 6:15:00 PM 23.21 73.778 0.425 7.98 6.71 7.12
8/18/2021 6:30:00 PM 23.19 73.742 0.425 7.97 6.33 6.81
8/18/2021 6:45:00 PM 23.16 73.688 0.425 7.96 6.38 6.95
8/18/2021 7:00:00 PM 23.14 73.652 0.425 7.96 6.25 7.12
8/18/2021 7:15:00 PM 23.12 73.616 0.425 7.95 7.8 6.99
8/18/2021 7:30:00 PM 23.1 73.58 0.423 7.95 7.14 7.09
8/18/2021 7:45:00 PM 23.11 73.598 0.414 7.97 8.68 6.99
8/18/2021 8:00:00 PM 23.14 73.652 0.372 8.01 59.02 7.27
8/18/2021 8:15:00 PM 23.11 73.598 0.366 8 29.42 7.5
8/18/2021 8:30:00 PM 23.08 73.544 0.366 8 30.64 7.41
8/18/2021 8:45:00 PM 23.05 73.49 0.368 7.99 38.73 7.37
8/18/2021 9:00:00 PM 23.03 73.454 0.365 7.98 32.6 7.35
8/18/2021 9:15:00 PM 23.04 73.472 0.363 7.96 32.39 7.24
8/18/2021 9:30:00 PM 23.07 73.526 0.36 7.93 30.74 7.15
8/18/2021 9:45:00 PM 23.09 73.562 0.355 7.91 34.95 7.2
8/18/2021 10:00:00 PM 23.11 73.598 0.354 7.89 34.4 7.08
8/18/2021 10:15:00 PM 23.14 73.652 0.354 7.88 37.6 7.05
8/18/2021 10:30:00 PM 23.18 73.724 0.354 7.88 85.65 7.11
8/18/2021 10:45:00 PM 23.24 73.832 0.347 7.88 101.86 7.13
8/18/2021 11:00:00 PM 23.43 74.174 0.331 7.89 269.9 7.18
8/18/2021 11:15:00 PM 23.61 74.498 0.322 7.88 164.8 7.22
8/18/2021 11:30:00 PM 23.63 74.534 0.304 7.86 266 7.19
8/18/2021 11:45:00 PM 23.67 74.606 0.281 7.82 319.51 7.15
8/19/2021 12:00:00 AM 23.75 74.75 0.26 7.77 451.14 7.05
8/19/2021 12:15:00 AM 23.76 74.768 0.25 7.79 373.81 7.03
8/19/2021 12:30:00 AM 23.77 74.786 0.244 7.8 402.45 6.94
8/19/2021 12:45:00 AM 23.78 74.804 0.23 7.77 359.57 6.85
8/19/2021 1:00:00 AM 23.79 74.82201 0.218 7.77 360.23 6.82
8/19/2021 1:15:00 AM 23.77 74.786 0.209 7.78 327.76 6.82
8/19/2021 1:30:00 AM 23.73 74.714 0.204 7.81 393.36 6.83
8/19/2021 1:45:00 AM 23.68 74.624 0.202 7.84 386.41 6.85
8/19/2021 2:00:00 AM 23.64 74.552 0.202 7.88 427.41 6.88
8/19/2021 2:15:00 AM 23.59 74.462 0.202 7.88 415.23 6.9
8/19/2021 2:30:00 AM 23.55 74.39 0.203 7.86 366.57 6.92
8/19/2021 2:45:00 AM 23.51 74.318 0.204 7.84 348.45 6.93
8/19/2021 3:00:00 AM 23.47 74.246 0.206 7.81 321.28 6.93
8/19/2021 3:15:00 AM 23.42 74.156 0.206 7.78 281.32 6.93
8/19/2021 3:30:00 AM 23.38 74.084 0.207 7.76 244.6 6.92
8/19/2021 3:45:00 AM 23.33 73.994 0.207 7.74 231.45 6.91
8/19/2021 4:00:00 AM 23.28 73.904 0.206 7.72 207.67 6.93
8/19/2021 4:15:00 AM 23.23 73.814 0.205 7.7 200.76 6.95
8/19/2021 4:30:00 AM 23.19 73.742 0.205 7.69 158.79 6.95
8/19/2021 4:45:00 AM 23.14 73.652 0.205 7.68 167.83 6.96
8/19/2021 5:00:00 AM 23.1 73.58 0.206 7.67 124.14 6.97
8/19/2021 5:15:00 AM 23.05 73.49 0.207 7.67 143.61 6.99
8/19/2021 5:30:00 AM 23.01 73.418 0.208 7.67 136.54 6.99
8/19/2021 5:45:00 AM 22.97 73.346 0.209 7.67 155.66 7
8/19/2021 6:00:00 AM 22.93 73.274 0.21 7.67 121.7 6.99
8/19/2021 6:15:00 AM 22.89 73.202 0.212 7.67 101.55 7.03
8/19/2021 6:30:00 AM 22.86 73.148 0.213 7.67 111.85 7.05
8/19/2021 6:45:00 AM 22.82 73.076 0.214 7.67 111.96 7.05
8/19/2021 7:00:00 AM 22.78 73.004 0.216 7.68 103.6 7.06
8/19/2021 7:15:00 AM 22.75 72.95 0.218 7.68 107.91 7.07
8/19/2021 7:30:00 AM 22.72 72.896 0.221 7.68 88.47 7.08
8/19/2021 7:45:00 AM 22.68 72.824 0.223 7.68 102.56 7.07
8/19/2021 8:00:00 AM 22.65 72.77 0.226 7.68 94.23 7.09
8/19/2021 8:15:00 AM 22.62 72.716 0.229 7.69 83.63 7.09
8/19/2021 8:30:00 AM 22.6 72.68 0.232 7.69 93.8 7.09
8/19/2021 8:45:00 AM 22.58 72.644 0.234 7.69 95.91 7.09
8/19/2021 9:00:00 AM 22.57 72.626 0.237 7.7 77.24 7.11
8/19/2021 9:15:00 AM 22.56 72.608 0.24 7.7 74.25 7.12
8/19/2021 9:30:00 AM 22.55 72.59 0.242 7.7 68.82 7.15
8/19/2021 9:45:00 AM 22.56 72.608 0.244 7.7 71.03 7.13
8/19/2021 10:00:00 AM 22.57 72.626 0.247 7.71 67.99 7.14
8/19/2021 10:15:00 AM 22.58 72.644 0.249 7.71 65.69 7.17
8/19/2021 10:30:00 AM 22.62 72.716 0.251 7.71 66.19 7.18
8/19/2021 10:45:00 AM 22.66 72.788 0.254 7.72 73.19 7.17
8/19/2021 11:00:00 AM 22.71 72.878 0.256 7.72 58 7.18
8/19/2021 11:15:00 AM 22.75 72.95 0.258 7.72 69.23 7.23
8/19/2021 11:30:00 AM 22.77 72.986 0.262 7.73 56.56 7.24
8/19/2021 11:45:00 AM 22.8 73.04 0.264 7.73 56.29 7.22
8/19/2021 12:00:00 PM 22.81 73.058 0.266 7.74 58.73 7.22
8/19/2021 12:15:00 PM 22.85 73.13 0.268 7.74 54.26 7.27
8/19/2021 12:30:00 PM 22.88 73.184 0.271 7.74 46.18 7.27
8/19/2021 12:45:00 PM 22.93 73.274 0.273 7.75 51.5 7.26
8/19/2021 1:00:00 PM 23.01 73.418 0.276 7.75 71.97 7.32
8/19/2021 1:15:00 PM 23.1 73.58 0.278 7.75 52.68 7.32
8/19/2021 1:30:00 PM 23.2 73.76 0.28 7.76 45.95 7.27
8/19/2021 1:45:00 PM 23.27 73.886 0.282 7.76 45.17 7.3
8/19/2021 2:00:00 PM 23.35 74.03 0.284 7.76 51.44 7.31
8/19/2021 2:15:00 PM 23.46 74.228 0.286 7.77 46.3 7.32
8/19/2021 2:30:00 PM 23.46 74.228 0.288 7.77 51.47 7.34
8/19/2021 2:45:00 PM 23.54 74.372 0.29 7.77 61.62 7.32
8/19/2021 3:00:00 PM 23.58 74.444 0.292 7.77 45.74 7.31
8/19/2021 3:15:00 PM 23.61 74.498 0.293 7.77 43.84 7.36
8/19/2021 3:30:00 PM 23.64 74.552 0.294 7.78 41.8 7.3
8/19/2021 3:45:00 PM 23.65 74.57 0.295 7.77 42.74 7.32
8/19/2021 4:00:00 PM 23.67 74.606 0.297 7.77 38.68 7.23
8/19/2021 4:15:00 PM 23.68 74.624 0.298 7.77 47.33 7.26
8/19/2021 4:30:00 PM 23.7 74.66 0.3 7.78 41.6 7.26
8/19/2021 4:45:00 PM 23.7 74.66 0.301 7.77 39.03 7.16
8/19/2021 5:00:00 PM 23.71 74.67799 0.303 7.77 36.1 7.22
8/19/2021 5:15:00 PM 23.71 74.67799 0.303 7.77 35.95 7.18
8/19/2021 5:30:00 PM 23.68 74.624 0.304 7.77 40.06 7.1
8/19/2021 5:45:00 PM 23.65 74.57 0.304 7.77 37.78 7.1
8/19/2021 6:00:00 PM 23.63 74.534 0.304 7.76 55.45 7.13
8/19/2021 6:15:00 PM 23.6 74.48 0.304 7.76 42.42 7
8/19/2021 6:30:00 PM 23.56 74.408 0.371 7.76 43.89 7
8/19/2021 6:45:00 PM 23.53 74.354 0.334 7.75 40.23 7.02
8/19/2021 7:00:00 PM 23.51 74.318 0.323 7.75 37.53 6.96
8/19/2021 7:15:00 PM 23.49 74.282 0.337 7.75 41.33 6.94
8/19/2021 7:30:00 PM 23.47 74.246 0.326 7.75 33.99 7.01
8/19/2021 7:45:00 PM 23.45 74.21 0.327 7.75 39.6 6.94
8/19/2021 8:00:00 PM 23.42 74.156 0.324 7.75 41.6 6.85
8/19/2021 8:15:00 PM 23.39 74.102 0.329 7.75 67.83 6.91
8/19/2021 8:30:00 PM 23.36 74.048 0.327 7.75 38.03 6.89
8/19/2021 8:45:00 PM 23.32 73.976 0.328 7.74 34.76 6.82
8/19/2021 9:00:00 PM 23.28 73.904 0.328 7.75 35.6 6.85
8/19/2021 9:15:00 PM 23.23 73.814 0.33 7.74 52.77 6.76
8/19/2021 9:30:00 PM 23.19 73.742 0.331 7.74 34.4 6.82
8/19/2021 9:45:00 PM 23.14 73.652 0.33 7.74 45.42 6.82
8/19/2021 10:00:00 PM 23.09 73.562 0.334 7.74 35.66 6.81
8/19/2021 10:15:00 PM 23.05 73.49 0.339 7.74 96.34 6.83
8/19/2021 10:30:00 PM 23 73.4 0.334 7.74 49.61 6.79
8/19/2021 10:45:00 PM 22.96 73.328 0.337 7.74 34.36 6.81
8/19/2021 11:00:00 PM 22.92 73.256 0.338 7.74 30.81 6.69
8/19/2021 11:15:00 PM 22.88 73.184 0.337 7.73 33.24 6.76
8/19/2021 11:30:00 PM 22.83 73.094 0.344 7.74 30.39 6.78
8/19/2021 11:45:00 PM 22.79 73.022 0.339 7.73 30.72 6.76
8/20/2021 12:00:00 AM 22.75 72.95 0.34 7.73 38.07 6.81
8/20/2021 12:15:00 AM 22.71 72.878 0.341 7.73 37.23 6.77
8/20/2021 12:30:00 AM 22.68 72.824 0.341 7.73 76.55 6.75
8/20/2021 12:45:00 AM 22.64 72.752 0.342 7.73 28.9 6.68
8/20/2021 1:00:00 AM 22.61 72.698 0.343 7.73 27.38 6.7
8/20/2021 1:15:00 AM 22.57 72.626 0.344 7.73 26.21 6.72
8/20/2021 1:30:00 AM 22.54 72.57201 0.344 7.73 39.16 6.77
8/20/2021 1:45:00 AM 22.51 72.518 0.345 7.73 29.31 6.81
8/20/2021 2:00:00 AM 22.48 72.464 0.347 7.73 25.91 6.69
8/20/2021 2:15:00 AM 22.45 72.41 0.348 7.73 26.8 6.84
8/20/2021 2:30:00 AM 22.42 72.356 0.347 7.73 30.9 6.79
8/20/2021 2:45:00 AM 22.39 72.302 0.347 7.73 26.32 6.76
8/20/2021 3:00:00 AM 22.36 72.248 0.351 7.73 25.7 6.81
8/20/2021 3:15:00 AM 22.33 72.194 0.35 7.73 27.86 6.81
8/20/2021 3:30:00 AM 22.3 72.14 0.351 7.73 28.43 6.77
8/20/2021 3:45:00 AM 22.28 72.104 0.351 7.73 25.35 6.83
8/20/2021 4:00:00 AM 22.25 72.05 0.354 7.73 29.23 6.82
8/20/2021 4:15:00 AM 22.23 72.014 0.353 7.73 26.69 6.8
8/20/2021 4:30:00 AM 22.2 71.96 0.355 7.73 38.38 6.76
8/20/2021 4:45:00 AM 22.17 71.906 0.355 7.73 27.94 6.74
8/20/2021 5:00:00 AM 22.14 71.852 0.355 7.73 28.28 6.74
8/20/2021 5:15:00 AM 22.12 71.816 0.355 7.73 27.71 6.89
8/20/2021 5:30:00 AM 22.09 71.762 0.357 7.73 24.14 6.83
8/20/2021 5:45:00 AM 22.06 71.708 0.357 7.73 28.39 6.82
8/20/2021 6:00:00 AM 22.04 71.672 0.358 7.73 29.11 6.81
8/20/2021 6:15:00 AM 22.01 71.618 0.358 7.73 54.21 6.78
8/20/2021 6:30:00 AM 21.99 71.582 0.358 7.73 44.46 6.88
8/20/2021 6:45:00 AM 21.96 71.528 0.36 7.73 51.36 6.82
8/20/2021 7:00:00 AM 21.94 71.492 0.361 7.73 27.57 6.79
8/20/2021 7:15:00 AM 21.91 71.438 0.362 7.73 48.84 6.86
8/20/2021 7:30:00 AM 21.89 71.402 0.362 7.73 48.14 6.88
8/20/2021 7:45:00 AM 21.88 71.384 0.363 7.73 34.58 6.84
8/20/2021 8:00:00 AM 21.87 71.366 0.363 7.73 21.52 6.88
8/20/2021 8:15:00 AM 21.86 71.348 0.365 7.73 20.99 6.92
8/20/2021 8:30:00 AM 21.86 71.348 0.365 7.73 26.01 6.94
8/20/2021 8:45:00 AM 21.87 71.366 0.366 7.74 24.77 6.97
8/20/2021 9:00:00 AM 21.87 71.366 0.366 7.74 25.56 7.05
8/20/2021 9:15:00 AM 21.87 71.366 0.367 7.74 17.56 6.91
8/20/2021 9:30:00 AM 21.87 71.366 0.367 7.74 18.06 6.97
8/20/2021 9:45:00 AM 21.87 71.366 0.368 7.75 22.92 7.05
8/20/2021 10:00:00 AM 21.86 71.348 0.368 7.75 18.87 7.11
8/20/2021 10:15:00 AM 21.85 71.33 0.37 7.75 19.04 7.09
8/20/2021 10:30:00 AM 21.85 71.33 0.369 7.76 18.36 7.04
8/20/2021 10:45:00 AM 21.85 71.33 0.371 7.76 14.97 7.18
8/20/2021 11:00:00 AM 21.85 71.33 0.371 7.76 21.01 7.05
8/20/2021 11:15:00 AM 21.87 71.366 0.371 7.77 13.8 7.13
8/20/2021 11:30:00 AM 21.89 71.402 0.372 7.77 16.44 7.1
8/20/2021 11:45:00 AM 21.91 71.438 0.371 7.78 15.9 7.15
8/20/2021 12:00:00 PM 21.94 71.492 0.372 7.78 17.12 7.17
8/20/2021 12:15:00 PM 21.97 71.546 0.373 7.79 15.06 7.3
8/20/2021 12:30:00 PM 22 71.6 0.373 7.79 17.65 7.41
8/20/2021 12:45:00 PM 22.05 71.69 0.374 7.8 14 7.37
8/20/2021 1:00:00 PM 22.07 71.726 0.375 7.81 14.29 7.42
8/20/2021 1:15:00 PM 22.12 71.816 0.376 7.82 13.48 7.39
8/20/2021 1:30:00 PM 22.18 71.924 0.375 7.82 16.8 7.57
8/20/2021 1:45:00 PM 22.21 71.978 0.376 7.83 13.97 7.57
8/20/2021 2:00:00 PM 22.23 72.014 0.377 7.83 12.84 7.47
8/20/2021 2:15:00 PM 22.29 72.122 0.377 7.84 14.22 7.61
8/20/2021 2:30:00 PM 22.35 72.23 0.379 7.85 14.59 7.53
8/20/2021 2:45:00 PM 22.39 72.302 0.378 7.85 12.99 7.49
8/20/2021 3:00:00 PM 22.43 72.374 0.379 7.85 12.29 7.42
8/20/2021 3:15:00 PM 22.48 72.464 0.379 7.86 13.02 7.66
8/20/2021 3:30:00 PM 22.53 72.554 0.38 7.86 12.49 7.62
8/20/2021 3:45:00 PM 22.57 72.626 0.38 7.87 12.53 7.69
8/20/2021 4:00:00 PM 22.6 72.68 0.381 7.87 12.42 7.66
8/20/2021 4:15:00 PM 22.64 72.752 0.382 7.87 13.19 7.67
8/20/2021 4:30:00 PM 22.73 72.914 0.381 7.88 12.79 7.73
8/20/2021 4:45:00 PM 22.73 72.914 0.382 7.88 12.29 7.6
8/20/2021 5:00:00 PM 22.76 72.968 0.383 7.88 12.69 7.66
8/20/2021 5:15:00 PM 22.75 72.95 0.383 7.88 12.27 7.68
8/20/2021 5:30:00 PM 22.75 72.95 0.384 7.88 16.21 7.64
8/20/2021 5:45:00 PM 22.73 72.914 0.384 7.88 12.78 7.68
8/20/2021 6:00:00 PM 22.7 72.86 0.385 7.87 12.79 7.56
8/20/2021 6:15:00 PM 22.67 72.806 0.385 7.87 12.27 7.54
8/20/2021 6:30:00 PM 22.64 72.752 0.386 7.87 13.84 7.52
8/20/2021 6:45:00 PM 22.59 72.662 0.386 7.86 13.95 7.51
8/20/2021 7:00:00 PM 22.55 72.59 0.386 7.86 11.92 7.38
8/20/2021 7:15:00 PM 22.51 72.518 0.387 7.86 12.37 7.45
8/20/2021 7:30:00 PM 22.48 72.464 0.388 7.85 12.63 7.29
8/20/2021 7:45:00 PM 22.45 72.41 0.388 7.85 12.74 7.29
8/20/2021 8:00:00 PM 22.42 72.356 0.389 7.84 13.07 7.2
8/20/2021 8:15:00 PM 22.38 72.284 0.389 7.84 16.34 7.29
8/20/2021 8:30:00 PM 22.35 72.23 0.39 7.84 15.77 7.31
8/20/2021 8:45:00 PM 22.33 72.194 0.39 7.84 15.81 7.18
8/20/2021 9:00:00 PM 22.3 72.14 0.391 7.84 15.1 7.16
8/20/2021 9:15:00 PM 22.27 72.086 0.391 7.83 14.43 7.18
8/20/2021 9:30:00 PM 22.24 72.032 0.392 7.83 15.36 7.15
8/20/2021 9:45:00 PM 22.22 71.996 0.392 7.83 13.72 7.1
8/20/2021 10:00:00 PM 22.19 71.942 0.392 7.83 15.6 7.13
8/20/2021 10:15:00 PM 22.16 71.888 0.393 7.82 16.9 7.16
8/20/2021 10:30:00 PM 22.13 71.834 0.393 7.82 16.96 7.18
8/20/2021 10:45:00 PM 22.1 71.78 0.394 7.82 14.96 7.11
8/20/2021 11:00:00 PM 22.06 71.708 0.394 7.82 15.09 7.07
8/20/2021 11:15:00 PM 22.02 71.636 0.394 7.82 16.84 7.09
8/20/2021 11:30:00 PM 21.99 71.582 0.395 7.81 16.96 7.02
8/20/2021 11:45:00 PM 21.94 71.492 0.395 7.81 16.39 7.13
8/21/2021 12:00:00 AM 21.9 71.42 0.396 7.81 17.1 6.98
8/21/2021 12:15:00 AM 21.86 71.348 0.396 7.81 15.57 7.03
8/21/2021 12:30:00 AM 21.82 71.276 0.396 7.81 14.61 7.12
8/21/2021 12:45:00 AM 21.77 71.186 0.396 7.81 15.55 7.07
8/21/2021 1:00:00 AM 21.73 71.114 0.397 7.81 16.04 7.11
8/21/2021 1:15:00 AM 21.68 71.024 0.398 7.81 16.89 6.91
8/21/2021 1:30:00 AM 21.63 70.934 0.398 7.81 15.28 7.05
8/21/2021 1:45:00 AM 21.58 70.844 0.399 7.81 16.59 7.02
8/21/2021 2:00:00 AM 21.53 70.754 0.399 7.81 13.39 7.01
8/21/2021 2:15:00 AM 21.48 70.664 0.4 7.81 14.77 7.13
8/21/2021 2:30:00 AM 21.43 70.574 0.4 7.81 15.47 6.98
8/21/2021 2:45:00 AM 21.39 70.502 0.401 7.81 16.12 7.11
8/21/2021 3:00:00 AM 21.34 70.412 0.401 7.81 16.08 7.04
8/21/2021 3:15:00 AM 21.29 70.32201 0.402 7.81 16.36 7.03
8/21/2021 3:30:00 AM 21.24 70.232 0.402 7.81 18.34 7.05
8/21/2021 3:45:00 AM 21.19 70.142 0.403 7.81 16.6 7.18
8/21/2021 4:00:00 AM 21.15 70.07 0.403 7.8 16.36 7.02
8/21/2021 4:15:00 AM 21.1 69.98 0.403 7.8 16.38 7.07
8/21/2021 4:30:00 AM 21.05 69.89 0.403 7.8 15.63 7.22
8/21/2021 4:45:00 AM 21.01 69.818 0.404 7.8 18.85 7.14
8/21/2021 5:00:00 AM 20.96 69.728 0.404 7.79 23.46 7.21
8/21/2021 5:15:00 AM 20.92 69.656 0.405 7.8 21.44 7.18
8/21/2021 5:30:00 AM 20.87 69.566 0.405 7.8 39.56 7.23
8/21/2021 5:45:00 AM 20.83 69.494 0.405 7.8 19.01 7.2
8/21/2021 6:00:00 AM 20.79 69.422 0.406 7.8 22.16 7.17
8/21/2021 6:15:00 AM 20.75 69.35 0.406 7.8 18.05 7.18
8/21/2021 6:30:00 AM 20.71 69.278 0.406 7.8 16.13 7.16
8/21/2021 6:45:00 AM 20.67 69.206 0.407 7.8 15.47 7.19
8/21/2021 7:00:00 AM 20.63 69.134 0.408 7.8 16.34 7.16
8/21/2021 7:15:00 AM 20.6 69.08 0.408 7.8 16.17 7.24
8/21/2021 7:30:00 AM 20.58 69.044 0.407 7.8 15.79 7.25
8/21/2021 7:45:00 AM 20.56 69.008 0.408 7.8 17.84 7.29
8/21/2021 8:00:00 AM 20.55 68.99 0.409 7.81 16.14 7.24
8/21/2021 8:15:00 AM 20.55 68.99 0.409 7.81 16.13 7.26
8/21/2021 8:30:00 AM 20.55 68.99 0.409 7.81 13.43 7.33
8/21/2021 8:45:00 AM 20.56 69.008 0.41 7.81 14.27 7.29
8/21/2021 9:00:00 AM 20.58 69.044 0.41 7.81 13.04 7.39
8/21/2021 9:15:00 AM 20.6 69.08 0.41 7.82 13.19 7.4
8/21/2021 9:30:00 AM 20.64 69.152 0.41 7.82 13.39 7.4
8/21/2021 9:45:00 AM 20.68 69.224 0.411 7.83 12.02 7.37
8/21/2021 10:00:00 AM 20.73 69.314 0.41 7.83 11.43 7.4
8/21/2021 10:15:00 AM 20.77 69.386 0.412 7.84 11.6 7.48
8/21/2021 10:30:00 AM 20.82 69.476 0.411 7.84 11.06 7.46
8/21/2021 10:45:00 AM 20.88 69.584 0.412 7.84 11.23 7.59
8/21/2021 11:00:00 AM 20.96 69.728 0.412 7.85 11.38 7.6
8/21/2021 11:15:00 AM 21.05 69.89 0.412 7.86 10.93 7.62
8/21/2021 11:30:00 AM 21.18 70.124 0.411 7.86 10.85 7.6
8/21/2021 11:45:00 AM 21.3 70.34 0.412 7.86 20.02 7.7
8/21/2021 12:00:00 PM 21.45 70.61 0.413 7.87 12.21 7.74
8/21/2021 12:15:00 PM 21.6 70.88 0.413 7.88 13.88 7.83
8/21/2021 12:30:00 PM 21.73 71.114 0.413 7.89 11.06 7.83
8/21/2021 12:45:00 PM 21.88 71.384 0.413 7.9 12.18 7.91
8/21/2021 1:00:00 PM 22.05 71.69 0.413 7.91 11.41 7.99
8/21/2021 1:15:00 PM 22.19 71.942 0.414 7.92 11.48 7.99
8/21/2021 1:30:00 PM 22.31 72.158 0.414 7.93 11.81 8.1
8/21/2021 1:45:00 PM 22.42 72.356 0.414 7.93 12.35 8.11
8/21/2021 2:00:00 PM 22.55 72.59 0.414 7.94 15.23 8.11
8/21/2021 2:15:00 PM 22.67 72.806 0.414 7.94 17.57 8.14
8/21/2021 2:30:00 PM 22.78 73.004 0.415 7.95 26.32 8.2
8/21/2021 2:45:00 PM 22.83 73.094 0.415 7.95 14.7 8.13
8/21/2021 3:00:00 PM 22.88 73.184 0.415 7.96 14.88 8.2
8/21/2021 3:15:00 PM 22.87 73.166 0.415 7.96 14.22 8.07
8/21/2021 3:30:00 PM 22.91 73.238 0.415 7.96 11.93 8.15
8/21/2021 3:45:00 PM 22.89 73.202 0.416 7.96 13.26 8.05
8/21/2021 4:00:00 PM 22.94 73.292 0.416 7.96 12.72 8.1
8/21/2021 4:15:00 PM 22.94 73.292 0.416 7.96 11.91 8.08
8/21/2021 4:30:00 PM 22.88 73.184 0.416 7.96 14.34 8.04
8/21/2021 4:45:00 PM 22.84 73.112 0.417 7.95 15.51 7.94
8/21/2021 5:00:00 PM 22.87 73.166 0.417 7.95 16.48 7.99
8/21/2021 5:15:00 PM 22.88 73.184 0.417 7.95 13.4 7.97
8/21/2021 5:30:00 PM 22.86 73.148 0.417 7.95 11.81 7.94
8/21/2021 5:45:00 PM 22.83 73.094 0.418 7.94 11.89 7.89
8/21/2021 6:00:00 PM 22.79 73.022 0.418 7.94 11.07 7.84
8/21/2021 6:15:00 PM 22.78 73.004 0.418 7.94 10.33 7.81
8/21/2021 6:30:00 PM 22.76 72.968 0.418 7.93 10.27 7.77
8/21/2021 6:45:00 PM 22.75 72.95 0.418 7.93 10.62 7.76
8/21/2021 7:00:00 PM 22.72 72.896 0.418 7.93 10.38 7.7
8/21/2021 7:15:00 PM 22.68 72.824 0.419 7.92 9.46 7.65
8/21/2021 7:30:00 PM 22.65 72.77 0.419 7.92 9.67 7.62
8/21/2021 7:45:00 PM 22.62 72.716 0.419 7.92 9.81 7.59
8/21/2021 8:00:00 PM 22.59 72.662 0.42 7.91 19.46 7.52
8/21/2021 8:15:00 PM 22.57 72.626 0.42 7.91 66.95 7.5
8/21/2021 8:30:00 PM 22.54 72.57201 0.42 7.9 42.3 7.44
8/21/2021 8:45:00 PM 22.52 72.536 0.421 7.9 15.43 7.35
8/21/2021 9:00:00 PM 22.5 72.5 0.421 7.89 12.84 7.32
8/21/2021 9:15:00 PM 22.47 72.446 0.421 7.89 12.18 7.31
8/21/2021 9:30:00 PM 22.45 72.41 0.421 7.88 14.32 7.32
8/21/2021 9:45:00 PM 22.42 72.356 0.421 7.88 15.14 7.18
8/21/2021 10:00:00 PM 22.39 72.302 0.422 7.88 17.55 7.2
8/21/2021 10:15:00 PM 22.37 72.266 0.422 7.85 61.09 7.23
8/21/2021 10:30:00 PM 22.34 72.212 0.422 7.87 18.14 7.11
8/21/2021 10:45:00 PM 22.32 72.176 0.422 7.86 16.01 7.12
8/21/2021 11:00:00 PM 22.29 72.122 0.423 7.86 12.6 7.1
8/21/2021 11:15:00 PM 22.26 72.068 0.423 7.86 12.8 7.16
8/21/2021 11:30:00 PM 22.23 72.014 0.423 7.85 11.28 6.99
8/21/2021 11:45:00 PM 22.19 71.942 0.423 7.85 12.13 7.06
8/22/2021 12:00:00 AM 22.16 71.888 0.423 7.84 74.18 7.1
8/22/2021 12:15:00 AM 22.13 71.834 0.424 7.85 92.12 7.16
8/22/2021 12:30:00 AM 22.09 71.762 0.424 7.85 22.28 7.12
8/22/2021 12:45:00 AM 22.04 71.672 0.424 7.85 16.26 7.15
8/22/2021 1:00:00 AM 22.01 71.618 0.424 7.84 20.61 7.04
8/22/2021 1:15:00 AM 21.96 71.528 0.424 7.84 14.14 7.11
8/22/2021 1:30:00 AM 21.92 71.456 0.425 7.84 17.63 7.08
8/22/2021 1:45:00 AM 21.88 71.384 0.425 7.84 19.63 7.11
8/22/2021 2:00:00 AM 21.84 71.312 0.425 7.84 12.01 7.13
8/22/2021 2:15:00 AM 21.8 71.24 0.425 7.84 13.28 7.12
8/22/2021 2:30:00 AM 21.76 71.168 0.426 7.84 11.91 7.05
8/22/2021 2:45:00 AM 21.72 71.096 0.426 7.83 12.81 7.1
8/22/2021 3:00:00 AM 21.68 71.024 0.426 7.83 12.51 7.04
8/22/2021 3:15:00 AM 21.65 70.97 0.427 7.83 12.7 7.14
8/22/2021 3:30:00 AM 21.62 70.916 0.427 7.83 13.58 7.09
8/22/2021 3:45:00 AM 21.58 70.844 0.427 7.83 12.56 7.12
8/22/2021 4:00:00 AM 21.55 70.79 0.427 7.83 13.5 7.12
8/22/2021 4:15:00 AM 21.52 70.736 0.428 7.83 12.46 7.14
8/22/2021 4:30:00 AM 21.5 70.7 0.427 7.83 24.15 7.21
8/22/2021 4:45:00 AM 21.47 70.646 0.428 7.83 25.7 7.21
8/22/2021 5:00:00 AM 21.45 70.61 0.427 7.83 13.26 7.14
8/22/2021 5:15:00 AM 21.48 70.664 0.398 7.88 42.61 7.43
8/22/2021 5:30:00 AM 21.48 70.664 0.377 7.9 77.13 7.57
8/22/2021 5:45:00 AM 21.46 70.628 0.373 7.9 49.21 7.62
8/22/2021 6:00:00 AM 21.44 70.592 0.362 7.92 74.91 7.76
8/22/2021 6:15:00 AM 21.38 70.484 0.357 7.93 55.39 7.78
8/22/2021 6:30:00 AM 21.36 70.448 0.354 7.92 63.11 7.77
8/22/2021 6:45:00 AM 21.37 70.466 0.351 7.91 62.77 7.66
8/22/2021 7:00:00 AM 21.4 70.52 0.345 7.87 57.65 7.64
8/22/2021 7:15:00 AM 21.45 70.61 0.341 7.83 60.76 7.47
8/22/2021 7:30:00 AM 21.51 70.718 0.391 7.81 74.62 7.38
8/22/2021 7:45:00 AM 21.57 70.826 0.385 7.79 74.32 7.37
8/22/2021 8:00:00 AM 21.62 70.916 0.317 7.8 189.17 7.43
8/22/2021 8:15:00 AM 21.68 71.024 0.316 7.8 102.8 7.46
8/22/2021 8:30:00 AM 21.75 71.15 0.295 7.79 105.07 7.49
8/22/2021 8:45:00 AM 21.79 71.222 0.279 7.77 165.48 7.5
8/22/2021 9:00:00 AM 21.81 71.258 0.276 7.76 186.22 7.5
8/22/2021 9:15:00 AM 21.79 71.222 0.278 7.74 181.06 7.45
8/22/2021 9:30:00 AM 21.78 71.204 0.28 7.74 184.05 7.44
8/22/2021 9:45:00 AM 21.82 71.276 0.283 7.74 162.82 7.46
8/22/2021 10:00:00 AM 21.84 71.312 0.272 7.73 269.76 7.44
8/22/2021 10:15:00 AM 21.87 71.366 0.256 7.72 267.77 7.45
8/22/2021 10:30:00 AM 21.89 71.402 0.251 7.7 263.97 7.45
8/22/2021 10:45:00 AM 21.91 71.438 0.251 7.73 199.55 7.42
8/22/2021 11:00:00 AM 21.94 71.492 0.256 7.72 261 7.34
8/22/2021 11:15:00 AM 21.99 71.582 0.258 7.72 265.06 7.27
8/22/2021 11:30:00 AM 22.03 71.654 0.253 7.71 272.35 7.25
8/22/2021 11:45:00 AM 22.04 71.672 0.248 7.7 271.92 7.24
8/22/2021 12:00:00 PM 22.02 71.636 0.244 7.69 244.81 7.22
8/22/2021 12:15:00 PM 21.97 71.546 0.24 7.67 253.26 7.19
8/22/2021 12:30:00 PM 21.92 71.456 0.233 7.66 210.41 7.17
8/22/2021 12:45:00 PM 21.87 71.366 0.227 7.64 201.78 7.16
8/22/2021 1:00:00 PM 21.82 71.276 0.221 7.62 178.26 7.15
8/22/2021 1:15:00 PM 21.78 71.204 0.218 7.61 145.46 7.17
8/22/2021 1:30:00 PM 21.75 71.15 0.215 7.61 135.04 7.19
8/22/2021 1:45:00 PM 21.72 71.096 0.214 7.6 142.06 7.22
8/22/2021 2:00:00 PM 21.7 71.06 0.215 7.59 126.46 7.24
8/22/2021 2:15:00 PM 21.67 71.006 0.217 7.59 129.57 7.26
8/22/2021 2:30:00 PM 21.66 70.988 0.218 7.59 101.24 7.28
8/22/2021 2:45:00 PM 21.64 70.952 0.22 7.59 111.39 7.28
8/22/2021 3:00:00 PM 21.64 70.952 0.222 7.58 106.19 7.29
8/22/2021 3:15:00 PM 21.63 70.934 0.224 7.59 99.9 7.29
8/22/2021 3:30:00 PM 21.63 70.934 0.226 7.59 91.48 7.29
8/22/2021 3:45:00 PM 21.63 70.934 0.229 7.59 97.14 7.28
8/22/2021 4:00:00 PM 21.62 70.916 0.231 7.59 88.76 7.28
8/22/2021 4:15:00 PM 21.62 70.916 0.234 7.59 70.08 7.27
8/22/2021 4:30:00 PM 21.61 70.898 0.236 7.59 71.33 7.27
8/22/2021 4:45:00 PM 21.6 70.88 0.24 7.59 85.9 7.26
8/22/2021 5:00:00 PM 21.58 70.844 0.242 7.59 76.81 7.27
8/22/2021 5:15:00 PM 21.57 70.826 0.245 7.59 77.62 7.26
8/22/2021 5:30:00 PM 21.56 70.808 0.249 7.59 72.12 7.25
8/22/2021 5:45:00 PM 21.56 70.808 0.251 7.59 68.91 7.24
8/22/2021 6:00:00 PM 21.55 70.79 0.254 7.59 64.17 7.26
8/22/2021 6:15:00 PM 21.55 70.79 0.257 7.6 68.53 7.24
8/22/2021 6:30:00 PM 21.54 70.772 0.26 7.6 98.19 7.24
8/22/2021 6:45:00 PM 21.53 70.754 0.263 7.61 58.07 7.25
8/22/2021 7:00:00 PM 21.52 70.736 0.266 7.61 60.38 7.25
8/22/2021 7:15:00 PM 21.5 70.7 0.269 7.61 53 7.26
8/22/2021 7:30:00 PM 21.49 70.682 0.271 7.61 84.35 7.26
8/22/2021 7:45:00 PM 21.48 70.664 0.274 7.62 53.3 7.27
8/22/2021 8:00:00 PM 21.48 70.664 0.276 7.63 56.46 7.27
8/22/2021 8:15:00 PM 21.49 70.682 0.278 7.63 44.48 7.27
8/22/2021 8:30:00 PM 21.5 70.7 0.279 7.64 56.96 7.3
8/22/2021 8:45:00 PM 21.5 70.7 0.281 7.64 55.27 7.31
8/22/2021 9:00:00 PM 21.5 70.7 0.282 7.65 55.08 7.32
8/22/2021 9:15:00 PM 21.49 70.682 0.285 7.65 49.76 7.34
8/22/2021 9:30:00 PM 21.47 70.646 0.287 7.66 57.49 7.35
8/22/2021 9:45:00 PM 21.46 70.628 0.29 7.66 56.33 7.35
8/22/2021 10:00:00 PM 21.45 70.61 0.293 7.66 57.55 7.38
8/22/2021 10:15:00 PM 21.45 70.61 0.295 7.66 43.81 7.39
8/22/2021 10:30:00 PM 21.45 70.61 0.296 7.67 41.64 7.39
8/22/2021 10:45:00 PM 21.44 70.592 0.297 7.67 43.92 7.39
8/22/2021 11:00:00 PM 21.43 70.574 0.299 7.67 51.88 7.39
8/22/2021 11:15:00 PM 21.42 70.556 0.3 7.67 47.9 7.4
8/22/2021 11:30:00 PM 21.41 70.538 0.301 7.67 45.67 7.39
8/22/2021 11:45:00 PM 21.39 70.502 0.302 7.68 43.45 7.39
8/23/2021 12:00:00 AM 21.37 70.466 0.303 7.68 43.69 7.41
8/23/2021 12:15:00 AM 21.35 70.43 0.306 7.68 46.86 7.39
8/23/2021 12:30:00 AM 21.33 70.394 0.307 7.68 40.49 7.42
8/23/2021 12:45:00 AM 21.32 70.376 0.304 7.69 59.73 7.49
8/23/2021 1:00:00 AM 21.32 70.376 0.301 7.71 149.95 7.59
8/23/2021 1:15:00 AM 21.3 70.34 0.302 7.71 48.21 7.59
8/23/2021 1:30:00 AM 21.28 70.304 0.304 7.71 46.5 7.56
8/23/2021 1:45:00 AM 21.26 70.268 0.305 7.7 44.68 7.53
8/23/2021 2:00:00 AM 21.25 70.25 0.306 7.69 43.36 7.48
8/23/2021 2:15:00 AM 21.24 70.232 0.307 7.68 47.76 7.45
8/23/2021 2:30:00 AM 21.22 70.196 0.308 7.68 43.24 7.47
8/23/2021 2:45:00 AM 21.2 70.16 0.309 7.68 42.53 7.48
8/23/2021 3:00:00 AM 21.17 70.106 0.31 7.68 43.98 7.48
8/23/2021 3:15:00 AM 21.15 70.07 0.31 7.68 48.26 7.46
8/23/2021 3:30:00 AM 21.14 70.052 0.31 7.68 38.72 7.51
8/23/2021 3:45:00 AM 21.12 70.016 0.311 7.68 52.52 7.49
8/23/2021 4:00:00 AM 21.1 69.98 0.312 7.68 53.37 7.51
8/23/2021 4:15:00 AM 21.09 69.962 0.313 7.68 87.91 7.51
8/23/2021 4:30:00 AM 21.07 69.926 0.314 7.68 55.34 7.51
8/23/2021 4:45:00 AM 21.05 69.89 0.315 7.68 80.74 7.52
8/23/2021 5:00:00 AM 21.04 69.872 0.316 7.69 50.16 7.55
8/23/2021 5:15:00 AM 21.03 69.854 0.317 7.69 56.38 7.54
8/23/2021 5:30:00 AM 21.04 69.872 0.317 7.7 110.19 7.55
8/23/2021 5:45:00 AM 21.07 69.926 0.314 7.7 88.57 7.57
8/23/2021 6:00:00 AM 21.11 69.998 0.31 7.7 123.51 7.6
8/23/2021 6:15:00 AM 21.15 70.07 0.306 7.7 88.04 7.62
8/23/2021 6:30:00 AM 21.18 70.124 0.304 7.71 209.84 7.63
8/23/2021 6:45:00 AM 21.22 70.196 0.303 7.71 81.68 7.65
8/23/2021 7:00:00 AM 21.23 70.214 0.304 7.71 86.27 7.64
8/23/2021 7:15:00 AM 21.23 70.214 0.304 7.71 90.12 7.65
8/23/2021 7:30:00 AM 21.23 70.214 0.304 7.71 114.39 7.65
8/23/2021 7:45:00 AM 21.24 70.232 0.303 7.71 100.13 7.65
8/23/2021 8:00:00 AM 21.24 70.232 0.301 7.7 1326.15 7.65
8/23/2021 8:15:00 AM 21.24 70.232 0.302 7.7 97.95 7.65
8/23/2021 8:30:00 AM 21.23 70.214 0.301 7.7 85.2 7.65
8/23/2021 8:45:00 AM 21.23 70.214 0.301 7.7 93.32 7.65
8/23/2021 9:00:00 AM 21.22 70.196 0.301 7.7 103.05 7.66
8/23/2021 9:15:00 AM 21.21 70.17799 0.3 7.68 94.75 7.66
8/23/2021 9:30:00 AM 21.21 70.17799 0.298 7.69 107.31 7.66
8/23/2021 9:45:00 AM 21.22 70.196 0.297 7.69 88 7.66
8/23/2021 10:00:00 AM 21.24 70.232 0.294 7.69 86.41 7.66
8/23/2021 10:15:00 AM 21.27 70.286 0.293 7.69 73.73 7.65
8/23/2021 10:30:00 AM 21.29 70.32201 0.292 7.69 59.88 7.65
8/23/2021 10:45:00 AM 21.33 70.394 0.29 7.69 67.19 7.65
8/23/2021 11:00:00 AM 21.39 70.502 0.29 7.69 57.06 7.65
8/23/2021 11:15:00 AM 21.46 70.628 0.29 7.69 66.86 7.65
8/23/2021 11:30:00 AM 21.53 70.754 0.29 7.69 67.43 7.65
8/23/2021 11:45:00 AM 21.6 70.88 0.29 7.69 65.95 7.65
8/23/2021 12:00:00 PM 21.64 70.952 0.291 7.69 56.43 7.65
8/23/2021 12:15:00 PM 21.7 71.06 0.292 7.69 62 7.64
8/23/2021 12:30:00 PM 21.82 71.276 0.294 7.69 47.58 7.63
8/23/2021 12:45:00 PM 21.94 71.492 0.295 7.7 50.45 7.65
8/23/2021 1:00:00 PM 22.07 71.726 0.297 7.7 49.08 7.66
8/23/2021 1:15:00 PM 22.17 71.906 0.3 7.7 59.54 7.64
8/23/2021 1:30:00 PM 22.27 72.086 0.302 7.7 48.04 7.63
8/23/2021 1:45:00 PM 22.36 72.248 0.304 7.71 54 7.62
8/23/2021 2:00:00 PM 22.43 72.374 0.306 7.71 46.67 7.62
8/23/2021 2:15:00 PM 22.53 72.554 0.308 7.71 50.85 7.61
8/23/2021 2:30:00 PM 22.6 72.68 0.31 7.71 41.01 7.6
8/23/2021 2:45:00 PM 22.61 72.698 0.31 7.71 40.92 7.59
8/23/2021 3:00:00 PM 22.6 72.68 0.31 7.71 42.76 7.55
8/23/2021 3:15:00 PM 22.62 72.716 0.309 7.72 41.2 7.56
8/23/2021 3:30:00 PM 22.63 72.734 0.339 7.72 37.28 7.55
8/23/2021 3:45:00 PM 22.65 72.77 0.38 7.72 64.32 7.53
8/23/2021 4:00:00 PM 22.66 72.788 0.331 7.72 39.15 7.49
8/23/2021 4:15:00 PM 22.7 72.86 0.332 7.72 38.18 7.51
8/23/2021 4:30:00 PM 22.74 72.932 0.33 7.72 35.18 7.49
8/23/2021 4:45:00 PM 22.8 73.04 0.336 7.72 40.27 7.49
8/23/2021 5:00:00 PM 22.84 73.112 0.333 7.72 54.41 7.47
8/23/2021 5:15:00 PM 22.86 73.148 0.333 7.72 32.39 7.47
8/23/2021 5:30:00 PM 22.87 73.166 0.336 7.73 35.8 7.46
8/23/2021 5:45:00 PM 22.89 73.202 0.338 7.73 34.73 7.45
8/23/2021 6:00:00 PM 22.91 73.238 0.339 7.73 52.66 7.42
8/23/2021 6:15:00 PM 22.92 73.256 0.341 7.73 42.14 7.33
8/23/2021 6:30:00 PM 22.93 73.274 0.342 7.73 35.57 7.43
8/23/2021 6:45:00 PM 22.93 73.274 0.345 7.73 26.64 7.41
8/23/2021 7:00:00 PM 22.92 73.256 0.345 7.73 43.23 7.32
8/23/2021 7:15:00 PM 22.91 73.238 0.348 7.73 35.51 7.35
8/23/2021 7:30:00 PM 22.89 73.202 0.348 7.73 25.36 7.34
8/23/2021 7:45:00 PM 22.87 73.166 0.35 7.7 59.55 7.32
8/23/2021 8:00:00 PM 22.85 73.13 0.351 7.72 29.67 7.22
8/23/2021 8:15:00 PM 22.83 73.094 0.353 7.72 24.53 7.29
8/23/2021 8:30:00 PM 22.81 73.058 0.354 7.72 22.46 7.25
8/23/2021 8:45:00 PM 22.78 73.004 0.356 7.72 35.09 7.24
8/23/2021 9:00:00 PM 22.75 72.95 0.357 7.72 26.76 7.25
8/23/2021 9:15:00 PM 22.72 72.896 0.357 7.72 35.18 7.24
8/23/2021 9:30:00 PM 22.69 72.842 0.359 7.72 25.83 7.22
8/23/2021 9:45:00 PM 22.65 72.77 0.36 7.72 28.62 7.19
8/23/2021 10:00:00 PM 22.61 72.698 0.36 7.71 60.57 7.2
8/23/2021 10:15:00 PM 22.57 72.626 0.361 7.72 33.88 7.2
8/23/2021 10:30:00 PM 22.53 72.554 0.362 7.72 35.32 7.19
8/23/2021 10:45:00 PM 22.49 72.482 0.364 7.71 29.02 7.23
8/23/2021 11:00:00 PM 22.45 72.41 0.364 7.71 23.31 7.18
8/23/2021 11:15:00 PM 22.41 72.338 0.365 7.71 26.05 7.16
8/23/2021 11:30:00 PM 22.37 72.266 0.366 7.71 23.62 7.09
8/23/2021 11:45:00 PM 22.33 72.194 0.367 7.71 23.32 7.12
8/24/2021 12:00:00 AM 22.29 72.122 0.368 7.71 35.1 7.17
8/24/2021 12:15:00 AM 22.25 72.05 0.369 7.71 33.3 7.17
8/24/2021 12:30:00 AM 22.21 71.978 0.37 7.71 46.44 7.24
8/24/2021 12:45:00 AM 22.18 71.924 0.371 7.71 33.52 7.2
8/24/2021 1:00:00 AM 22.14 71.852 0.372 7.71 21.72 7.12
8/24/2021 1:15:00 AM 22.11 71.798 0.373 7.71 46.11 7.19
8/24/2021 1:30:00 AM 22.07 71.726 0.374 7.71 24.95 7.24
8/24/2021 1:45:00 AM 22.04 71.672 0.376 7.71 24.79 7.19
8/24/2021 2:00:00 AM 22.01 71.618 0.376 7.71 203.31 7.21
8/24/2021 2:15:00 AM 21.97 71.546 0.376 7.71 31.8 7.17
8/24/2021 2:30:00 AM 21.94 71.492 0.378 7.7 33.28 7.2
8/24/2021 2:45:00 AM 21.92 71.456 0.377 7.71 30.98 7.27
8/24/2021 3:00:00 AM 21.91 71.438 0.376 7.72 26.2 7.32
8/24/2021 3:15:00 AM 21.93 71.474 0.374 7.72 40.25 7.35
8/24/2021 3:30:00 AM 21.99 71.582 0.369 7.73 29.04 7.35
8/24/2021 3:45:00 AM 22.04 71.672 0.366 7.74 49.41 7.42
8/24/2021 4:00:00 AM 22.08 71.744 0.363 7.75 42.01 7.42
8/24/2021 4:15:00 AM 22.1 71.78 0.362 7.75 39.39 7.45
8/24/2021 4:30:00 AM 22.11 71.798 0.36 7.75 39.51 7.47
8/24/2021 4:45:00 AM 22.1 71.78 0.361 7.75 39.38 7.47
8/24/2021 5:00:00 AM 22.08 71.744 0.361 7.75 38.7 7.47
8/24/2021 5:15:00 AM 22.04 71.672 0.363 7.75 36.04 7.49
8/24/2021 5:30:00 AM 21.98 71.564 0.364 7.75 32.92 7.49
8/24/2021 5:45:00 AM 21.92 71.456 0.365 7.75 35.13 7.51
8/24/2021 6:00:00 AM 21.86 71.348 0.368 7.75 35.8 7.52
8/24/2021 6:15:00 AM 21.8 71.24 0.368 7.75 36.62 7.5
8/24/2021 6:30:00 AM 21.73 71.114 0.369 7.75 34.41 7.52
8/24/2021 6:45:00 AM 21.68 71.024 0.369 7.75 34.71 7.53
8/24/2021 7:00:00 AM 21.62 70.916 0.369 7.75 27.72 7.54
8/24/2021 7:15:00 AM 21.56 70.808 0.369 7.74 121.47 7.54
8/24/2021 7:30:00 AM 21.52 70.736 0.368 7.74 38.93 7.56
8/24/2021 7:45:00 AM 21.47 70.646 0.368 7.74 33.84 7.56
8/24/2021 8:00:00 AM 21.44 70.592 0.366 7.74 36.94 7.55
8/24/2021 8:15:00 AM 21.41 70.538 0.366 7.73 32.96 7.56
8/24/2021 8:30:00 AM 21.39 70.502 0.366 7.73 32.28 7.56
8/24/2021 8:45:00 AM 21.37 70.466 0.365 7.74 34.46 7.55
8/24/2021 9:00:00 AM 21.36 70.448 0.365 7.74 33.09 7.55
8/24/2021 9:15:00 AM 21.34 70.412 0.365 7.74 36.82 7.54
8/24/2021 9:30:00 AM 21.33 70.394 0.366 7.74 37.83 7.58
8/24/2021 9:45:00 AM 21.33 70.394 0.365 7.74 40.94 7.61
8/24/2021 10:00:00 AM 21.33 70.394 0.366 7.74 42.46 7.64
8/24/2021 10:15:00 AM 21.34 70.412 0.366 7.74 43.6 7.62
8/24/2021 10:30:00 AM 21.35 70.43 0.366 7.74 33.47 7.64
8/24/2021 10:45:00 AM 21.39 70.502 0.367 7.74 39.39 7.65
8/24/2021 11:00:00 AM 21.44 70.592 0.367 7.75 34.29 7.7
8/24/2021 11:15:00 AM 21.49 70.682 0.368 7.75 35.01 7.74
8/24/2021 11:30:00 AM 21.56 70.808 0.369 7.75 30.01 7.77
8/24/2021 11:45:00 AM 21.65 70.97 0.368 7.75 29.17 7.73
8/24/2021 12:00:00 PM 21.74 71.132 0.37 7.76 79.98 7.77
8/24/2021 12:15:00 PM 21.85 71.33 0.37 7.76 27.33 7.84
8/24/2021 12:30:00 PM 21.94 71.492 0.371 7.76 26.69 7.82
8/24/2021 12:45:00 PM 22.07 71.726 0.371 7.77 28.06 7.84
8/24/2021 1:00:00 PM 22.21 71.978 0.37 7.77 64.98 7.85
8/24/2021 1:15:00 PM 22.34 72.212 0.371 7.77 109.18 7.91
8/24/2021 1:30:00 PM 22.45 72.41 0.371 7.77 126.73 7.89
8/24/2021 1:45:00 PM 22.57 72.626 0.371 7.78 33.63 7.91
8/24/2021 2:00:00 PM 22.68 72.824 0.371 7.78 35.15 7.87
8/24/2021 2:15:00 PM 22.79 73.022 0.371 7.78 33.91 7.88
8/24/2021 2:30:00 PM 22.88 73.184 0.371 7.78 58.42 7.88
8/24/2021 2:45:00 PM 22.93 73.274 0.37 7.78 37.23 7.9
8/24/2021 3:00:00 PM 22.97 73.346 0.371 7.78 92.25 7.9
8/24/2021 3:15:00 PM 22.99 73.382 0.371 7.78 43.63 7.88
8/24/2021 3:30:00 PM 23 73.4 0.372 7.78 57.14 7.82
8/24/2021 3:45:00 PM 22.99 73.382 0.372 7.78 47.98 7.82
8/24/2021 4:00:00 PM 22.97 73.346 0.372 7.78 42.64 7.82
8/24/2021 4:15:00 PM 22.94 73.292 0.372 7.78 29.02 7.79
8/24/2021 4:30:00 PM 22.91 73.238 0.373 7.78 31.85 7.7
8/24/2021 4:45:00 PM 22.88 73.184 0.374 7.77 103.52 7.57
8/24/2021 5:00:00 PM 22.85 73.13 0.276 7.77 33.62 7.65
8/24/2021 5:15:00 PM 22.83 73.094 0.373 7.77 25.74 7.66
8/24/2021 5:30:00 PM 22.81 73.058 0.374 7.77 27.03 7.61
8/24/2021 5:45:00 PM 22.79 73.022 0.375 7.77 24.01 7.56
8/24/2021 6:00:00 PM 22.77 72.986 0.375 7.76 26.6 7.54
8/24/2021 6:15:00 PM 22.75 72.95 0.375 7.76 23.61 7.52
8/24/2021 6:30:00 PM 22.73 72.914 0.376 7.76 24.78 7.49
8/24/2021 6:45:00 PM 22.7 72.86 0.376 7.76 26.12 7.49
8/24/2021 7:00:00 PM 22.68 72.824 0.376 7.75 25.14 7.49
8/24/2021 7:15:00 PM 22.65 72.77 0.377 7.75 23.78 7.47
8/24/2021 7:30:00 PM 22.63 72.734 0.378 7.75 28.36 7.46
8/24/2021 7:45:00 PM 22.6 72.68 0.377 7.75 26.65 7.45
8/24/2021 8:00:00 PM 22.56 72.608 0.378 7.75 24.14 7.42
8/24/2021 8:15:00 PM 22.53 72.554 0.378 7.74 43.41 7.45
8/24/2021 8:30:00 PM 22.49 72.482 0.379 7.74 48.65 7.41
8/24/2021 8:45:00 PM 22.46 72.42799 0.379 7.74 32.99 7.35
8/24/2021 9:00:00 PM 22.42 72.356 0.379 7.74 29.06 7.38
8/24/2021 9:15:00 PM 22.39 72.302 0.38 7.74 25.79 7.38
8/24/2021 9:30:00 PM 22.35 72.23 0.38 7.74 23.48 7.41
8/24/2021 9:45:00 PM 22.31 72.158 0.381 7.74 27.9 7.39
8/24/2021 10:00:00 PM 22.27 72.086 0.382 7.74 24.32 7.39
8/24/2021 10:15:00 PM 22.23 72.014 0.382 7.74 31.85 7.31
8/24/2021 10:30:00 PM 22.18 71.924 0.383 7.74 25.09 7.4
8/24/2021 10:45:00 PM 22.14 71.852 0.384 7.73 25.36 7.35
8/24/2021 11:00:00 PM 22.09 71.762 0.384 7.73 28.41 7.35
8/24/2021 11:15:00 PM 22.05 71.69 0.385 7.73 24.11 7.29
8/24/2021 11:30:00 PM 22 71.6 0.385 7.73 22.78 7.36
8/24/2021 11:45:00 PM 21.95 71.51 0.386 7.73 21.93 7.37
8/25/2021 12:00:00 AM 21.91 71.438 0.386 7.73 22.95 7.29
8/25/2021 12:15:00 AM 21.86 71.348 0.387 7.73 21.24 7.39
8/25/2021 12:30:00 AM 21.82 71.276 0.388 7.73 20.64 7.38
8/25/2021 12:45:00 AM 21.77 71.186 0.388 7.73 21.1 7.34
8/25/2021 1:00:00 AM 21.73 71.114 0.389 7.73 22.62 7.37
8/25/2021 1:15:00 AM 21.68 71.024 0.39 7.73 32.35 7.37
8/25/2021 1:30:00 AM 21.64 70.952 0.39 7.73 34 7.39
8/25/2021 1:45:00 AM 21.59 70.862 0.391 7.73 19.99 7.42
8/25/2021 2:00:00 AM 21.55 70.79 0.392 7.73 23.86 7.45
8/25/2021 2:15:00 AM 21.5 70.7 0.392 7.73 19.25 7.44
8/25/2021 2:30:00 AM 21.46 70.628 0.393 7.73 17.69 7.44
8/25/2021 2:45:00 AM 21.41 70.538 0.393 7.73 20.77 7.45
8/25/2021 3:00:00 AM 21.36 70.448 0.394 7.73 18.14 7.41
8/25/2021 3:15:00 AM 21.32 70.376 0.394 7.73 27.32 7.49
8/25/2021 3:30:00 AM 21.28 70.304 0.395 7.73 15.44 7.49
8/25/2021 3:45:00 AM 21.24 70.232 0.396 7.73 24.62 7.48
8/25/2021 4:00:00 AM 21.2 70.16 0.396 7.73 85.91 7.5
8/25/2021 4:15:00 AM 21.16 70.088 0.397 7.73 82.9 7.48
8/25/2021 4:30:00 AM 21.11 69.998 0.398 7.73 22.58 7.49
8/25/2021 4:45:00 AM 21.07 69.926 0.398 7.73 18.6 7.5
8/25/2021 5:00:00 AM 21.03 69.854 0.398 7.73 23.21 7.54
8/25/2021 5:15:00 AM 20.98 69.764 0.399 7.73 24.24 7.53
8/25/2021 5:30:00 AM 20.94 69.692 0.399 7.73 17.31 7.47
8/25/2021 5:45:00 AM 20.9 69.62 0.4 7.73 17.97 7.5
8/25/2021 6:00:00 AM 20.85 69.53 0.401 7.73 18.98 7.56
8/25/2021 6:15:00 AM 20.81 69.458 0.401 7.74 19.61 7.53
8/25/2021 6:30:00 AM 20.77 69.386 0.401 7.74 19.27 7.5
8/25/2021 6:45:00 AM 20.73 69.314 0.401 7.74 18.2 7.55
8/25/2021 7:00:00 AM 20.69 69.242 0.402 7.74 16.98 7.54
8/25/2021 7:15:00 AM 20.65 69.17 0.402 7.74 130.76 7.6
8/25/2021 7:30:00 AM 20.62 69.116 0.403 7.74 132.95 7.63
8/25/2021 7:45:00 AM 20.6 69.08 0.403 7.74 19.25 7.62
8/25/2021 8:00:00 AM 20.59 69.062 0.404 7.74 20.88 7.64
8/25/2021 8:15:00 AM 20.58 69.044 0.404 7.74 20.6 7.56
8/25/2021 8:30:00 AM 20.58 69.044 0.405 7.75 22.08 7.66
8/25/2021 8:45:00 AM 20.59 69.062 0.405 7.75 20.16 7.67
8/25/2021 9:00:00 AM 20.6 69.08 0.406 7.75 18.72 7.69
8/25/2021 9:15:00 AM 20.61 69.098 0.406 7.75 17.86 7.72
8/25/2021 9:30:00 AM 20.63 69.134 0.407 7.75 17.78 7.73
8/25/2021 9:45:00 AM 20.66 69.188 0.407 7.76 17.03 7.7
8/25/2021 10:00:00 AM 20.69 69.242 0.407 7.76 17.83 7.81
8/25/2021 10:15:00 AM 20.72 69.296 0.407 7.76 22.48 7.83
8/25/2021 10:30:00 AM 20.77 69.386 0.408 7.77 17.93 7.83
8/25/2021 10:45:00 AM 20.83 69.494 0.409 7.77 64.25 7.81
8/25/2021 11:00:00 AM 20.92 69.656 0.409 7.77 17.44 7.88
8/25/2021 11:15:00 AM 21.01 69.818 0.409 7.78 23.98 7.92
8/25/2021 11:30:00 AM 21.12 70.016 0.41 7.79 18.11 7.96
8/25/2021 11:45:00 AM 21.24 70.232 0.41 7.79 18.9 7.99
8/25/2021 12:00:00 PM 21.36 70.448 0.411 7.8 17.9 8.06
8/25/2021 12:15:00 PM 21.51 70.718 0.411 7.8 17.58 8.05
8/25/2021 12:30:00 PM 21.67 71.006 0.411 7.81 16.65 8.05
8/25/2021 12:45:00 PM 21.83 71.294 0.412 7.82 17.78 8.12
8/25/2021 1:00:00 PM 21.99 71.582 0.412 7.82 34.08 8.15
8/25/2021 1:15:00 PM 22.15 71.87 0.412 7.83 17.16 8.17
8/25/2021 1:30:00 PM 22.3 72.14 0.412 7.83 15.85 8.18
8/25/2021 1:45:00 PM 22.48 72.464 0.413 7.84 17.04 8.17
8/25/2021 2:00:00 PM 22.62 72.716 0.414 7.84 18.42 8.16
8/25/2021 2:15:00 PM 22.72 72.896 0.414 7.85 17.31 8.22
8/25/2021 2:30:00 PM 22.82 73.076 0.414 7.85 16.84 8.2
8/25/2021 2:45:00 PM 22.93 73.274 0.414 7.85 17.98 8.23
8/25/2021 3:00:00 PM 23.02 73.436 0.415 7.86 16.33 8.16
8/25/2021 3:15:00 PM 23.09 73.562 0.415 7.86 17.87 8.19
8/25/2021 3:30:00 PM 23.14 73.652 0.415 7.86 37.58 8.11
8/25/2021 3:45:00 PM 23.16 73.688 0.416 7.86 15.81 8.12
8/25/2021 4:00:00 PM 23.15 73.67 0.416 7.86 17.09 8.11
8/25/2021 4:15:00 PM 23.12 73.616 0.415 7.86 28.9 8.03
8/25/2021 4:30:00 PM 23.08 73.544 0.416 7.86 16.8 8.07
8/25/2021 4:45:00 PM 23.05 73.49 0.416 7.86 16.27 7.97
8/25/2021 5:00:00 PM 23.01 73.418 0.416 7.85 24.48 7.91
8/25/2021 5:15:00 PM 22.96 73.328 0.417 7.85 62.95 7.92
8/25/2021 5:30:00 PM 22.92 73.256 0.417 7.84 29.98 7.92
8/25/2021 5:45:00 PM 22.89 73.202 0.417 7.84 15 7.91
8/25/2021 6:00:00 PM 22.86 73.148 0.418 7.84 16.64 7.81
8/25/2021 6:15:00 PM 22.83 73.094 0.418 7.83 66.56 7.81
8/25/2021 6:30:00 PM 22.8 73.04 0.296 7.83 20.67 7.79
8/25/2021 6:45:00 PM 22.77 72.986 0.418 7.83 13.46 7.77
8/25/2021 7:00:00 PM 22.74 72.932 0.419 7.82 17.69 7.64
8/25/2021 7:15:00 PM 22.71 72.878 0.419 7.82 50.14 7.65
8/25/2021 7:30:00 PM 22.68 72.824 0.419 7.82 13.38 7.66
8/25/2021 7:45:00 PM 22.65 72.77 0.419 7.82 13.53 7.61
8/25/2021 8:00:00 PM 22.61 72.698 0.419 7.82 12.08 7.6
8/25/2021 8:15:00 PM 22.56 72.608 0.419 7.81 13.16 7.57
8/25/2021 8:30:00 PM 22.51 72.518 0.42 7.81 13.15 7.42
8/25/2021 8:45:00 PM 22.47 72.446 0.419 7.81 14.07 7.56
8/25/2021 9:00:00 PM 22.42 72.356 0.42 7.81 14.85 7.46
8/25/2021 9:15:00 PM 22.38 72.284 0.42 7.81 14.17 7.52
8/25/2021 9:30:00 PM 22.34 72.212 0.42 7.8 16.08 7.52
8/25/2021 9:45:00 PM 22.3 72.14 0.42 7.8 16.28 7.5
8/25/2021 10:00:00 PM 22.26 72.068 0.421 7.8 19.98 7.52
8/25/2021 10:15:00 PM 22.22 71.996 0.421 7.8 31.8 7.49
8/25/2021 10:30:00 PM 22.18 71.924 0.421 7.8 14.24 7.52
8/25/2021 10:45:00 PM 22.14 71.852 0.422 7.79 15.86 7.42
8/25/2021 11:00:00 PM 22.11 71.798 0.422 7.79 14.9 7.48
8/25/2021 11:15:00 PM 22.07 71.726 0.422 7.79 14.03 7.5
8/25/2021 11:30:00 PM 22.04 71.672 0.422 7.79 14.74 7.43
8/25/2021 11:45:00 PM 22 71.6 0.423 7.79 15.69 7.41
8/26/2021 12:00:00 AM 21.97 71.546 0.423 7.78 15.26 7.5
8/26/2021 12:15:00 AM 21.94 71.492 0.423 7.78 14.98 7.46
8/26/2021 12:30:00 AM 21.91 71.438 0.423 7.78 14.84 7.43
8/26/2021 12:45:00 AM 21.87 71.366 0.424 7.78 14.88 7.45
8/26/2021 1:00:00 AM 21.84 71.312 0.424 7.78 16.45 7.35
8/26/2021 1:15:00 AM 21.81 71.258 0.424 7.78 15.95 7.37
8/26/2021 1:30:00 AM 21.79 71.222 0.424 7.78 14.38 7.5
8/26/2021 1:45:00 AM 21.76 71.168 0.425 7.78 15.3 7.48
8/26/2021 2:00:00 AM 21.73 71.114 0.425 7.78 14.72 7.48
8/26/2021 2:15:00 AM 21.7 71.06 0.425 7.78 15.04 7.4
8/26/2021 2:30:00 AM 21.67 71.006 0.425 7.78 16 7.23
8/26/2021 2:45:00 AM 21.63 70.934 0.426 7.78 15.25 7.35
8/26/2021 3:00:00 AM 21.6 70.88 0.425 7.78 13.97 7.46
8/26/2021 3:15:00 AM 21.57 70.826 0.426 7.78 14.08 7.5
8/26/2021 3:30:00 AM 21.54 70.772 0.426 7.78 15.11 7.46
8/26/2021 3:45:00 AM 21.5 70.7 0.426 7.78 16.08 7.39
8/26/2021 4:00:00 AM 21.46 70.628 0.426 7.78 14.27 7.48
8/26/2021 4:15:00 AM 21.43 70.574 0.427 7.78 13.38 7.49
8/26/2021 4:30:00 AM 21.39 70.502 0.427 7.78 50.25 7.46
8/26/2021 4:45:00 AM 21.36 70.448 0.427 7.78 15.81 7.49
8/26/2021 5:00:00 AM 21.32 70.376 0.427 7.78 14.63 7.54
8/26/2021 5:15:00 AM 21.28 70.304 0.427 7.78 14.52 7.41
8/26/2021 5:30:00 AM 21.25 70.25 0.427 7.78 15.21 7.43
8/26/2021 5:45:00 AM 21.21 70.17799 0.427 7.78 15.68 7.44
8/26/2021 6:00:00 AM 21.17 70.106 0.427 7.78 14.62 7.55
8/26/2021 6:15:00 AM 21.13 70.034 0.427 7.77 14.89 7.56
8/26/2021 6:30:00 AM 21.1 69.98 0.427 7.78 16.72 7.59
8/26/2021 6:45:00 AM 21.07 69.926 0.427 7.78 15.68 7.56
8/26/2021 7:00:00 AM 21.04 69.872 0.428 7.78 16.56 7.55
8/26/2021 7:15:00 AM 21.01 69.818 0.428 7.78 15.95 7.56
8/26/2021 7:30:00 AM 20.99 69.782 0.428 7.78 15.59 7.56
8/26/2021 7:45:00 AM 20.97 69.746 0.427 7.78 15.45 7.55
8/26/2021 8:00:00 AM 20.96 69.728 0.428 7.78 13.94 7.56
8/26/2021 8:15:00 AM 20.95 69.71 0.428 7.78 46.03 7.65
8/26/2021 8:30:00 AM 20.95 69.71 0.428 7.78 13.93 7.69
8/26/2021 8:45:00 AM 20.96 69.728 0.428 7.78 13.56 7.6
8/26/2021 9:00:00 AM 20.97 69.746 0.428 7.79 13.12 7.66
8/26/2021 9:15:00 AM 20.99 69.782 0.428 7.79 12.58 7.71
8/26/2021 9:30:00 AM 21.02 69.836 0.428 7.8 12.85 7.76
8/26/2021 9:45:00 AM 21.05 69.89 0.428 7.8 13.54 7.78
8/26/2021 10:00:00 AM 21.08 69.944 0.428 7.81 22.44 7.75
8/26/2021 10:15:00 AM 21.12 70.016 0.428 7.81 17.44 7.86
8/26/2021 10:30:00 AM 21.16 70.088 0.429 7.81 13.49 7.76
8/26/2021 10:45:00 AM 21.22 70.196 0.429 7.82 13.05 7.96
8/26/2021 11:00:00 AM 21.3 70.34 0.428 7.82 17.17 7.97
8/26/2021 11:15:00 AM 21.39 70.502 0.429 7.83 13.23 8.01
8/26/2021 11:30:00 AM 21.49 70.682 0.429 7.84 13.51 7.96
8/26/2021 11:45:00 AM 21.6 70.88 0.429 7.84 13.06 8
8/26/2021 12:00:00 PM 21.73 71.114 0.429 7.85 12.73 8.04
8/26/2021 12:15:00 PM 21.87 71.366 0.429 7.86 12.88 8.13
8/26/2021 12:30:00 PM 22.02 71.636 0.429 7.86 13.47 8.07
8/26/2021 12:45:00 PM 22.19 71.942 0.43 7.87 13.84 8.21
8/26/2021 1:00:00 PM 22.35 72.23 0.429 7.87 13.04 8.28
8/26/2021 1:15:00 PM 22.51 72.518 0.43 7.88 22.1 8.33
8/26/2021 1:30:00 PM 22.68 72.824 0.43 7.89 12.64 8.35
8/26/2021 1:45:00 PM 22.86 73.148 0.43 7.89 13.21 8.26
8/26/2021 2:00:00 PM 23.01 73.418 0.429 7.9 13.1 8.32
8/26/2021 2:15:00 PM 23.15 73.67 0.43 7.9 13.72 8.28
8/26/2021 2:30:00 PM 23.28 73.904 0.43 7.9 13.16 8.29
8/26/2021 2:45:00 PM 23.38 74.084 0.43 7.9 12.34 8.36
8/26/2021 3:00:00 PM 23.47 74.246 0.43 7.91 12.54 8.33
8/26/2021 3:15:00 PM 23.53 74.354 0.43 7.91 12.49 8.33
8/26/2021 3:30:00 PM 23.56 74.408 0.43 7.91 18.09 8.33
8/26/2021 3:45:00 PM 23.57 74.426 0.43 7.91 12.93 8.28
8/26/2021 4:00:00 PM 23.57 74.426 0.431 7.91 17.38 8.22
8/26/2021 4:15:00 PM 23.54 74.372 0.431 7.9 15.45 8.16
8/26/2021 4:30:00 PM 23.48 74.264 0.43 7.9 226.06 8.15
8/26/2021 4:45:00 PM 23.44 74.192 0.431 7.9 31.93 8.09
8/26/2021 5:00:00 PM 23.39 74.102 0.431 7.89 29.56 7.99
8/26/2021 5:15:00 PM 23.33 73.994 0.431 7.89 16.05 7.96
8/26/2021 5:30:00 PM 23.31 73.958 0.431 7.89 14.16 7.97
8/26/2021 5:45:00 PM 23.28 73.904 0.431 7.88 14.47 7.84
8/26/2021 6:00:00 PM 23.25 73.85 0.431 7.88 13.2 7.86
8/26/2021 6:15:00 PM 23.22 73.796 0.431 7.87 13.59 7.83
8/26/2021 6:30:00 PM 23.19 73.742 0.431 7.87 12.94 7.76
8/26/2021 6:45:00 PM 23.16 73.688 0.432 7.87 12.49 7.71
8/26/2021 7:00:00 PM 23.13 73.634 0.432 7.86 12.62 7.72
8/26/2021 7:15:00 PM 23.11 73.598 0.432 7.86 16.28 7.72
8/26/2021 7:30:00 PM 23.08 73.544 0.432 7.85 13.36 7.68
8/26/2021 7:45:00 PM 23.06 73.508 0.433 7.84 13.01 7.53
8/26/2021 8:00:00 PM 23.03 73.454 0.433 7.84 12.68 7.58
8/26/2021 8:15:00 PM 22.99 73.382 0.433 7.84 12.91 7.54
8/26/2021 8:30:00 PM 22.96 73.328 0.433 7.83 15.26 7.55
8/26/2021 8:45:00 PM 22.92 73.256 0.433 7.83 15.28 7.53
8/26/2021 9:00:00 PM 22.88 73.184 0.434 7.83 13.2 7.49
8/26/2021 9:15:00 PM 22.84 73.112 0.434 7.82 23.82 7.49
8/26/2021 9:30:00 PM 22.8 73.04 0.434 7.82 32.7 7.49
8/26/2021 9:45:00 PM 22.75 72.95 0.434 7.82 16.1 7.49
8/26/2021 10:00:00 PM 22.7 72.86 0.434 7.81 15.37 7.42
8/26/2021 10:15:00 PM 22.65 72.77 0.435 7.81 13.06 7.38
8/26/2021 10:30:00 PM 22.6 72.68 0.435 7.81 22.95 7.36
8/26/2021 10:45:00 PM 22.55 72.59 0.435 7.81 14.76 7.37
8/26/2021 11:00:00 PM 22.49 72.482 0.435 7.81 16.45 7.43
8/26/2021 11:15:00 PM 22.45 72.41 0.435 7.8 13.16 7.45
8/26/2021 11:30:00 PM 22.4 72.32 0.436 7.8 40.35 7.38
8/26/2021 11:45:00 PM 22.36 72.248 0.436 7.8 12.56 7.42
8/27/2021 12:00:00 AM 22.32 72.176 0.436 7.8 12.15 7.36
8/27/2021 12:15:00 AM 22.28 72.104 0.436 7.8 13.11 7.32
8/27/2021 12:30:00 AM 22.24 72.032 0.436 7.79 13.41 7.34
8/27/2021 12:45:00 AM 22.21 71.978 0.436 7.79 12.77 7.38
8/27/2021 1:00:00 AM 22.17 71.906 0.436 7.79 13.18 7.2
8/27/2021 1:15:00 AM 22.14 71.852 0.437 7.79 21.1 7.29
8/27/2021 1:30:00 AM 22.11 71.798 0.437 7.79 22.68 7.36
8/27/2021 1:45:00 AM 22.08 71.744 0.437 7.79 13.12 7.42
8/27/2021 2:00:00 AM 22.05 71.69 0.437 7.79 13.13 7.33
8/27/2021 2:15:00 AM 22.02 71.636 0.437 7.79 17.35 7.32
8/27/2021 2:30:00 AM 21.99 71.582 0.437 7.78 15.95 7.39
8/27/2021 2:45:00 AM 21.96 71.528 0.438 7.78 15.55 7.35
8/27/2021 3:00:00 AM 21.93 71.474 0.437 7.78 13.27 7.36
8/27/2021 3:15:00 AM 21.9 71.42 0.438 7.78 64.16 7.42
8/27/2021 3:30:00 AM 21.87 71.366 0.438 7.78 14.38 7.42
8/27/2021 3:45:00 AM 21.83 71.294 0.438 7.78 14.75 7.31
8/27/2021 4:00:00 AM 21.8 71.24 0.438 7.78 19.11 7.38
8/27/2021 4:15:00 AM 21.77 71.186 0.438 7.78 13.38 7.37
8/27/2021 4:30:00 AM 21.73 71.114 0.438 7.78 265.19 7.41
8/27/2021 4:45:00 AM 21.7 71.06 0.438 7.76 29.47 7.32
8/27/2021 5:00:00 AM 21.66 70.988 0.438 7.78 12.94 7.48
8/27/2021 5:15:00 AM 21.63 70.934 0.438 7.78 12.6 7.44
8/27/2021 5:30:00 AM 21.6 70.88 0.438 7.78 12.94 7.42
8/27/2021 5:45:00 AM 21.57 70.826 0.438 7.77 39.07 7.45
8/27/2021 6:00:00 AM 21.53 70.754 0.437 7.77 17.36 7.38
8/27/2021 6:15:00 AM 21.5 70.7 0.438 7.77 18.09 7.4
8/27/2021 6:30:00 AM 21.46 70.628 0.437 7.77 15.15 7.48
8/27/2021 6:45:00 AM 21.43 70.574 0.438 7.77 13.73 7.46
8/27/2021 7:00:00 AM 21.4 70.52 0.438 7.77 12.34 7.51
8/27/2021 7:15:00 AM 21.38 70.484 0.438 7.77 13.19 7.51
8/27/2021 7:30:00 AM 21.37 70.466 0.438 7.77 11.78 7.53
8/27/2021 7:45:00 AM 21.35 70.43 0.438 7.77 12.81 7.44
8/27/2021 8:00:00 AM 21.35 70.43 0.437 7.78 12.03 7.38
8/27/2021 8:15:00 AM 21.34 70.412 0.438 7.78 30.57 7.51
8/27/2021 8:30:00 AM 21.34 70.412 0.438 7.78 12.21 7.53
8/27/2021 8:45:00 AM 21.37 70.466 0.437 7.79 12.38 7.53
8/27/2021 9:00:00 AM 21.38 70.484 0.438 7.79 11.91 7.71
8/27/2021 9:15:00 AM 21.41 70.538 0.437 7.79 11.83 7.66
8/27/2021 9:30:00 AM 21.43 70.574 0.438 7.79 11.73 7.67
8/27/2021 9:45:00 AM 21.45 70.61 0.438 7.8 11.32 7.81
8/27/2021 10:00:00 AM 21.46 70.628 0.438 7.81 11.15 7.8
8/27/2021 10:15:00 AM 21.47 70.646 0.438 7.81 11.08 7.78
8/27/2021 10:30:00 AM 21.49 70.682 0.438 7.81 11.26 7.83
8/27/2021 10:45:00 AM 21.52 70.736 0.437 7.81 12.15 7.91
8/27/2021 11:00:00 AM 21.56 70.808 0.437 7.82 11.03 7.96
8/27/2021 11:15:00 AM 21.61 70.898 0.437 7.83 10.81 7.94
8/27/2021 11:30:00 AM 21.66 70.988 0.437 7.83 23.29 8.13
8/27/2021 11:45:00 AM 21.73 71.114 0.437 7.84 11.07 8.06
8/27/2021 12:00:00 PM 21.8 71.24 0.437 7.85 11.5 8.06
8/27/2021 12:15:00 PM 21.89 71.402 0.437 7.86 36.83 8.31
8/27/2021 12:30:00 PM 21.98 71.564 0.438 7.87 12.4 8.24
8/27/2021 12:45:00 PM 22.09 71.762 0.437 7.88 10.45 8.33
8/27/2021 1:00:00 PM 22.26 72.068 0.438 7.89 10.84 8.45
8/27/2021 1:15:00 PM 22.42 72.356 0.437 7.9 32.39 8.47
8/27/2021 1:30:00 PM 22.59 72.662 0.438 7.91 10.99 8.49
8/27/2021 1:45:00 PM 22.77 72.986 0.438 7.91 10.58 8.54
8/27/2021 2:00:00 PM 22.92 73.256 0.438 7.92 10.61 8.56
8/27/2021 2:15:00 PM 23.06 73.508 0.437 7.92 11.39 8.53
8/27/2021 2:30:00 PM 23.11 73.598 0.437 7.93 11.72 8.37
8/27/2021 2:45:00 PM 23.08 73.544 0.437 7.92 10.28 8.38
8/27/2021 3:00:00 PM 23.06 73.508 0.438 7.92 11.14 8.26
8/27/2021 3:15:00 PM 23.04 73.472 0.437 7.92 11.48 8.43
8/27/2021 3:30:00 PM 23.1 73.58 0.437 7.92 10.56 8.29
8/27/2021 3:45:00 PM 23.04 73.472 0.437 7.92 10.2 8.22
8/27/2021 4:00:00 PM 23.03 73.454 0.438 7.92 10.67 8.22
8/27/2021 4:15:00 PM 22.97 73.346 0.437 7.91 10.69 8.23
8/27/2021 4:30:00 PM 22.99 73.382 0.438 7.91 10.86 8.19
8/27/2021 4:45:00 PM 22.94 73.292 0.438 7.91 10.82 8.09
8/27/2021 5:00:00 PM 22.91 73.238 0.438 7.91 11.3 7.91
8/27/2021 5:15:00 PM 22.89 73.202 0.438 7.9 146.99 8.08
8/27/2021 5:30:00 PM 22.89 73.202 0.437 7.9 121.7 8.07
8/27/2021 5:45:00 PM 22.87 73.166 0.438 7.9 11.17 7.95
8/27/2021 6:00:00 PM 22.85 73.13 0.437 7.9 10.56 8.02
8/27/2021 6:15:00 PM 22.82 73.076 0.438 7.9 9.74 7.83
8/27/2021 6:30:00 PM 22.78 73.004 0.438 7.9 9.1 7.8
8/27/2021 6:45:00 PM 22.76 72.968 0.438 7.9 9.61 7.83
8/27/2021 7:00:00 PM 22.74 72.932 0.438 7.89 9.8 7.64
8/27/2021 7:15:00 PM 22.72 72.896 0.438 7.89 9.45 7.78
8/27/2021 7:30:00 PM 22.69 72.842 0.438 7.88 9.27 7.66
8/27/2021 7:45:00 PM 22.67 72.806 0.438 7.88 9.38 7.67
8/27/2021 8:00:00 PM 22.65 72.77 0.439 7.88 9.4 7.66
8/27/2021 8:15:00 PM 22.62 72.716 0.439 7.88 10.02 7.67
8/27/2021 8:30:00 PM 22.59 72.662 0.439 7.87 9.57 7.61
8/27/2021 8:45:00 PM 22.56 72.608 0.439 7.87 10.44 7.6
8/27/2021 9:00:00 PM 22.53 72.554 0.438 7.87 10.45 7.61
8/27/2021 9:15:00 PM 22.48 72.464 0.438 7.86 11.26 7.51
8/27/2021 9:30:00 PM 22.44 72.392 0.437 7.86 10.84 7.54
8/27/2021 9:45:00 PM 22.39 72.302 0.437 7.85 10.72 7.51
8/27/2021 10:00:00 PM 22.35 72.23 0.437 7.85 10.69 7.49
8/27/2021 10:15:00 PM 22.3 72.14 0.437 7.84 10.99 7.26
8/27/2021 10:30:00 PM 22.25 72.05 0.437 7.84 10.86 7.42
8/27/2021 10:45:00 PM 22.21 71.978 0.438 7.84 10.55 7.25
8/27/2021 11:00:00 PM 22.16 71.888 0.438 7.84 10.46 7.47
8/27/2021 11:15:00 PM 22.12 71.816 0.438 7.83 10.16 7.4
8/27/2021 11:30:00 PM 22.08 71.744 0.438 7.83 10.5 7.43
8/27/2021 11:45:00 PM 22.04 71.672 0.439 7.83 10.52 7.46
8/28/2021 12:00:00 AM 22.01 71.618 0.438 7.83 10.68 7.37
8/28/2021 12:15:00 AM 21.98 71.564 0.439 7.83 10.83 7.39
8/28/2021 12:30:00 AM 21.95 71.51 0.438 7.82 12.13 7.47
8/28/2021 12:45:00 AM 21.92 71.456 0.438 7.82 11.38 7.42
8/28/2021 1:00:00 AM 21.89 71.402 0.438 7.82 10.63 7.43
8/28/2021 1:15:00 AM 21.87 71.366 0.438 7.82 11.37 7.3
8/28/2021 1:30:00 AM 21.84 71.312 0.438 7.82 11 7.45
8/28/2021 1:45:00 AM 21.82 71.276 0.437 7.81 12.13 7.41
8/28/2021 2:00:00 AM 21.8 71.24 0.438 7.82 11.28 7.43
8/28/2021 2:15:00 AM 21.78 71.204 0.438 7.81 11.26 7.42
8/28/2021 2:30:00 AM 21.76 71.168 0.438 7.81 11.03 7.38
8/28/2021 2:45:00 AM 21.75 71.15 0.438 7.81 12.76 7.45
8/28/2021 3:00:00 AM 21.73 71.114 0.439 7.81 13.12 7.46
8/28/2021 3:15:00 AM 21.71 71.078 0.439 7.81 12.35 7.36
8/28/2021 3:30:00 AM 21.69 71.042 0.439 7.81 11.44 7.37
8/28/2021 3:45:00 AM 21.66 70.988 0.439 7.81 12.91 7.44
8/28/2021 4:00:00 AM 21.64 70.952 0.439 7.81 13.36 7.37
8/28/2021 4:15:00 AM 21.61 70.898 0.439 7.81 12.1 7.47
8/28/2021 4:30:00 AM 21.59 70.862 0.439 7.81 12.84 7.38
8/28/2021 4:45:00 AM 21.56 70.808 0.439 7.81 14.21 7.43
8/28/2021 5:00:00 AM 21.54 70.772 0.439 7.81 12.34 7.48
8/28/2021 5:15:00 AM 21.51 70.718 0.439 7.81 12.22 7.48
8/28/2021 5:30:00 AM 21.48 70.664 0.439 7.81 12.82 7.45
8/28/2021 5:45:00 AM 21.46 70.628 0.439 7.81 11.55 7.44
8/28/2021 6:00:00 AM 21.43 70.574 0.439 7.81 22.2 7.49
8/28/2021 6:15:00 AM 21.4 70.52 0.439 7.81 13.82 7.5
8/28/2021 6:30:00 AM 21.37 70.466 0.439 7.8 15.84 7.47
8/28/2021 6:45:00 AM 21.35 70.43 0.439 7.8 14.63 7.48
8/28/2021 7:00:00 AM 21.32 70.376 0.439 7.8 21.09 7.47
8/28/2021 7:15:00 AM 21.3 70.34 0.439 7.8 14.36 7.43
8/28/2021 7:30:00 AM 21.28 70.304 0.439 7.8 13.14 7.56
8/28/2021 7:45:00 AM 21.26 70.268 0.439 7.8 24.47 7.51
8/28/2021 8:00:00 AM 21.25 70.25 0.439 7.8 12.4 7.56
8/28/2021 8:15:00 AM 21.24 70.232 0.439 7.81 11.15 7.57
8/28/2021 8:30:00 AM 21.24 70.232 0.439 7.81 10.98 7.52
8/28/2021 8:45:00 AM 21.24 70.232 0.439 7.81 14.46 7.69
8/28/2021 9:00:00 AM 21.25 70.25 0.439 7.81 11.01 7.66
8/28/2021 9:15:00 AM 21.26 70.268 0.439 7.82 9.62 7.72
8/28/2021 9:30:00 AM 21.3 70.34 0.438 7.82 10.04 7.73
8/28/2021 9:45:00 AM 21.34 70.412 0.438 7.83 9.18 7.81
8/28/2021 10:00:00 AM 21.39 70.502 0.438 7.84 9.35 7.83
8/28/2021 10:15:00 AM 21.44 70.592 0.438 7.85 9.17 8.01
8/28/2021 10:30:00 AM 21.49 70.682 0.437 7.85 10.84 8.06
8/28/2021 10:45:00 AM 21.52 70.736 0.438 7.85 18.48 8.11
8/28/2021 11:00:00 AM 21.6 70.88 0.434 7.85 23.79 8.13
8/28/2021 11:15:00 AM 21.82 71.276 0.424 7.87 67.24 8.09
8/28/2021 11:30:00 AM 22.15 71.87 0.407 7.91 54.41 8.03
8/28/2021 11:45:00 AM 22.41 72.338 0.396 7.93 53.18 8.01
8/28/2021 12:00:00 PM 22.61 72.698 0.389 7.95 43.62 7.97
8/28/2021 12:15:00 PM 22.78 73.004 0.384 7.95 36.73 7.94
8/28/2021 12:30:00 PM 22.86 73.148 0.383 7.95 32.77 7.93
8/28/2021 12:45:00 PM 22.89 73.202 0.385 7.96 48.79 7.92
8/28/2021 1:00:00 PM 22.93 73.274 0.378 7.95 40.55 7.89
8/28/2021 1:15:00 PM 22.98 73.364 0.361 7.94 76.04 7.82
8/28/2021 1:30:00 PM 22.98 73.364 0.341 7.91 58.35 7.73
8/28/2021 1:45:00 PM 22.98 73.364 0.327 7.88 51.44 7.67
8/28/2021 2:00:00 PM 22.99 73.382 0.308 7.85 59.57 7.64
8/28/2021 2:15:00 PM 22.98 73.364 0.308 7.83 63.71 7.61
8/28/2021 2:30:00 PM 22.98 73.364 0.314 7.82 55.15 7.62
8/28/2021 2:45:00 PM 22.96 73.328 0.308 7.81 58.26 7.62
8/28/2021 3:00:00 PM 22.95 73.31 0.373 7.8 49.59 7.63
8/28/2021 3:15:00 PM 22.93 73.274 0.308 7.8 43.9 7.63
8/28/2021 3:30:00 PM 22.91 73.238 0.338 7.79 62.41 7.63
8/28/2021 3:45:00 PM 22.91 73.238 0.34 7.79 42.05 7.64
8/28/2021 4:00:00 PM 22.91 73.238 0.322 7.78 41.85 7.65
8/28/2021 4:15:00 PM 22.89 73.202 0.342 7.78 34.56 7.64
8/28/2021 4:30:00 PM 22.87 73.166 0.331 7.78 36.17 7.62
8/28/2021 4:45:00 PM 22.83 73.094 0.332 7.77 40.29 7.61
8/28/2021 5:00:00 PM 22.8 73.04 0.333 7.77 35.44 7.59
8/28/2021 5:15:00 PM 22.76 72.968 0.334 7.77 29.61 7.56
8/28/2021 5:30:00 PM 22.73 72.914 0.331 7.76 30.46 7.57
8/28/2021 5:45:00 PM 22.7 72.86 0.331 7.76 29.9 7.51
8/28/2021 6:00:00 PM 22.67 72.806 0.331 7.76 41.86 7.54
8/28/2021 6:15:00 PM 22.64 72.752 0.331 7.75 33.83 7.54
8/28/2021 6:30:00 PM 22.6 72.68 0.334 7.75 33.93 7.52
8/28/2021 6:45:00 PM 22.55 72.59 0.333 7.74 29.6 7.49
8/28/2021 7:00:00 PM 22.5 72.5 0.345 7.74 32.62 7.48
8/28/2021 7:15:00 PM 22.45 72.41 0.344 7.73 32.74 7.45
8/28/2021 7:30:00 PM 22.4 72.32 0.324 7.73 41.21 7.43
8/28/2021 7:45:00 PM 22.35 72.23 0.381 7.72 42.81 7.35
8/28/2021 8:00:00 PM 22.3 72.14 0.341 7.72 31.85 7.42
8/28/2021 8:15:00 PM 22.24 72.032 0.312 7.72 42.13 7.38
8/28/2021 8:30:00 PM 22.19 71.942 0.378 7.71 35.12 7.36
8/28/2021 8:45:00 PM 22.14 71.852 0.313 7.71 32.16 7.35
8/28/2021 9:00:00 PM 22.09 71.762 0.313 7.71 32.61 7.34
8/28/2021 9:15:00 PM 22.04 71.672 0.314 7.7 31.56 7.34
8/28/2021 9:30:00 PM 21.98 71.564 0.314 7.7 36.48 7.35
8/28/2021 9:45:00 PM 21.93 71.474 0.314 7.7 31.72 7.32
8/28/2021 10:00:00 PM 21.88 71.384 0.314 7.7 29.55 7.34
8/28/2021 10:15:00 PM 21.83 71.294 0.314 7.69 35.46 7.34
8/28/2021 10:30:00 PM 21.78 71.204 0.314 7.69 33 7.31
8/28/2021 10:45:00 PM 21.73 71.114 0.314 7.69 28.77 7.33
8/28/2021 11:00:00 PM 21.68 71.024 0.313 7.69 37.07 7.33
8/28/2021 11:15:00 PM 21.63 70.934 0.314 7.69 27.6 7.36
8/28/2021 11:30:00 PM 21.57 70.826 0.315 7.69 34.63 7.34
8/28/2021 11:45:00 PM 21.53 70.754 0.315 7.69 34.46 7.34
8/29/2021 12:00:00 AM 21.48 70.664 0.315 7.69 29.9 7.33
8/29/2021 12:15:00 AM 21.43 70.574 0.316 7.69 31.23 7.35
8/29/2021 12:30:00 AM 21.39 70.502 0.316 7.69 29.89 7.37
8/29/2021 12:45:00 AM 21.35 70.43 0.317 7.69 33.79 7.37
8/29/2021 1:00:00 AM 21.3 70.34 0.318 7.69 27.27 7.29
8/29/2021 1:15:00 AM 21.26 70.268 0.317 7.69 27.94 7.35
8/29/2021 1:30:00 AM 21.22 70.196 0.318 7.69 137.95 7.39
8/29/2021 1:45:00 AM 21.18 70.124 0.383 7.69 29.47 7.38
8/29/2021 2:00:00 AM 21.13 70.034 0.319 7.69 26.31 7.4
8/29/2021 2:15:00 AM 21.09 69.962 0.32 7.69 32.21 7.37
8/29/2021 2:30:00 AM 21.06 69.908 0.32 7.69 30.4 7.41
8/29/2021 2:45:00 AM 21.02 69.836 0.327 7.69 28.92 7.42
8/29/2021 3:00:00 AM 20.98 69.764 0.321 7.69 31 7.33
8/29/2021 3:15:00 AM 20.94 69.692 0.32 7.7 27.92 7.42
8/29/2021 3:30:00 AM 20.9 69.62 0.321 7.7 29.47 7.37
8/29/2021 3:45:00 AM 20.87 69.566 0.389 7.7 32.72 7.33
8/29/2021 4:00:00 AM 20.83 69.494 0.322 7.7 30.51 7.47
8/29/2021 4:15:00 AM 20.8 69.44 0.322 7.7 28.18 7.47
8/29/2021 4:30:00 AM 20.76 69.368 0.392 7.7 28.57 7.48
8/29/2021 4:45:00 AM 20.72 69.296 0.353 7.7 26.26 7.49
8/29/2021 5:00:00 AM 20.69 69.242 0.322 7.7 29.26 7.48
8/29/2021 5:15:00 AM 20.65 69.17 0.382 7.72 104.89 7.4
8/29/2021 5:30:00 AM 20.62 69.116 0.335 7.7 27.23 7.44
8/29/2021 5:45:00 AM 20.58 69.044 0.357 7.71 22.85 7.46
8/29/2021 6:00:00 AM 20.55 68.99 0.345 7.71 29.01 7.46
8/29/2021 6:15:00 AM 20.52 68.936 0.359 7.71 25.87 7.49
8/29/2021 6:30:00 AM 20.49 68.882 0.347 7.71 37.74 7.41
8/29/2021 6:45:00 AM 20.45 68.81 0.348 7.71 25.29 7.49
8/29/2021 7:00:00 AM 20.42 68.756 0.349 7.71 38.06 7.51
8/29/2021 7:15:00 AM 20.4 68.72 0.363 7.71 21.88 7.54
8/29/2021 7:30:00 AM 20.37 68.666 0.364 7.71 21.44 7.51
8/29/2021 7:45:00 AM 20.34 68.612 0.345 7.72 23.68 7.52
8/29/2021 8:00:00 AM 20.32 68.576 0.353 7.72 21.41 7.45
8/29/2021 8:15:00 AM 20.3 68.54 0.35 7.72 21.07 7.63
8/29/2021 8:30:00 AM 20.28 68.504 0.351 7.72 20.62 7.64
8/29/2021 8:45:00 AM 20.28 68.504 0.35 7.73 19.79 7.7
8/29/2021 9:00:00 AM 20.27 68.486 0.353 7.73 19.06 7.56
8/29/2021 9:15:00 AM 20.27 68.486 0.353 7.74 17.31 7.73
8/29/2021 9:30:00 AM 20.28 68.504 0.355 7.74 19.37 7.78
8/29/2021 9:45:00 AM 20.29 68.522 0.355 7.75 19.33 7.72
8/29/2021 10:00:00 AM 20.31 68.558 0.354 7.75 17.35 7.86
8/29/2021 10:15:00 AM 20.33 68.594 0.356 7.76 26.76 7.88
8/29/2021 10:30:00 AM 20.35 68.63 0.359 7.76 16.98 7.96
8/29/2021 10:45:00 AM 20.38 68.684 0.358 7.77 17.81 7.85
8/29/2021 11:00:00 AM 20.41 68.738 0.359 7.77 14.77 7.81
8/29/2021 11:15:00 AM 20.44 68.792 0.36 7.78 18.82 8
8/29/2021 11:30:00 AM 20.46 68.828 0.361 7.77 22.13 8.02
8/29/2021 11:45:00 AM 20.51 68.918 0.362 7.79 53.66 8
8/29/2021 12:00:00 PM 20.56 69.008 0.363 7.8 15.38 8.11
8/29/2021 12:15:00 PM 20.62 69.116 0.364 7.8 52.26 8.22
8/29/2021 12:30:00 PM 20.69 69.242 0.365 7.81 14.97 8.13
8/29/2021 12:45:00 PM 20.77 69.386 0.364 7.82 15.1 8.13
8/29/2021 1:00:00 PM 20.87 69.566 0.365 7.83 13.77 8.35
8/29/2021 1:15:00 PM 20.95 69.71 0.367 7.83 14.28 8.3
8/29/2021 1:30:00 PM 21.06 69.908 0.368 7.84 18.34 8.38
8/29/2021 1:45:00 PM 21.18 70.124 0.369 7.84 20.96 8.49
8/29/2021 2:00:00 PM 21.3 70.34 0.369 7.84 18.56 8.4
8/29/2021 2:15:00 PM 21.36 70.448 0.369 7.85 17.17 8.46
8/29/2021 2:30:00 PM 21.41 70.538 0.372 7.84 130.95 8.45
8/29/2021 2:45:00 PM 21.47 70.646 0.371 7.85 19.72 8.48
8/29/2021 3:00:00 PM 21.51 70.718 0.372 7.85 22.7 8.51
8/29/2021 3:15:00 PM 21.58 70.844 0.373 7.86 20.39 8.51
8/29/2021 3:30:00 PM 21.64 70.952 0.374 7.86 19.36 8.41
8/29/2021 3:45:00 PM 21.62 70.916 0.374 7.86 30.46 8.13
8/29/2021 4:00:00 PM 21.6 70.88 0.375 7.85 22.42 8.41
8/29/2021 4:15:00 PM 21.58 70.844 0.376 7.85 18.93 8.24
8/29/2021 4:30:00 PM 21.56 70.808 0.377 7.85 19.78 8.31
8/29/2021 4:45:00 PM 21.53 70.754 0.378 7.84 18.34 8.31
8/29/2021 5:00:00 PM 21.5 70.7 0.378 7.84 24 8.19
8/29/2021 5:15:00 PM 21.49 70.682 0.378 7.84 19.88 8.14
8/29/2021 5:30:00 PM 21.48 70.664 0.38 7.83 18.19 8.11
8/29/2021 5:45:00 PM 21.49 70.682 0.381 7.83 16.52 8.11
8/29/2021 6:00:00 PM 21.49 70.682 0.382 7.82 17.92 8.11
8/29/2021 6:15:00 PM 21.49 70.682 0.382 7.82 49.46 8.08
8/29/2021 6:30:00 PM 21.49 70.682 0.383 7.82 18.38 7.98
8/29/2021 6:45:00 PM 21.49 70.682 0.385 7.81 15.08 8
8/29/2021 7:00:00 PM 21.48 70.664 0.385 7.81 23.81 7.95
8/29/2021 7:15:00 PM 21.47 70.646 0.385 7.8 23.71 7.85
8/29/2021 7:30:00 PM 21.45 70.61 0.386 7.8 16.15 7.88
8/29/2021 7:45:00 PM 21.43 70.574 0.387 7.79 30.2 7.84
8/29/2021 8:00:00 PM 21.42 70.556 0.387 7.79 13.47 7.81
8/29/2021 8:15:00 PM 21.4 70.52 0.388 7.79 14.77 7.7
8/29/2021 8:30:00 PM 21.37 70.466 0.389 7.78 51.4 7.7
8/29/2021 8:45:00 PM 21.35 70.43 0.389 7.78 16.24 7.72
8/29/2021 9:00:00 PM 21.32 70.376 0.39 7.78 17.53 7.55
8/29/2021 9:15:00 PM 21.29 70.32201 0.39 7.78 57.46 7.54
8/29/2021 9:30:00 PM 21.26 70.268 0.391 7.78 19.96 7.54
8/29/2021 9:45:00 PM 21.22 70.196 0.391 7.78 19.47 7.67
8/29/2021 10:00:00 PM 21.2 70.16 0.392 7.78 17.73 7.65
8/29/2021 10:15:00 PM 21.16 70.088 0.394 7.77 17.2 7.57
8/29/2021 10:30:00 PM 21.13 70.034 0.394 7.77 19.21 7.56
8/29/2021 10:45:00 PM 21.1 69.98 0.394 7.77 16.05 7.45
8/29/2021 11:00:00 PM 21.07 69.926 0.394 7.77 16.42 7.49
8/29/2021 11:15:00 PM 21.03 69.854 0.395 7.77 16.2 7.38
8/29/2021 11:30:00 PM 21.01 69.818 0.396 7.77 17.95 7.55
8/29/2021 11:45:00 PM 20.98 69.764 0.396 7.77 34.1 7.57
8/30/2021 12:00:00 AM 20.96 69.728 0.397 7.77 20.36 7.34
8/30/2021 12:15:00 AM 20.94 69.692 0.397 7.77 34.05 7.5
8/30/2021 12:30:00 AM 20.92 69.656 0.398 7.77 18.4 7.53
8/30/2021 12:45:00 AM 20.9 69.62 0.398 7.77 19.46 7.44
8/30/2021 1:00:00 AM 20.89 69.602 0.399 7.77 24.06 7.53
8/30/2021 1:15:00 AM 20.87 69.566 0.399 7.77 17.96 7.56
8/30/2021 1:30:00 AM 20.86 69.548 0.399 7.77 16.67 7.5
8/30/2021 1:45:00 AM 20.84 69.512 0.4 7.77 16.43 7.56
8/30/2021 2:00:00 AM 20.83 69.494 0.4 7.77 19.44 7.46
8/30/2021 2:15:00 AM 20.81 69.458 0.401 7.77 17.89 7.51
8/30/2021 2:30:00 AM 20.8 69.44 0.401 7.76 32.87 7.42
8/30/2021 2:45:00 AM 20.78 69.404 0.402 7.76 18.24 7.52
8/30/2021 3:00:00 AM 20.77 69.386 0.401 7.76 18.78 7.32
8/30/2021 3:15:00 AM 20.75 69.35 0.403 7.76 17.92 7.56
8/30/2021 3:30:00 AM 20.73 69.314 0.403 7.77 17.3 7.51
8/30/2021 3:45:00 AM 20.72 69.296 0.403 7.76 18.11 7.52
8/30/2021 4:00:00 AM 20.7 69.26 0.404 7.77 17.59 7.55
8/30/2021 4:15:00 AM 20.69 69.242 0.405 7.76 16.75 7.58
8/30/2021 4:30:00 AM 20.67 69.206 0.404 7.77 17.88 7.47
8/30/2021 4:45:00 AM 20.65 69.17 0.404 7.76 17.39 7.44
8/30/2021 5:00:00 AM 20.63 69.134 0.405 7.76 17.05 7.47
8/30/2021 5:15:00 AM 20.61 69.098 0.406 7.76 17.58 7.58
8/30/2021 5:30:00 AM 20.6 69.08 0.406 7.76 20.01 7.21
8/30/2021 5:45:00 AM 20.58 69.044 0.407 7.76 21.55 7.55
8/30/2021 6:00:00 AM 20.55 68.99 0.407 7.76 19.64 7.5
8/30/2021 6:15:00 AM 20.53 68.954 0.408 7.76 18.3 7.5
8/30/2021 6:30:00 AM 20.51 68.918 0.408 7.76 15.2 7.49
8/30/2021 6:45:00 AM 20.5 68.9 0.408 7.76 18.05 7.51
8/30/2021 7:00:00 AM 20.48 68.864 0.408 7.76 17.9 7.51
8/30/2021 7:15:00 AM 20.47 68.846 0.409 7.76 16.87 7.63
8/30/2021 7:30:00 AM 20.47 68.846 0.408 7.76 14.42 7.21
8/30/2021 7:45:00 AM 20.47 68.846 0.411 7.77 15 7.58
8/30/2021 8:00:00 AM 20.47 68.846 0.409 7.77 13.72 7.6
8/30/2021 8:15:00 AM 20.49 68.882 0.41 7.77 15.21 7.61
8/30/2021 8:30:00 AM 20.51 68.918 0.41 7.77 15.51 7.69
8/30/2021 8:45:00 AM 20.52 68.936 0.411 7.78 12.7 7.53
8/30/2021 9:00:00 AM 20.54 68.972 0.41 7.78 12.54 7.7
8/30/2021 9:15:00 AM 20.56 69.008 0.411 7.79 13.9 7.67
8/30/2021 9:30:00 AM 20.59 69.062 0.411 7.79 13.58 7.59
8/30/2021 9:45:00 AM 20.61 69.098 0.412 7.8 12.74 7.8
8/30/2021 10:00:00 AM 20.65 69.17 0.412 7.81 12.24 7.89
8/30/2021 10:15:00 AM 20.7 69.26 0.412 7.81 11.67 7.71
8/30/2021 10:30:00 AM 20.76 69.368 0.411 7.82 12.15 7.92
8/30/2021 10:45:00 AM 20.81 69.458 0.412 7.83 11.5 7.97
8/30/2021 11:00:00 AM 20.89 69.602 0.412 7.84 12.68 8.15
8/30/2021 11:15:00 AM 20.98 69.764 0.413 7.85 11.33 8.06
8/30/2021 11:30:00 AM 21.06 69.908 0.413 7.85 12.76 8.13
8/30/2021 11:45:00 AM 21.17 70.106 0.413 7.86 12.76 8.34
8/30/2021 12:00:00 PM 21.24 70.232 0.413 7.87 11.11 8.4
8/30/2021 12:15:00 PM 21.33 70.394 0.414 7.88 11.48 8.34
8/30/2021 12:30:00 PM 21.46 70.628 0.414 7.89 11.06 8.46
8/30/2021 12:45:00 PM 21.54 70.772 0.414 7.89 11.44 8.4
8/30/2021 1:00:00 PM 21.69 71.042 0.414 7.9 10.74 8.59
8/30/2021 1:15:00 PM 21.79 71.222 0.415 7.91 12.46 8.58
8/30/2021 1:30:00 PM 21.91 71.438 0.415 7.91 12.32 8.61
8/30/2021 1:45:00 PM 21.96 71.528 0.415 7.91 23.08 8.58
8/30/2021 2:00:00 PM 22.14 71.852 0.415 7.92 11.3 8.35
8/30/2021 2:15:00 PM 22.27 72.086 0.416 7.93 11.56 8.68
8/30/2021 2:30:00 PM 22.31 72.158 0.416 7.93 11.2 8.6
8/30/2021 2:45:00 PM 22.37 72.266 0.416 7.93 10.66 8.59
8/30/2021 3:00:00 PM 22.46 72.42799 0.416 7.93 11.77 8.55
8/30/2021 3:15:00 PM 22.56 72.608 0.417 7.94 12.16 8.56
8/30/2021 3:30:00 PM 22.53 72.554 0.417 7.94 17.12 8.53
8/30/2021 3:45:00 PM 22.58 72.644 0.417 7.93 69.25 8.53
8/30/2021 4:00:00 PM 22.63 72.734 0.417 7.93 15.12 8.49
8/30/2021 4:15:00 PM 22.62 72.716 0.416 7.93 11.58 8.45
8/30/2021 4:30:00 PM 22.61 72.698 0.418 7.93 11.91 8.37
8/30/2021 4:45:00 PM 22.61 72.698 0.418 7.93 11.75 8.32
8/30/2021 5:00:00 PM 22.58 72.644 0.418 7.92 12.1 8.3
8/30/2021 5:15:00 PM 22.54 72.57201 0.419 7.92 11.27 8.24
8/30/2021 5:30:00 PM 22.52 72.536 0.418 7.92 14.84 8.19
8/30/2021 5:45:00 PM 22.5 72.5 0.419 7.91 16.11 8.16
8/30/2021 6:00:00 PM 22.46 72.42799 0.419 7.91 11.62 8.1
8/30/2021 6:15:00 PM 22.41 72.338 0.419 7.9 14.54 8.04
8/30/2021 6:30:00 PM 22.37 72.266 0.42 7.9 12.83 8.02
8/30/2021 6:45:00 PM 22.34 72.212 0.42 7.89 12.8 7.97
8/30/2021 7:00:00 PM 22.32 72.176 0.42 7.89 12.7 7.93
8/30/2021 7:15:00 PM 22.29 72.122 0.42 7.88 12.75 7.87
8/30/2021 7:30:00 PM 22.26 72.068 0.42 7.88 11.85 7.83
8/30/2021 7:45:00 PM 22.24 72.032 0.42 7.88 11.49 7.78
8/30/2021 8:00:00 PM 22.22 71.996 0.421 7.87 12.19 7.7
8/30/2021 8:15:00 PM 22.19 71.942 0.421 7.87 11.66 7.7
8/30/2021 8:30:00 PM 22.16 71.888 0.422 7.86 12.24 7.65
8/30/2021 8:45:00 PM 22.12 71.816 0.422 7.86 12.77 7.63
8/30/2021 9:00:00 PM 22.08 71.744 0.422 7.85 12.37 7.54
8/30/2021 9:15:00 PM 22.05 71.69 0.422 7.85 13.15 7.46
8/30/2021 9:30:00 PM 22.01 71.618 0.422 7.85 12.72 7.54
8/30/2021 9:45:00 PM 21.97 71.546 0.423 7.85 13.38 7.47
8/30/2021 10:00:00 PM 21.93 71.474 0.423 7.84 13.83 7.51
8/30/2021 10:15:00 PM 21.89 71.402 0.423 7.84 12.83 7.48
8/30/2021 10:30:00 PM 21.85 71.33 0.423 7.84 14.91 7.47
8/30/2021 10:45:00 PM 21.81 71.258 0.423 7.84 12.33 7.49
8/30/2021 11:00:00 PM 21.77 71.186 0.424 7.84 12.87 7.41
8/30/2021 11:15:00 PM 21.72 71.096 0.424 7.84 13.99 7.38
8/30/2021 11:30:00 PM 21.68 71.024 0.424 7.84 12.54 7.47
8/30/2021 11:45:00 PM 21.64 70.952 0.424 7.84 13.51 7.39
8/31/2021 12:00:00 AM 21.6 70.88 0.424 7.83 12.37 7.47
8/31/2021 12:15:00 AM 21.55 70.79 0.425 7.83 13.09 7.46
8/31/2021 12:30:00 AM 21.51 70.718 0.425 7.83 15.03 7.37
8/31/2021 12:45:00 AM 21.47 70.646 0.425 7.83 15.65 7.43
8/31/2021 1:00:00 AM 21.43 70.574 0.426 7.83 22.54 7.45
8/31/2021 1:15:00 AM 21.4 70.52 0.426 7.82 14.93 7.46
8/31/2021 1:30:00 AM 21.36 70.448 0.426 7.82 17.76 7.46
8/31/2021 1:45:00 AM 21.33 70.394 0.426 7.82 15.65 7.46
8/31/2021 2:00:00 AM 21.3 70.34 0.427 7.82 16.66 7.47
8/31/2021 2:15:00 AM 21.27 70.286 0.426 7.82 14.74 7.47
8/31/2021 2:30:00 AM 21.24 70.232 0.427 7.82 13.71 7.47
8/31/2021 2:45:00 AM 21.22 70.196 0.427 7.82 14.13 7.4
8/31/2021 3:00:00 AM 21.18 70.124 0.427 7.82 15.01 7.46
8/31/2021 3:15:00 AM 21.16 70.088 0.427 7.82 14.9 7.49
8/31/2021 3:30:00 AM 21.13 70.034 0.428 7.82 14.44 7.47
8/31/2021 3:45:00 AM 21.1 69.98 0.428 7.82 13.7 7.5
8/31/2021 4:00:00 AM 21.08 69.944 0.427 7.82 12.95 7.46
8/31/2021 4:15:00 AM 21.05 69.89 0.428 7.82 15.7 7.44
8/31/2021 4:30:00 AM 21.03 69.854 0.428 7.82 14.28 7.49
8/31/2021 4:45:00 AM 20.99 69.782 0.428 7.82 14.44 7.49
8/31/2021 5:00:00 AM 20.97 69.746 0.429 7.82 13.1 7.53
8/31/2021 5:15:00 AM 20.94 69.692 0.429 7.81 13.3 7.42
8/31/2021 5:30:00 AM 20.91 69.638 0.429 7.81 15.77 7.49
8/31/2021 5:45:00 AM 20.89 69.602 0.429 7.81 13.65 7.52
8/31/2021 6:00:00 AM 20.86 69.548 0.429 7.81 15.51 7.42
8/31/2021 6:15:00 AM 20.83 69.494 0.429 7.81 19.79 7.55
8/31/2021 6:30:00 AM 20.81 69.458 0.429 7.81 24.11 7.53
8/31/2021 6:45:00 AM 20.79 69.422 0.429 7.81 14.12 7.5
8/31/2021 7:00:00 AM 20.77 69.386 0.429 7.81 14.49 7.51
8/31/2021 7:15:00 AM 20.75 69.35 0.429 7.81 16.19 7.56
8/31/2021 7:30:00 AM 20.73 69.314 0.429 7.81 14.33 7.52
8/31/2021 7:45:00 AM 20.71 69.278 0.43 7.81 12.94 7.58
8/31/2021 8:00:00 AM 20.69 69.242 0.429 7.81 13.12 7.58
8/31/2021 8:15:00 AM 20.69 69.242 0.43 7.81 13.64 7.6
8/31/2021 8:30:00 AM 20.69 69.242 0.43 7.81 14.14 7.66
8/31/2021 8:45:00 AM 20.71 69.278 0.43 7.82 13.59 7.7
8/31/2021 9:00:00 AM 20.72 69.296 0.43 7.82 12.44 7.78
8/31/2021 9:15:00 AM 20.74 69.332 0.43 7.83 12.6 7.77
8/31/2021 9:30:00 AM 20.77 69.386 0.43 7.83 11.95 7.75
8/31/2021 9:45:00 AM 20.81 69.458 0.429 7.84 12.3 7.94
8/31/2021 10:00:00 AM 20.85 69.53 0.43 7.85 12.52 8
8/31/2021 10:15:00 AM 20.89 69.602 0.43 7.86 11.7 8.07
8/31/2021 10:30:00 AM 20.94 69.692 0.429 7.87 11.36 8.13
8/31/2021 10:45:00 AM 21 69.8 0.43 7.88 11.37 8.21
8/31/2021 11:00:00 AM 21.05 69.89 0.43 7.89 11.38 8.34
8/31/2021 11:15:00 AM 21.1 69.98 0.43 7.9 11.25 8.33
8/31/2021 11:30:00 AM 21.15 70.07 0.43 7.91 11.89 8.44
8/31/2021 11:45:00 AM 21.19 70.142 0.43 7.91 10.75 8.44
8/31/2021 12:00:00 PM 21.22 70.196 0.43 7.92 11.05 8.51
8/31/2021 12:15:00 PM 21.24 70.232 0.43 7.92 10.66 8.47
8/31/2021 12:30:00 PM 21.25 70.25 0.43 7.92 10.57 8.51
8/31/2021 12:45:00 PM 21.27 70.286 0.43 7.93 10.9 8.55
8/31/2021 1:00:00 PM 21.29 70.32201 0.43 7.93 10.6 8.53
8/31/2021 1:15:00 PM 21.31 70.358 0.43 7.93 10.47 8.52
8/31/2021 1:30:00 PM 21.33 70.394 0.43 7.94 18.36 8.62
8/31/2021 1:45:00 PM 21.36 70.448 0.43 7.94 20.16 8.63
8/31/2021 2:00:00 PM 21.39 70.502 0.43 7.95 11.5 8.57
8/31/2021 2:15:00 PM 21.42 70.556 0.43 7.95 10.93 8.49
8/31/2021 2:30:00 PM 21.46 70.628 0.429 7.95 15.4 8.69
8/31/2021 2:45:00 PM 21.49 70.682 0.43 7.96 11.28 8.72
8/31/2021 3:00:00 PM 21.53 70.754 0.43 7.96 11.24 8.69
8/31/2021 3:15:00 PM 21.57 70.826 0.429 7.97 10.94 8.76
8/31/2021 3:30:00 PM 21.58 70.844 0.43 7.97 10.9 8.75
8/31/2021 3:45:00 PM 21.58 70.844 0.43 7.97 12.02 8.71
8/31/2021 4:00:00 PM 21.59 70.862 0.43 7.97 10.8 8.67
8/31/2021 4:15:00 PM 21.59 70.862 0.43 7.97 11.67 8.65
8/31/2021 4:30:00 PM 21.59 70.862 0.43 7.97 12.24 8.65
8/31/2021 4:45:00 PM 21.61 70.898 0.43 7.97 12.31 8.62
8/31/2021 5:00:00 PM 21.61 70.898 0.43 7.96 12.08 8.55
8/31/2021 5:15:00 PM 21.61 70.898 0.431 7.96 11.83 8.32
8/31/2021 5:30:00 PM 21.6 70.88 0.431 7.96 11.47 8.47
8/31/2021 5:45:00 PM 21.58 70.844 0.431 7.95 16.03 8.44
8/31/2021 6:00:00 PM 21.56 70.808 0.431 7.94 13.26 8.35
8/31/2021 6:15:00 PM 21.53 70.754 0.431 7.94 11.15 8.3
8/31/2021 6:30:00 PM 21.5 70.7 0.431 7.93 11.3 8.04
8/31/2021 6:45:00 PM 21.48 70.664 0.431 7.93 10.71 8.17
8/31/2021 7:00:00 PM 21.45 70.61 0.431 7.92 10.72 8.12
8/31/2021 7:15:00 PM 21.42 70.556 0.431 7.91 11.18 8.04
8/31/2021 7:30:00 PM 21.38 70.484 0.431 7.91 11.22 7.92
8/31/2021 7:45:00 PM 21.34 70.412 0.432 7.9 10.63 7.98
8/31/2021 8:00:00 PM 21.31 70.358 0.432 7.9 11.63 7.89
8/31/2021 8:15:00 PM 21.28 70.304 0.432 7.89 11.45 7.85
8/31/2021 8:30:00 PM 21.25 70.25 0.432 7.89 12.36 7.84
8/31/2021 8:45:00 PM 21.22 70.196 0.432 7.89 12.16 7.83
8/31/2021 9:00:00 PM 21.2 70.16 0.432 7.88 11.85 7.82
8/31/2021 9:15:00 PM 21.17 70.106 0.432 7.88 11.91 7.78
8/31/2021 9:30:00 PM 21.14 70.052 0.432 7.88 12.36 7.73
8/31/2021 9:45:00 PM 21.11 69.998 0.432 7.88 12.01 7.73
8/31/2021 10:00:00 PM 21.09 69.962 0.433 7.87 12.46 7.71
8/31/2021 10:15:00 PM 21.06 69.908 0.433 7.87 12.24 7.63
8/31/2021 10:30:00 PM 21.04 69.872 0.433 7.87 12.1 7.7
8/31/2021 10:45:00 PM 21.01 69.818 0.433 7.86 12.77 7.63
8/31/2021 11:00:00 PM 20.99 69.782 0.433 7.86 12.47 7.7
8/31/2021 11:15:00 PM 20.96 69.728 0.433 7.86 12.44 7.69
8/31/2021 11:30:00 PM 20.93 69.674 0.433 7.86 16.02 7.69
8/31/2021 11:45:00 PM 20.9 69.62 0.433 7.85 13.06 7.66
9/1/2021 12:00:00 AM 20.88 69.584 0.434 7.85 13.02 7.56
9/1/2021 12:15:00 AM 20.85 69.53 0.434 7.85 17.9 7.66
9/1/2021 12:30:00 AM 20.82 69.476 0.434 7.85 13.58 7.66
9/1/2021 12:45:00 AM 20.8 69.44 0.434 7.84 17.82 7.61
9/1/2021 1:00:00 AM 20.77 69.386 0.434 7.84 14.44 7.61
9/1/2021 1:15:00 AM 20.74 69.332 0.434 7.84 20.51 7.64
9/1/2021 1:30:00 AM 20.72 69.296 0.434 7.84 12.57 7.64
9/1/2021 1:45:00 AM 20.7 69.26 0.435 7.84 13.51 7.62
9/1/2021 2:00:00 AM 20.67 69.206 0.435 7.84 12.92 7.61
9/1/2021 2:15:00 AM 20.64 69.152 0.435 7.84 12.88 7.65
9/1/2021 2:30:00 AM 20.62 69.116 0.434 7.83 13.54 7.59
9/1/2021 2:45:00 AM 20.6 69.08 0.434 7.84 14.98 7.61
9/1/2021 3:00:00 AM 20.58 69.044 0.434 7.83 15.08 7.57
9/1/2021 3:15:00 AM 20.56 69.008 0.433 7.83 18.06 7.57
9/1/2021 3:30:00 AM 20.54 68.972 0.433 7.83 13.95 7.61
9/1/2021 3:45:00 AM 20.52 68.936 0.432 7.83 13.7 7.58
9/1/2021 4:00:00 AM 20.5 68.9 0.431 7.83 14.28 7.59
9/1/2021 4:15:00 AM 20.49 68.882 0.43 7.82 15.46 7.55
9/1/2021 4:30:00 AM 20.47 68.846 0.43 7.82 18.01 7.46
9/1/2021 4:45:00 AM 20.45 68.81 0.429 7.82 16.75 7.57
9/1/2021 5:00:00 AM 20.43 68.774 0.43 7.82 14.36 7.55
9/1/2021 5:15:00 AM 20.42 68.756 0.427 7.82 16.08 7.58
9/1/2021 5:30:00 AM 20.4 68.72 0.426 7.82 16.85 7.52
9/1/2021 5:45:00 AM 20.38 68.684 0.425 7.82 20.39 7.6
9/1/2021 6:00:00 AM 20.36 68.648 0.425 7.82 17.71 7.57
9/1/2021 6:15:00 AM 20.35 68.63 0.423 7.82 18.87 7.57
9/1/2021 6:30:00 AM 20.33 68.594 0.421 7.83 17.61 7.57
9/1/2021 6:45:00 AM 20.32 68.576 0.419 7.83 21.32 7.48
9/1/2021 7:00:00 AM 20.3 68.54 0.407 7.85 33.02 7.73
9/1/2021 7:15:00 AM 20.29 68.522 0.404 7.85 33.19 7.65
9/1/2021 7:30:00 AM 20.27 68.486 0.403 7.86 29.27 7.77
9/1/2021 7:45:00 AM 20.26 68.468 0.403 7.85 34 7.79
9/1/2021 8:00:00 AM 20.25 68.45 0.405 7.85 26.92 7.74
9/1/2021 8:15:00 AM 20.25 68.45 0.406 7.84 25.33 7.7
9/1/2021 8:30:00 AM 20.26 68.468 0.408 7.83 24.4 7.68
9/1/2021 8:45:00 AM 20.27 68.486 0.408 7.83 21.78 7.65
9/1/2021 9:00:00 AM 20.27 68.486 0.408 7.83 19.94 7.67
9/1/2021 9:15:00 AM 20.27 68.486 0.407 7.83 24.17 7.66
9/1/2021 9:30:00 AM 20.27 68.486 0.405 7.83 17.94 7.68
9/1/2021 9:45:00 AM 20.27 68.486 0.401 7.83 22.99 7.69
9/1/2021 10:00:00 AM 20.27 68.486 0.399 7.83 23.2 7.71
9/1/2021 10:15:00 AM 20.27 68.486 0.397 7.84 22.91 7.71
9/1/2021 10:30:00 AM 20.28 68.504 0.395 7.84 22.59 7.75
9/1/2021 10:45:00 AM 20.29 68.522 0.394 7.84 42.54 7.75
9/1/2021 11:00:00 AM 20.31 68.558 0.391 7.84 21.24 7.76
9/1/2021 11:15:00 AM 20.33 68.594 0.39 7.85 23.98 7.78
9/1/2021 11:30:00 AM 20.35 68.63 0.388 7.85 29.88 7.82
9/1/2021 11:45:00 AM 20.36 68.648 0.386 7.86 31.91 7.82
9/1/2021 12:00:00 PM 20.36 68.648 0.384 7.87 24.5 7.81
9/1/2021 12:15:00 PM 20.33 68.594 0.357 7.91 64.65 8.03
9/1/2021 12:30:00 PM 20.33 68.594 0.353 7.92 96.35 8.07
9/1/2021 12:45:00 PM 20.34 68.612 0.35 7.92 107.77 8.01
9/1/2021 1:00:00 PM 20.38 68.684 0.364 7.88 129.63 8.02
9/1/2021 1:15:00 PM 20.44 68.792 0.323 7.85 70.19 7.92
9/1/2021 1:30:00 PM 20.48 68.864 0.317 7.82 74.9 7.88
9/1/2021 1:45:00 PM 20.52 68.936 0.313 7.81 123.33 7.89
9/1/2021 2:00:00 PM 20.52 68.936 0.312 7.81 123.24 7.95
9/1/2021 2:15:00 PM 20.53 68.954 0.294 7.79 121.55 7.98
9/1/2021 2:30:00 PM 20.55 68.99 0.28 7.78 153.19 7.99
9/1/2021 2:45:00 PM 20.5 68.9 0.275 7.75 160.82 7.95
9/1/2021 3:00:00 PM 20.47 68.846 0.274 7.73 199.6 7.91
9/1/2021 3:15:00 PM 20.5 68.9 0.262 7.67 344.31 7.84
9/1/2021 3:30:00 PM 20.51 68.918 0.24 7.63 345.04 7.79
9/1/2021 3:45:00 PM 20.51 68.918 0.233 7.6 328.16 7.76
9/1/2021 4:00:00 PM 20.52 68.936 0.233 7.59 372.51 7.67
9/1/2021 4:15:00 PM 20.52 68.936 0.222 7.57 412.63 7.52
9/1/2021 4:30:00 PM 20.51 68.918 0.209 7.53 426.29 7.4
9/1/2021 4:45:00 PM 20.5 68.9 0.197 7.48 395.86 7.36
9/1/2021 5:00:00 PM 20.49 68.882 0.185 7.45 371.34 7.32
9/1/2021 5:15:00 PM 20.47 68.846 0.177 7.41 339.24 7.32
9/1/2021 5:30:00 PM 20.45 68.81 0.171 7.38 319.28 7.31
9/1/2021 5:45:00 PM 20.42 68.756 0.168 7.35 299.68 7.29
9/1/2021 6:00:00 PM 20.4 68.72 0.165 7.33 297.25 7.26
9/1/2021 6:15:00 PM 20.38 68.684 0.161 7.32 263.44 7.23
9/1/2021 6:30:00 PM 20.35 68.63 0.159 7.31 249.56 7.19
9/1/2021 6:45:00 PM 20.33 68.594 0.157 7.28 238.07 7.17
9/1/2021 7:00:00 PM 20.31 68.558 0.154 7.26 209.75 7.13
9/1/2021 7:15:00 PM 20.31 68.558 0.15 7.24 250.15 7.07
9/1/2021 7:30:00 PM 20.32 68.576 0.143 7.2 257.1 7.03
9/1/2021 7:45:00 PM 20.31 68.558 0.142 7.19 266.69 6.99
9/1/2021 8:00:00 PM 20.29 68.522 0.139 7.16 230.43 6.99
9/1/2021 8:15:00 PM 20.26 68.468 0.138 7.13 225.88 7.01
9/1/2021 8:30:00 PM 20.22 68.396 0.125 7.13 224.16 7.04
9/1/2021 8:45:00 PM 20.19 68.342 0.127 7.14 183.68 7.04
9/1/2021 9:00:00 PM 20.16 68.288 0.104 7.1 174.09 7.05
9/1/2021 9:15:00 PM 20.12 68.216 0.124 7.11 205.48 7.05
9/1/2021 9:30:00 PM 20.08 68.144 0.128 7.11 208.77 7.06
9/1/2021 9:45:00 PM 20.04 68.07201 0.116 7.15 187.17 7.08
9/1/2021 10:00:00 PM 20.01 68.018 0.126 7.16 190.33 7.08
9/1/2021 10:15:00 PM 19.97 67.946 0.127 7.18 172.13 7.09
9/1/2021 10:30:00 PM 19.93 67.874 0.127 7.2 138.19 7.11
9/1/2021 10:45:00 PM 19.88 67.784 0.128 7.2 140.12 7.12
9/1/2021 11:00:00 PM 19.84 67.712 0.129 7.22 111.43 7.12
9/1/2021 11:15:00 PM 19.8 67.64 0.13 7.22 122.6 7.13
9/1/2021 11:30:00 PM 19.77 67.586 0.131 7.23 118.56 7.13
9/1/2021 11:45:00 PM 19.72 67.496 0.133 7.23 127.11 7.14
9/2/2021 12:00:00 AM 19.68 67.424 0.135 7.23 153.54 7.14
9/2/2021 12:15:00 AM 19.65 67.37 0.137 7.23 86.17 7.14
9/2/2021 12:30:00 AM 19.61 67.298 0.139 7.23 105.67 7.15
9/2/2021 12:45:00 AM 19.57 67.226 0.141 7.23 110.16 7.15
9/2/2021 1:00:00 AM 19.53 67.154 0.144 7.22 134.03 7.14
9/2/2021 1:15:00 AM 19.49 67.082 0.146 7.24 83.19 7.15
9/2/2021 1:30:00 AM 19.45 67.01 0.148 7.23 1508.44 7.16
9/2/2021 1:45:00 AM 19.41 66.938 0.152 7.23 86.13 7.16
9/2/2021 2:00:00 AM 19.37 66.866 0.155 7.24 79.78 7.18
9/2/2021 2:15:00 AM 19.33 66.794 0.159 7.24 82.46 7.2
9/2/2021 2:30:00 AM 19.29 66.722 0.162 7.23 83.27 7.21
9/2/2021 2:45:00 AM 19.25 66.65 0.166 7.25 70.91 7.24
9/2/2021 3:00:00 AM 19.21 66.578 0.169 7.23 77.5 7.27
9/2/2021 3:15:00 AM 19.16 66.488 0.174 7.25 77.28 7.29
9/2/2021 3:30:00 AM 19.12 66.416 0.178 7.26 77.12 7.32
9/2/2021 3:45:00 AM 19.07 66.326 0.183 7.26 65.76 7.35
9/2/2021 4:00:00 AM 19.03 66.254 0.187 7.27 68.83 7.38
9/2/2021 4:15:00 AM 18.98 66.164 0.193 7.26 72.35 7.41
9/2/2021 4:30:00 AM 18.91 66.038 0.199 7.25 72.77 7.44
9/2/2021 4:45:00 AM 18.85 65.93 0.206 7.26 65.26 7.49
9/2/2021 5:00:00 AM 18.77 65.786 0.214 7.26 69.09 7.55
9/2/2021 5:15:00 AM 18.69 65.642 0.221 7.27 70.66 7.62
9/2/2021 5:30:00 AM 18.62 65.516 0.227 7.3 66.5 7.69
9/2/2021 5:45:00 AM 18.55 65.39 0.232 7.3 86.73 7.77
9/2/2021 6:00:00 AM 18.48 65.264 0.237 7.31 66.99 7.85
9/2/2021 6:15:00 AM 18.42 65.156 0.241 7.3 75.09 7.9
9/2/2021 6:30:00 AM 18.35 65.03 0.245 7.32 72.1 7.95
9/2/2021 6:45:00 AM 18.28 64.904 0.249 7.34 68.96 7.99
9/2/2021 7:00:00 AM 18.22 64.796 0.253 7.35 69.84 8.03
9/2/2021 7:15:00 AM 18.15 64.67 0.256 7.36 60.92 8.06
9/2/2021 7:30:00 AM 18.09 64.562 0.259 7.37 68.2 8.09
9/2/2021 7:45:00 AM 18.04 64.472 0.262 7.36 62.44 8.12
9/2/2021 8:00:00 AM 17.99 64.382 0.265 7.37 63.4 8.15
9/2/2021 8:15:00 AM 17.94 64.292 0.267 7.37 59.34 8.18
9/2/2021 8:30:00 AM 17.9 64.22 0.27 7.39 56.6 8.2
9/2/2021 8:45:00 AM 17.86 64.148 0.272 7.38 54.72 8.22
9/2/2021 9:00:00 AM 17.83 64.094 0.274 7.4 63.39 8.25
9/2/2021 9:15:00 AM 17.8 64.04 0.277 7.4 51.96 8.27
9/2/2021 9:30:00 AM 17.78 64.004 0.279 7.4 52.12